Darstellungsparameter: Aktuell verwendete Einstellungen:
Skalierung der Graphiken ... ?
xyx+y,   Skalierungsfaktor:      Skalierung: Modus: x, Faktor: 1
Darstellungszeitraum ... ?
Vom - - bis: - -   Zeitraum: 23.02.2010 - 22.03.2010
Min/Max/Avg-Anzeige ... ?
Zeige MMA aktuell
Zeige MMA Monat
Zeige MMA alles
Zeige --A aktuell
Zeige --A Monat
Zeige --A alles
Keine MMA-Anzeige
MMA:
Average (ber die Originaldaten)
MMA-Basis: 23.02.2010 - 22.03.2010
Quicknavigation für Darstellung... ?
Tage:      1T, 2T, 3T, 5T -1T -2T -3T -5T +1T +2T +3T +5T
Wochen: 1W, 2W, 3W -1W -2W -3W +1W +2W +3W
Monate: 1M, 3M, 6M -1M -3M -6M +1M +3M +6M
Jahre:    1J, 3J, 5J, 10J -1J -3J -5J -10J +1J +3J +5J +10J
Nutze für die Darstellung ... ?
Originaldaten oder Mittelwerte auf ...
Stundenbasis Tagesbasis Wochenbasis
Monatsbasis Jahresbasis      Datenbasis: Original-Daten
Darstellen als:
Statistik (Auto) Statistik J:M      Darstellung:
Zur Graphik,    zurück zur Übersicht aller Sensoren.
 
Tabellarische Datenbersicht: ?
 
Sensor: Nr:Datum:Temp:Abs-Feuchte:Windchill:Wind:
Aussen-T/F 1 23-02-2010 00:04:08 12.1 C 5.47 g/m*3 12.1 C 0 km/h
2 23-02-2010 00:16:08 12.1 C 5.47 g/m*3 12.1 C 0 km/h
3 23-02-2010 00:28:08 12.2 C 5.5 g/m*3 12.2 C 0 km/h
4 23-02-2010 00:40:08 12.2 C 5.4 g/m*3 12.2 C 0 km/h
5 23-02-2010 00:52:08 12.1 C 5.36 g/m*3 12.1 C 0 km/h
6 23-02-2010 01:04:08 11.8 C 5.47 g/m*3 11.8 C 0 km/h
7 23-02-2010 01:16:08 11.5 C 5.58 g/m*3 11.5 C 0 km/h
8 23-02-2010 01:28:08 11.4 C 5.75 g/m*3 11.4 C 0 km/h
9 23-02-2010 01:40:08 11.4 C 5.75 g/m*3 11.4 C 0 km/h
10 23-02-2010 01:52:08 11.4 C 5.85 g/m*3 11.4 C 0 km/h
11 23-02-2010 02:04:08 11.2 C 5.78 g/m*3 11.2 C 0 km/h
12 23-02-2010 02:16:08 11.2 C 5.88 g/m*3 11.2 C 0 km/h
13 23-02-2010 02:28:08 10.6 C 6.25 g/m*3 10.6 C 0 km/h
14 23-02-2010 02:40:08 10.4 C 6.46 g/m*3 10.4 C 0 km/h
15 23-02-2010 02:52:08 9.6 C 6.78 g/m*3 9.6 C 0 km/h
16 23-02-2010 03:04:09 9.3 C 6.83 g/m*3 9.3 C 0 km/h
17 23-02-2010 03:16:09 9.2 C 6.97 g/m*3 9.2 C 0 km/h
18 23-02-2010 03:28:09 9.1 C 6.92 g/m*3 9.1 C 0 km/h
19 23-02-2010 03:40:09 9.1 C 7.01 g/m*3 9.1 C 0 km/h
20 23-02-2010 03:52:09 8.9 C 7.1 g/m*3 8.9 C 0 km/h
21 23-02-2010 04:04:09 8.6 C 7.13 g/m*3 8.6 C 0 km/h
22 23-02-2010 04:16:09 8.6 C 7.22 g/m*3 8.6 C 0 km/h
23 23-02-2010 04:28:09 8.5 C 7.17 g/m*3 8.5 C 0 km/h
24 23-02-2010 04:40:09 8.6 C 7.22 g/m*3 8.6 C 0 km/h
25 23-02-2010 04:52:09 8.5 C 7.17 g/m*3 8.5 C 0 km/h
Sensor: Nr:Datum:Temp:Abs-Feuchte:Windchill:Wind:
Aussen-T/F 26 23-02-2010 05:04:09 8.4 C 7.04 g/m*3 8.4 C 0 km/h
27 23-02-2010 05:16:09 8.5 C 7.17 g/m*3 8.5 C 0 km/h
28 23-02-2010 05:28:09 8.3 C 7.08 g/m*3 8.3 C 0 km/h
29 23-02-2010 05:40:09 8.5 C 7.17 g/m*3 8.5 C 0 km/h
30 23-02-2010 05:52:09 8.5 C 7.09 g/m*3 8.5 C 0 km/h
31 23-02-2010 06:04:09 8.5 C 7.09 g/m*3 8.5 C 0 km/h
32 23-02-2010 06:16:09 8.5 C 7.09 g/m*3 8.5 C 0 km/h
33 23-02-2010 06:28:09 8.5 C 7.09 g/m*3 8.5 C 0 km/h
34 23-02-2010 06:40:09 8.5 C 7.09 g/m*3 8.5 C 0 km/h
35 23-02-2010 06:52:09 8.5 C 7.09 g/m*3 8.5 C 0 km/h
36 23-02-2010 07:04:09 8.4 C 7.04 g/m*3 8.4 C 0 km/h
37 23-02-2010 07:16:08 8.2 C 6.95 g/m*3 8.2 C 0 km/h
38 23-02-2010 07:28:08 8.1 C 6.99 g/m*3 8.1 C 0 km/h
39 23-02-2010 07:40:08 8.2 C 7.03 g/m*3 8.2 C 0 km/h
40 23-02-2010 07:52:01 8.2 C 7.03 g/m*3 8.2 C 0 km/h
41 23-02-2010 08:04:02 8.3 C 7.16 g/m*3 8.3 C 0 km/h
42 23-02-2010 08:16:01 8.5 C 7.26 g/m*3 8.5 C 0 km/h
43 23-02-2010 08:28:01 8.6 C 7.22 g/m*3 8.6 C 0 km/h
44 23-02-2010 08:40:02 8.8 C 7.31 g/m*3 8.8 C 0 km/h
45 23-02-2010 08:52:02 8.9 C 7.27 g/m*3 8.9 C 0 km/h
46 23-02-2010 09:04:02 9 C 7.23 g/m*3 9 C 0 km/h
47 23-02-2010 09:16:01 9.1 C 7.28 g/m*3 9.1 C 0 km/h
48 23-02-2010 09:28:01 9.1 C 7.1 g/m*3 9.1 C 0 km/h
49 23-02-2010 09:40:02 9.1 C 7.01 g/m*3 9.1 C 0 km/h
50 23-02-2010 09:52:02 9.3 C 7.19 g/m*3 9.3 C 0 km/h
Sensor: Nr:Datum:Temp:Abs-Feuchte:Windchill:Wind:
Aussen-T/F 51 23-02-2010 10:04:02 9.7 C 7.19 g/m*3 9.7 C 0 km/h
52 23-02-2010 10:16:01 10.4 C 7.04 g/m*3 10.4 C 0 km/h
53 23-02-2010 10:28:01 10.7 C 6.88 g/m*3 10.7 C 0 km/h
54 23-02-2010 10:40:02 10.6 C 6.83 g/m*3 10.6 C 0 km/h
55 23-02-2010 10:52:01 10.6 C 6.73 g/m*3 10.6 C 0 km/h
56 23-02-2010 11:04:02 10.8 C 6.92 g/m*3 10.8 C 0 km/h
57 23-02-2010 11:16:02 11 C 6.81 g/m*3 11 C 0 km/h
58 23-02-2010 11:28:02 11.2 C 6.69 g/m*3 11.2 C 0 km/h
59 23-02-2010 11:40:02 11.4 C 6.57 g/m*3 11.4 C 0 km/h
60 23-02-2010 11:52:01 11.6 C 6.55 g/m*3 11.6 C 0 km/h
61 23-02-2010 12:04:02 11.2 C 6.49 g/m*3 11.2 C 0 km/h
62 23-02-2010 12:16:02 10.9 C 6.66 g/m*3 10.9 C 0 km/h
63 23-02-2010 12:28:02 10.3 C 6.9 g/m*3 10.3 C 0 km/h
64 23-02-2010 12:40:01 10.5 C 7.27 g/m*3 10.5 C 0 km/h
65 23-02-2010 12:52:02 10.4 C 7.13 g/m*3 10.4 C 0 km/h
66 23-02-2010 13:04:01 10.3 C 7.18 g/m*3 10.3 C 0 km/h
67 23-02-2010 13:16:02 10.4 C 7.32 g/m*3 10.4 C 0 km/h
68 23-02-2010 13:28:02 10.5 C 7.37 g/m*3 10.5 C 0 km/h
69 23-02-2010 13:40:01 10.3 C 7.47 g/m*3 10.3 C 0 km/h
70 23-02-2010 13:52:02 10.6 C 7.71 g/m*3 10.6 C 0 km/h
71 23-02-2010 14:04:02 10.9 C 7.76 g/m*3 10.9 C 0 km/h
72 23-02-2010 14:16:02 11 C 7.81 g/m*3 11 C 0 km/h
73 23-02-2010 14:28:02 10.8 C 7.71 g/m*3 10.8 C 0 km/h
74 23-02-2010 14:40:03 10.9 C 7.76 g/m*3 10.9 C 0 km/h
75 23-02-2010 14:52:02 11 C 7.61 g/m*3 11 C 0 km/h
Sensor: Nr:Datum:Temp:Abs-Feuchte:Windchill:Wind:
Aussen-T/F 76 23-02-2010 15:04:01 11 C 7.71 g/m*3 11 C 0 km/h
77 23-02-2010 15:16:02 11 C 7.71 g/m*3 11 C 0 km/h
78 23-02-2010 15:28:02 11 C 7.81 g/m*3 11 C 0 km/h
79 23-02-2010 15:40:02 11.1 C 7.66 g/m*3 11.1 C 0 km/h
80 23-02-2010 15:52:02 11 C 7.51 g/m*3 11 C 0 km/h
81 23-02-2010 16:04:03 10.7 C 7.46 g/m*3 10.7 C 0 km/h
82 23-02-2010 16:16:02 10.5 C 7.47 g/m*3 10.5 C 0 km/h
83 23-02-2010 16:28:02 10.6 C 7.52 g/m*3 10.6 C 0 km/h
84 23-02-2010 16:40:02 10.6 C 7.52 g/m*3 10.6 C 0 km/h
85 23-02-2010 16:52:01 10.4 C 7.32 g/m*3 10.4 C 0 km/h
86 23-02-2010 17:04:02 10.4 C 7.32 g/m*3 10.4 C 0 km/h
87 23-02-2010 17:16:01 10.2 C 7.23 g/m*3 10.2 C 0 km/h
88 23-02-2010 17:28:01 10.1 C 7.09 g/m*3 10.1 C 0 km/h
89 23-02-2010 17:40:02 10.1 C 7.19 g/m*3 10.1 C 0 km/h
90 23-02-2010 17:52:01 10 C 7.14 g/m*3 10 C 0 km/h
91 23-02-2010 18:04:02 9.8 C 7.24 g/m*3 9.8 C 0 km/h
92 23-02-2010 18:16:01 9.6 C 7.33 g/m*3 9.6 C 0 km/h
93 23-02-2010 18:28:01 9.6 C 7.33 g/m*3 9.6 C 0 km/h
94 23-02-2010 18:40:02 9.5 C 7.37 g/m*3 9.5 C 0 km/h
95 23-02-2010 18:52:01 9.5 C 7.46 g/m*3 9.5 C 0 km/h
96 23-02-2010 19:04:02 9.2 C 7.41 g/m*3 9.2 C 0 km/h
97 23-02-2010 19:16:02 9.1 C 7.45 g/m*3 9.1 C 0 km/h
98 23-02-2010 19:28:02 9.2 C 7.59 g/m*3 9.2 C 0 km/h
99 23-02-2010 19:40:02 9.2 C 7.68 g/m*3 9.2 C 0 km/h
100 23-02-2010 19:52:02 9.2 C 7.68 g/m*3 9.2 C 0 km/h
Sensor: Nr:Datum:Temp:Abs-Feuchte:Windchill:Wind:
Aussen-T/F 101 23-02-2010 20:04:02 9 C 7.67 g/m*3 9 C 0 km/h
102 23-02-2010 20:16:02 9.1 C 7.81 g/m*3 9.1 C 0 km/h
103 23-02-2010 20:28:02 9 C 7.76 g/m*3 9 C 0 km/h
104 23-02-2010 20:40:02 9 C 7.76 g/m*3 9 C 0 km/h
105 23-02-2010 20:52:01 9.2 C 7.86 g/m*3 9.2 C 0 km/h
106 23-02-2010 21:04:02 9.3 C 7.91 g/m*3 9.3 C 0 km/h
107 23-02-2010 21:16:01 9.4 C 7.78 g/m*3 9.4 C 0 km/h
108 23-02-2010 21:28:01 9.6 C 7.6 g/m*3 9.6 C 0 km/h
109 23-02-2010 21:40:02 9.6 C 7.33 g/m*3 9.6 C 0 km/h
110 23-02-2010 21:52:02 9.5 C 7.1 g/m*3 9.5 C 0 km/h
111 23-02-2010 22:04:02 9.3 C 6.92 g/m*3 9.3 C 0 km/h
112 23-02-2010 22:16:02 9.3 C 6.92 g/m*3 9.3 C 0 km/h
113 23-02-2010 22:28:02 9.3 C 6.74 g/m*3 9.3 C 0 km/h
114 23-02-2010 22:40:02 8.9 C 6.75 g/m*3 8.9 C 0 km/h
115 23-02-2010 22:52:01 8.7 C 6.75 g/m*3 8.7 C 0 km/h
116 23-02-2010 23:04:02 8.5 C 6.66 g/m*3 8.5 C 0 km/h
117 23-02-2010 23:16:02 8.5 C 6.66 g/m*3 8.5 C 0 km/h
118 23-02-2010 23:28:02 8.2 C 6.62 g/m*3 8.2 C 0 km/h
119 23-02-2010 23:40:01 8.2 C 6.7 g/m*3 8.2 C 0 km/h
120 23-02-2010 23:52:02 8.2 C 6.7 g/m*3 8.2 C 0 km/h
121 24-02-2010 00:04:01 8.1 C 6.66 g/m*3 8.1 C 0 km/h
122 24-02-2010 00:16:02 7.9 C 6.74 g/m*3 7.9 C 0 km/h
123 24-02-2010 00:28:02 7.9 C 6.82 g/m*3 7.9 C 0 km/h
124 24-02-2010 00:40:01 7.8 C 6.77 g/m*3 7.8 C 0 km/h
125 24-02-2010 00:52:02 7.5 C 6.64 g/m*3 7.5 C 0 km/h
Sensor: Nr:Datum:Temp:Abs-Feuchte:Windchill:Wind:
Aussen-T/F 126 24-02-2010 01:04:01 7.3 C 6.64 g/m*3 7.3 C 0 km/h
127 24-02-2010 01:16:02 7.5 C 6.8 g/m*3 7.5 C 0 km/h
128 24-02-2010 01:28:02 8.1 C 6.99 g/m*3 8.1 C 0 km/h
129 24-02-2010 01:40:01 8.7 C 6.92 g/m*3 8.7 C 0 km/h
130 24-02-2010 01:52:02 8.6 C 6.7 g/m*3 8.6 C 0 km/h
131 24-02-2010 02:04:02 8.3 C 6.57 g/m*3 8.3 C 0 km/h
132 24-02-2010 02:16:02 8.1 C 6.57 g/m*3 8.1 C 0 km/h
133 24-02-2010 02:28:02 7.9 C 6.74 g/m*3 7.9 C 0 km/h
134 24-02-2010 02:40:02 7.9 C 6.82 g/m*3 7.9 C 0 km/h
135 24-02-2010 02:52:01 7.8 C 6.77 g/m*3 7.8 C 0 km/h
136 24-02-2010 03:04:01 7.7 C 6.73 g/m*3 7.7 C 0 km/h
137 24-02-2010 03:16:01 7.9 C 6.9 g/m*3 7.9 C 0 km/h
138 24-02-2010 03:28:01 8 C 6.86 g/m*3 8 C 0 km/h
139 24-02-2010 03:40:02 8 C 6.78 g/m*3 8 C 0 km/h
140 24-02-2010 03:52:02 8 C 6.78 g/m*3 8 C 0 km/h
141 24-02-2010 04:04:01 8 C 6.78 g/m*3 8 C 0 km/h
142 24-02-2010 04:16:02 8 C 6.86 g/m*3 8 C 0 km/h
143 24-02-2010 04:28:02 8 C 6.86 g/m*3 8 C 0 km/h
144 24-02-2010 04:40:01 8 C 6.86 g/m*3 8 C 0 km/h
145 24-02-2010 04:52:02 8.1 C 6.91 g/m*3 8.1 C 0 km/h
146 24-02-2010 05:04:01 8.3 C 7 g/m*3 8.3 C 0 km/h
147 24-02-2010 05:16:01 8.4 C 6.96 g/m*3 8.4 C 0 km/h
148 24-02-2010 05:28:01 8.2 C 6.78 g/m*3 8.2 C 0 km/h
149 24-02-2010 05:40:01 8.3 C 6.83 g/m*3 8.3 C 0 km/h
150 24-02-2010 05:52:02 8.4 C 6.79 g/m*3 8.4 C 0 km/h
Sensor: Nr:Datum:Temp:Abs-Feuchte:Windchill:Wind:
Aussen-T/F 151 24-02-2010 06:04:01 8.2 C 6.62 g/m*3 8.2 C 0 km/h
152 24-02-2010 06:16:01 7.9 C 6.65 g/m*3 7.9 C 0 km/h
153 24-02-2010 06:28:01 7.8 C 6.61 g/m*3 7.8 C 0 km/h
154 24-02-2010 06:40:02 7.6 C 6.53 g/m*3 7.6 C 0 km/h
155 24-02-2010 06:52:01 7.3 C 6.4 g/m*3 7.3 C 0 km/h
156 24-02-2010 07:04:01 7.3 C 6.56 g/m*3 7.3 C 0 km/h
157 24-02-2010 07:16:01 7.4 C 6.6 g/m*3 7.4 C 0 km/h
158 24-02-2010 07:28:01 7.5 C 6.64 g/m*3 7.5 C 0 km/h
159 24-02-2010 07:40:02 7.5 C 6.56 g/m*3 7.5 C 0 km/h
160 24-02-2010 07:52:01 7.4 C 6.6 g/m*3 7.4 C 0 km/h
161 24-02-2010 08:04:02 7.5 C 6.64 g/m*3 7.5 C 0 km/h
162 24-02-2010 08:16:01 7.5 C 6.56 g/m*3 7.5 C 0 km/h
163 24-02-2010 08:28:01 7.9 C 6.82 g/m*3 7.9 C 0 km/h
164 24-02-2010 08:40:02 8.1 C 6.74 g/m*3 8.1 C 0 km/h
165 24-02-2010 08:52:01 8.5 C 6.92 g/m*3 8.5 C 0 km/h
166 24-02-2010 09:04:02 8.6 C 6.79 g/m*3 8.6 C 0 km/h
167 24-02-2010 09:16:01 8.9 C 6.83 g/m*3 8.9 C 0 km/h
168 24-02-2010 09:28:01 9.1 C 6.65 g/m*3 9.1 C 0 km/h
169 24-02-2010 09:40:01 9.2 C 6.52 g/m*3 9.2 C 0 km/h
170 24-02-2010 09:52:01 9.4 C 6.51 g/m*3 9.4 C 0 km/h
171 24-02-2010 10:04:02 9.7 C 6.55 g/m*3 9.7 C 0 km/h
172 24-02-2010 10:16:01 10 C 6.39 g/m*3 10 C 0 km/h
173 24-02-2010 10:28:01 10.2 C 6.28 g/m*3 10.2 C 0 km/h
174 24-02-2010 10:40:01 10.4 C 6.26 g/m*3 10.4 C 0 km/h
175 24-02-2010 10:52:01 10.9 C 6.17 g/m*3 10.9 C 0 km/h
Sensor: Nr:Datum:Temp:Abs-Feuchte:Windchill:Wind:
Aussen-T/F 176 24-02-2010 11:04:01 10.9 C 5.97 g/m*3 10.9 C 0 km/h
177 24-02-2010 11:16:02 11.1 C 5.74 g/m*3 11.1 C 0 km/h
178 24-02-2010 11:28:02 11.2 C 5.68 g/m*3 11.2 C 0 km/h
179 24-02-2010 11:40:01 11.2 C 5.57 g/m*3 11.2 C 0 km/h
180 24-02-2010 11:52:01 11.3 C 5.61 g/m*3 11.3 C 0 km/h
181 24-02-2010 12:04:01 11.1 C 5.64 g/m*3 11.1 C 0 km/h
182 24-02-2010 12:16:02 11.2 C 5.57 g/m*3 11.2 C 0 km/h
183 24-02-2010 12:28:02 11.6 C 5.72 g/m*3 11.6 C 0 km/h
184 24-02-2010 12:40:01 11.8 C 5.58 g/m*3 11.8 C 0 km/h
185 24-02-2010 12:52:02 12 C 5.54 g/m*3 12 C 0 km/h
186 24-02-2010 13:04:01 12 C 5.54 g/m*3 12 C 0 km/h
187 24-02-2010 13:16:02 11.8 C 5.58 g/m*3 11.8 C 0 km/h
188 24-02-2010 13:28:02 12 C 5.44 g/m*3 12 C 0 km/h
189 24-02-2010 13:40:01 12.2 C 5.61 g/m*3 12.2 C 0 km/h
190 24-02-2010 13:52:02 12.4 C 5.35 g/m*3 12.4 C 0 km/h
191 24-02-2010 14:04:01 12.3 C 5.32 g/m*3 12.3 C 0 km/h
192 24-02-2010 14:16:01 12.6 C 5.53 g/m*3 12.6 C 0 km/h
193 24-02-2010 14:28:01 12.7 C 5.45 g/m*3 12.7 C 0 km/h
194 24-02-2010 14:40:01 12.8 C 5.38 g/m*3 12.8 C 0 km/h
195 24-02-2010 14:52:02 13.1 C 5.36 g/m*3 13.1 C 0 km/h
196 24-02-2010 15:04:01 13.2 C 5.4 g/m*3 13.2 C 0 km/h
197 24-02-2010 15:16:01 13.1 C 5.36 g/m*3 13.1 C 0 km/h
198 24-02-2010 15:28:01 13.2 C 5.4 g/m*3 13.2 C 0 km/h
199 24-02-2010 15:40:02 13.7 C 5.45 g/m*3 13.7 C 0 km/h
200 24-02-2010 15:52:01 14.1 C 5.46 g/m*3 14.1 C 0 km/h
Sensor: Nr:Datum:Temp:Abs-Feuchte:Windchill:Wind:
Aussen-T/F 201 24-02-2010 16:04:01 15.2 C 5.58 g/m*3 15.2 C 0 km/h
202 24-02-2010 16:16:01 14.4 C 5.19 g/m*3 14.4 C 0 km/h
203 24-02-2010 16:28:01 14 C 5.43 g/m*3 14 C 0 km/h
204 24-02-2010 16:40:02 14.4 C 5.32 g/m*3 14.4 C 0 km/h
205 24-02-2010 16:52:01 14.2 C 5.13 g/m*3 14.2 C 0 km/h
206 24-02-2010 17:04:02 13.6 C 5.3 g/m*3 13.6 C 0 km/h
207 24-02-2010 17:16:01 12.8 C 5.38 g/m*3 12.8 C 0 km/h
208 24-02-2010 17:28:01 11.8 C 5.68 g/m*3 11.8 C 0 km/h
209 24-02-2010 17:40:02 11.2 C 5.68 g/m*3 11.2 C 0 km/h
210 24-02-2010 17:52:01 10.7 C 5.8 g/m*3 10.7 C 0 km/h
211 24-02-2010 18:04:02 10.2 C 5.8 g/m*3 10.2 C 0 km/h
212 24-02-2010 18:16:01 9.8 C 5.85 g/m*3 9.8 C 0 km/h
213 24-02-2010 18:28:02 9.7 C 5.9 g/m*3 9.7 C 0 km/h
214 24-02-2010 18:40:01 9.6 C 5.95 g/m*3 9.6 C 0 km/h
215 24-02-2010 18:52:01 9.6 C 6.05 g/m*3 9.6 C 0 km/h
216 24-02-2010 19:04:01 9.7 C 6.18 g/m*3 9.7 C 0 km/h
217 24-02-2010 19:16:01 9.5 C 6.55 g/m*3 9.5 C 0 km/h
218 24-02-2010 19:28:01 8.8 C 6.7 g/m*3 8.8 C 0 km/h
219 24-02-2010 19:40:01 8.5 C 6.92 g/m*3 8.5 C 0 km/h
220 24-02-2010 19:52:01 8.5 C 7.09 g/m*3 8.5 C 0 km/h
221 24-02-2010 20:04:01 8.4 C 7.13 g/m*3 8.4 C 0 km/h
222 24-02-2010 20:16:02 8.3 C 7.16 g/m*3 8.3 C 0 km/h
223 24-02-2010 20:28:02 8.4 C 7.3 g/m*3 8.4 C 0 km/h
224 24-02-2010 20:40:01 8.3 C 7.33 g/m*3 8.3 C 0 km/h
225 24-02-2010 20:52:01 8.5 C 7.43 g/m*3 8.5 C 0 km/h
Sensor: Nr:Datum:Temp:Abs-Feuchte:Windchill:Wind:
Aussen-T/F 226 24-02-2010 21:04:01 8.5 C 7.51 g/m*3 8.5 C 0 km/h
227 24-02-2010 21:16:02 8.4 C 7.38 g/m*3 8.4 C 0 km/h
228 24-02-2010 21:28:02 7.9 C 7.23 g/m*3 7.9 C 0 km/h
229 24-02-2010 21:40:01 7.8 C 7.18 g/m*3 7.8 C 0 km/h
230 24-02-2010 21:52:02 7.6 C 7.09 g/m*3 7.6 C 0 km/h
231 24-02-2010 22:04:01 7.5 C 6.96 g/m*3 7.5 C 0 km/h
232 24-02-2010 22:16:02 7.6 C 7.01 g/m*3 7.6 C 0 km/h
233 24-02-2010 22:28:02 7.7 C 7.05 g/m*3 7.7 C 0 km/h
234 24-02-2010 22:40:01 8 C 7.03 g/m*3 8 C 0 km/h
235 24-02-2010 22:52:02 8.1 C 6.82 g/m*3 8.1 C 0 km/h
236 24-02-2010 23:04:01 8.2 C 6.7 g/m*3 8.2 C 0 km/h
237 24-02-2010 23:16:01 8.3 C 6.74 g/m*3 8.3 C 0 km/h
238 24-02-2010 23:28:01 8.4 C 6.62 g/m*3 8.4 C 0 km/h
239 24-02-2010 23:40:01 8.4 C 6.53 g/m*3 8.4 C 0 km/h
240 24-02-2010 23:52:02 8.4 C 6.45 g/m*3 8.4 C 0 km/h
241 25-02-2010 00:04:01 8.7 C 6.49 g/m*3 8.7 C 0 km/h
242 25-02-2010 00:16:02 8.7 C 6.4 g/m*3 8.7 C 0 km/h
243 25-02-2010 00:28:02 8.6 C 6.36 g/m*3 8.6 C 0 km/h
244 25-02-2010 00:40:01 8.4 C 6.28 g/m*3 8.4 C 0 km/h
245 25-02-2010 00:52:02 8.1 C 6.24 g/m*3 8.1 C 0 km/h
246 25-02-2010 01:04:01 8.1 C 6.41 g/m*3 8.1 C 0 km/h
247 25-02-2010 01:16:01 8.4 C 6.36 g/m*3 8.4 C 0 km/h
248 25-02-2010 01:28:01 8.5 C 6.23 g/m*3 8.5 C 0 km/h
249 25-02-2010 01:40:02 8.6 C 6.19 g/m*3 8.6 C 0 km/h
250 25-02-2010 01:52:01 8.6 C 6.19 g/m*3 8.6 C 0 km/h
Sensor: Nr:Datum:Temp:Abs-Feuchte:Windchill:Wind:
Aussen-T/F 251 25-02-2010 02:04:01 8.4 C 6.11 g/m*3 8.4 C 0 km/h
252 25-02-2010 02:16:01 8 C 6.12 g/m*3 8 C 0 km/h
253 25-02-2010 02:28:01 7.9 C 6.32 g/m*3 7.9 C 0 km/h
254 25-02-2010 02:40:02 7.9 C 6.41 g/m*3 7.9 C 0 km/h
255 25-02-2010 02:52:01 7.8 C 6.28 g/m*3 7.8 C 0 km/h
256 25-02-2010 03:04:01 7.7 C 6.32 g/m*3 7.7 C 0 km/h
257 25-02-2010 03:16:02 7.5 C 6.48 g/m*3 7.5 C 0 km/h
258 25-02-2010 03:28:02 7.4 C 6.6 g/m*3 7.4 C 0 km/h
259 25-02-2010 03:40:02 7.3 C 6.56 g/m*3 7.3 C 0 km/h
260 25-02-2010 03:52:02 7.3 C 6.56 g/m*3 7.3 C 0 km/h
261 25-02-2010 04:04:01 7.2 C 6.52 g/m*3 7.2 C 0 km/h
262 25-02-2010 04:16:01 7.2 C 6.52 g/m*3 7.2 C 0 km/h
263 25-02-2010 04:28:01 7.2 C 6.52 g/m*3 7.2 C 0 km/h
264 25-02-2010 04:40:02 7.1 C 6.47 g/m*3 7.1 C 0 km/h
265 25-02-2010 04:52:01 7.1 C 6.55 g/m*3 7.1 C 0 km/h
266 25-02-2010 05:04:02 7.3 C 6.56 g/m*3 7.3 C 0 km/h
267 25-02-2010 05:16:01 7.2 C 6.52 g/m*3 7.2 C 0 km/h
268 25-02-2010 05:28:01 7.4 C 6.6 g/m*3 7.4 C 0 km/h
269 25-02-2010 05:40:02 7.6 C 6.53 g/m*3 7.6 C 0 km/h
270 25-02-2010 05:52:01 7.9 C 6.32 g/m*3 7.9 C 0 km/h
271 25-02-2010 06:04:02 8.1 C 6.07 g/m*3 8.1 C 0 km/h
272 25-02-2010 06:16:01 8.3 C 5.98 g/m*3 8.3 C 0 km/h
273 25-02-2010 06:28:01 8.5 C 5.89 g/m*3 8.5 C 0 km/h
274 25-02-2010 06:40:02 8.6 C 5.84 g/m*3 8.6 C 0 km/h
275 25-02-2010 06:52:02 8.7 C 5.79 g/m*3 8.7 C 0 km/h
Sensor: Nr:Datum:Temp:Abs-Feuchte:Windchill:Wind:
Aussen-T/F 276 25-02-2010 07:04:01 8.7 C 5.79 g/m*3 8.7 C 0 km/h
277 25-02-2010 07:16:01 8.8 C 5.74 g/m*3 8.8 C 0 km/h
278 25-02-2010 07:28:01 8.8 C 5.83 g/m*3 8.8 C 0 km/h
279 25-02-2010 07:40:01 8.7 C 5.88 g/m*3 8.7 C 0 km/h
280 25-02-2010 07:52:02 8.6 C 5.93 g/m*3 8.6 C 0 km/h
281 25-02-2010 08:04:01 8.4 C 6.02 g/m*3 8.4 C 0 km/h
282 25-02-2010 08:16:01 8.6 C 5.93 g/m*3 8.6 C 0 km/h
283 25-02-2010 08:28:01 8.9 C 5.78 g/m*3 8.9 C 0 km/h
284 25-02-2010 08:40:02 9 C 5.64 g/m*3 9 C 0 km/h
285 25-02-2010 08:52:01 9.1 C 5.68 g/m*3 9.1 C 0 km/h
286 25-02-2010 09:04:02 9.3 C 5.66 g/m*3 9.3 C 0 km/h
287 25-02-2010 09:16:01 9.5 C 5.64 g/m*3 9.5 C 0 km/h
288 25-02-2010 09:28:01 9.6 C 5.5 g/m*3 9.6 C 0 km/h
289 25-02-2010 09:40:02 9.6 C 5.59 g/m*3 9.6 C 0 km/h
290 25-02-2010 09:52:01 9.9 C 5.6 g/m*3 9.9 C 0 km/h
291 25-02-2010 10:04:02 9.9 C 5.51 g/m*3 9.9 C 0 km/h
292 25-02-2010 10:16:01 9.9 C 5.6 g/m*3 9.9 C 0 km/h
293 25-02-2010 10:28:01 10.2 C 5.42 g/m*3 10.2 C 0 km/h
294 25-02-2010 10:40:02 10.6 C 5.37 g/m*3 10.6 C 0 km/h
295 25-02-2010 10:52:01 10.7 C 5.21 g/m*3 10.7 C 0 km/h
296 25-02-2010 11:04:01 10.6 C 5.17 g/m*3 10.6 C 0 km/h
297 25-02-2010 11:16:01 11.2 C 5.17 g/m*3 11.2 C 0 km/h
298 25-02-2010 11:28:01 10.9 C 5.17 g/m*3 10.9 C 0 km/h
299 25-02-2010 11:40:02 11.2 C 5.07 g/m*3 11.2 C 0 km/h
300 25-02-2010 11:52:01 11.3 C 5.1 g/m*3 11.3 C 0 km/h
Sensor: Nr:Datum:Temp:Abs-Feuchte:Windchill:Wind:
Aussen-T/F 301 25-02-2010 12:04:02 11.4 C 4.82 g/m*3 11.4 C 0 km/h
302 25-02-2010 12:16:01 11.4 C 4.82 g/m*3 11.4 C 0 km/h
303 25-02-2010 12:28:01 11.4 C 4.82 g/m*3 11.4 C 0 km/h
304 25-02-2010 12:40:02 11.1 C 4.73 g/m*3 11.1 C 0 km/h
305 25-02-2010 12:52:01 11.4 C 4.82 g/m*3 11.4 C 0 km/h
306 25-02-2010 13:04:02 11.7 C 4.81 g/m*3 11.7 C 0 km/h
307 25-02-2010 13:16:01 12.9 C 4.85 g/m*3 12.9 C 0 km/h
308 25-02-2010 13:28:01 13 C 4.54 g/m*3 13 C 0 km/h
309 25-02-2010 13:40:02 12.7 C 4.68 g/m*3 12.7 C 0 km/h
310 25-02-2010 13:52:01 11.9 C 4.77 g/m*3 11.9 C 0 km/h
311 25-02-2010 14:04:02 12.2 C 4.96 g/m*3 12.2 C 0 km/h
312 25-02-2010 14:16:01 13 C 4.88 g/m*3 13 C 0 km/h
313 25-02-2010 14:28:01 12.8 C 4.82 g/m*3 12.8 C 0 km/h
314 25-02-2010 14:40:01 12.4 C 4.7 g/m*3 12.4 C 0 km/h
315 25-02-2010 14:52:01 12.6 C 4.87 g/m*3 12.6 C 0 km/h
316 25-02-2010 15:04:02 12.7 C 4.68 g/m*3 12.7 C 0 km/h
317 25-02-2010 15:16:01 12.8 C 4.59 g/m*3 12.8 C 0 km/h
318 25-02-2010 15:28:01 12.5 C 4.4 g/m*3 12.5 C 0 km/h
319 25-02-2010 15:40:01 12.5 C 4.4 g/m*3 12.5 C 0 km/h
320 25-02-2010 15:52:01 12.3 C 4.34 g/m*3 12.3 C 0 km/h
321 25-02-2010 16:04:01 12.2 C 4.32 g/m*3 12.2 C 0 km/h
322 25-02-2010 16:16:02 12 C 4.26 g/m*3 12 C 0 km/h
323 25-02-2010 16:28:02 11.8 C 4.53 g/m*3 11.8 C 0 km/h
324 25-02-2010 16:40:01 11.6 C 4.68 g/m*3 11.6 C 0 km/h
325 25-02-2010 16:52:01 11.5 C 4.75 g/m*3 11.5 C 0 km/h
Sensor: Nr:Datum:Temp:Abs-Feuchte:Windchill:Wind:
Aussen-T/F 326 25-02-2010 17:04:01 11.2 C 5.07 g/m*3 11.2 C 0 km/h
327 25-02-2010 17:16:01 11.2 C 4.97 g/m*3 11.2 C 0 km/h
328 25-02-2010 17:28:01 11 C 4.8 g/m*3 11 C 0 km/h
329 25-02-2010 17:40:01 11 C 4.8 g/m*3 11 C 0 km/h
330 25-02-2010 17:52:01 10.9 C 4.87 g/m*3 10.9 C 0 km/h
331 25-02-2010 18:04:02 10.5 C 5.14 g/m*3 10.5 C 0 km/h
332 25-02-2010 18:16:01 9.7 C 5.35 g/m*3 9.7 C 0 km/h
333 25-02-2010 18:28:01 9.3 C 5.93 g/m*3 9.3 C 0 km/h
334 25-02-2010 18:40:02 8.9 C 6.22 g/m*3 8.9 C 0 km/h
335 25-02-2010 18:52:02 8.8 C 6.53 g/m*3 8.8 C 0 km/h
336 25-02-2010 19:04:01 8.5 C 6.57 g/m*3 8.5 C 0 km/h
337 25-02-2010 19:16:01 8.6 C 6.79 g/m*3 8.6 C 0 km/h
338 25-02-2010 19:28:01 8.5 C 6.83 g/m*3 8.5 C 0 km/h
339 25-02-2010 19:40:02 8.4 C 6.87 g/m*3 8.4 C 0 km/h
340 25-02-2010 19:52:01 8.5 C 6.83 g/m*3 8.5 C 0 km/h
341 25-02-2010 20:04:02 8.6 C 6.79 g/m*3 8.6 C 0 km/h
342 25-02-2010 20:16:01 8.6 C 6.7 g/m*3 8.6 C 0 km/h
343 25-02-2010 20:28:01 8.6 C 6.7 g/m*3 8.6 C 0 km/h
344 25-02-2010 20:40:02 8.7 C 6.66 g/m*3 8.7 C 0 km/h
345 25-02-2010 20:52:01 8.8 C 6.61 g/m*3 8.8 C 0 km/h
346 25-02-2010 21:04:02 8.9 C 6.66 g/m*3 8.9 C 0 km/h
347 25-02-2010 21:16:01 9 C 6.52 g/m*3 9 C 0 km/h
348 25-02-2010 21:28:01 9.2 C 6.61 g/m*3 9.2 C 0 km/h
349 25-02-2010 21:40:02 9.2 C 6.52 g/m*3 9.2 C 0 km/h
350 25-02-2010 21:52:01 9.2 C 6.52 g/m*3 9.2 C 0 km/h
Sensor: Nr:Datum:Temp:Abs-Feuchte:Windchill:Wind:
Aussen-T/F 351 25-02-2010 22:04:01 9.1 C 6.57 g/m*3 9.1 C 0 km/h
352 25-02-2010 22:16:01 9.1 C 6.65 g/m*3 9.1 C 0 km/h
353 25-02-2010 22:28:01 9.2 C 6.61 g/m*3 9.2 C 0 km/h
354 25-02-2010 22:40:01 9.3 C 6.65 g/m*3 9.3 C 0 km/h
355 25-02-2010 22:52:02 9.2 C 6.61 g/m*3 9.2 C 0 km/h
356 25-02-2010 23:04:01 9.2 C 6.7 g/m*3 9.2 C 0 km/h
357 25-02-2010 23:16:01 9.5 C 6.83 g/m*3 9.5 C 0 km/h
358 25-02-2010 23:28:01 9.4 C 6.78 g/m*3 9.4 C 0 km/h
359 25-02-2010 23:40:02 9.3 C 6.74 g/m*3 9.3 C 0 km/h
360 25-02-2010 23:52:01 9.4 C 6.78 g/m*3 9.4 C 0 km/h
361 26-02-2010 00:04:02 9.3 C 6.83 g/m*3 9.3 C 0 km/h
362 26-02-2010 00:16:01 9.4 C 6.87 g/m*3 9.4 C 0 km/h
363 26-02-2010 00:28:01 9.4 C 6.87 g/m*3 9.4 C 0 km/h
364 26-02-2010 00:40:02 9.3 C 6.83 g/m*3 9.3 C 0 km/h
365 26-02-2010 00:52:01 9.3 C 6.92 g/m*3 9.3 C 0 km/h
366 26-02-2010 01:04:02 9.4 C 6.96 g/m*3 9.4 C 0 km/h
367 26-02-2010 01:16:01 9.5 C 7.01 g/m*3 9.5 C 0 km/h
368 26-02-2010 01:28:01 9.4 C 6.96 g/m*3 9.4 C 0 km/h
369 26-02-2010 01:40:01 9.6 C 7.05 g/m*3 9.6 C 0 km/h
370 26-02-2010 01:52:01 9.6 C 6.96 g/m*3 9.6 C 0 km/h
371 26-02-2010 02:04:01 9.8 C 7.05 g/m*3 9.8 C 0 km/h
372 26-02-2010 02:16:01 9.8 C 7.05 g/m*3 9.8 C 0 km/h
373 26-02-2010 02:28:01 9.7 C 7.01 g/m*3 9.7 C 0 km/h
374 26-02-2010 02:40:01 9.8 C 7.05 g/m*3 9.8 C 0 km/h
375 26-02-2010 02:53:06 9.8 C 7.05 g/m*3 9.8 C 0 km/h
Sensor: Nr:Datum:Temp:Abs-Feuchte:Windchill:Wind:
Aussen-T/F 376 26-02-2010 03:05:06 9.8 C 7.05 g/m*3 9.8 C 0 km/h
377 26-02-2010 03:17:06 10 C 6.95 g/m*3 10 C 0 km/h
378 26-02-2010 03:29:06 9.9 C 7 g/m*3 9.9 C 0 km/h
379 26-02-2010 03:41:02 9.9 C 6.91 g/m*3 9.9 C 0 km/h
380 26-02-2010 03:53:02 9.7 C 6.82 g/m*3 9.7 C 0 km/h
381 26-02-2010 04:05:03 9.5 C 6.83 g/m*3 9.5 C 0 km/h
382 26-02-2010 04:17:02 9.5 C 6.83 g/m*3 9.5 C 0 km/h
383 26-02-2010 04:29:02 9.5 C 6.83 g/m*3 9.5 C 0 km/h
384 26-02-2010 04:41:02 9.7 C 6.73 g/m*3 9.7 C 0 km/h
385 26-02-2010 04:53:01 9.5 C 6.64 g/m*3 9.5 C 0 km/h
386 26-02-2010 05:05:02 9.4 C 6.51 g/m*3 9.4 C 0 km/h
387 26-02-2010 05:17:01 9.4 C 6.42 g/m*3 9.4 C 0 km/h
388 26-02-2010 05:29:01 9.6 C 6.32 g/m*3 9.6 C 0 km/h
389 26-02-2010 05:41:02 9.2 C 6.34 g/m*3 9.2 C 0 km/h
390 26-02-2010 05:53:01 9.1 C 6.3 g/m*3 9.1 C 0 km/h
391 26-02-2010 06:05:02 8.8 C 6.27 g/m*3 8.8 C 0 km/h
392 26-02-2010 06:17:01 9 C 6.26 g/m*3 9 C 0 km/h
393 26-02-2010 06:29:01 9.1 C 6.21 g/m*3 9.1 C 0 km/h
394 26-02-2010 06:41:02 9.2 C 6.07 g/m*3 9.2 C 0 km/h
395 26-02-2010 06:53:01 9.4 C 6.15 g/m*3 9.4 C 0 km/h
396 26-02-2010 07:05:02 9.1 C 6.03 g/m*3 9.1 C 0 km/h
397 26-02-2010 07:17:02 8.9 C 6.31 g/m*3 8.9 C 0 km/h
398 26-02-2010 07:29:02 9 C 6.26 g/m*3 9 C 0 km/h
399 26-02-2010 07:41:02 9.2 C 6.07 g/m*3 9.2 C 0 km/h
400 26-02-2010 07:53:02 9.5 C 5.92 g/m*3 9.5 C 0 km/h
Sensor: Nr:Datum:Temp:Abs-Feuchte:Windchill:Wind:
Aussen-T/F 401 26-02-2010 08:05:02 9.6 C 5.77 g/m*3 9.6 C 0 km/h
402 26-02-2010 08:17:02 9.6 C 5.68 g/m*3 9.6 C 0 km/h
403 26-02-2010 08:29:02 9.8 C 5.57 g/m*3 9.8 C 0 km/h
404 26-02-2010 08:41:02 9.7 C 5.72 g/m*3 9.7 C 0 km/h
405 26-02-2010 08:53:02 9.8 C 5.66 g/m*3 9.8 C 0 km/h
406 26-02-2010 09:05:02 10.2 C 5.52 g/m*3 10.2 C 0 km/h
407 26-02-2010 09:17:02 10.2 C 5.42 g/m*3 10.2 C 0 km/h
408 26-02-2010 09:29:02 10.1 C 5.58 g/m*3 10.1 C 0 km/h
409 26-02-2010 09:41:02 10.1 C 5.39 g/m*3 10.1 C 0 km/h
410 26-02-2010 09:53:02 10.5 C 5.33 g/m*3 10.5 C 0 km/h
411 26-02-2010 10:05:02 9.8 C 5.66 g/m*3 9.8 C 0 km/h
412 26-02-2010 10:17:02 9.5 C 5.92 g/m*3 9.5 C 0 km/h
413 26-02-2010 10:29:02 9.9 C 5.88 g/m*3 9.9 C 0 km/h
414 26-02-2010 10:41:02 10.1 C 5.48 g/m*3 10.1 C 0 km/h
415 26-02-2010 10:53:02 10.3 C 5.36 g/m*3 10.3 C 0 km/h
416 26-02-2010 11:05:02 10.6 C 5.47 g/m*3 10.6 C 0 km/h
417 26-02-2010 11:17:03 10.8 C 5.34 g/m*3 10.8 C 0 km/h
418 26-02-2010 11:29:03 11 C 5.2 g/m*3 11 C 0 km/h
419 26-02-2010 11:41:02 11.2 C 5.17 g/m*3 11.2 C 0 km/h
420 26-02-2010 11:53:02 10.2 C 5.52 g/m*3 10.2 C 0 km/h
421 26-02-2010 12:05:02 9.7 C 5.72 g/m*3 9.7 C 0 km/h
422 26-02-2010 12:17:02 10 C 5.64 g/m*3 10 C 0 km/h
423 26-02-2010 12:29:02 10.8 C 5.73 g/m*3 10.8 C 0 km/h
424 26-02-2010 12:41:02 10.8 C 5.44 g/m*3 10.8 C 0 km/h
425 26-02-2010 12:53:02 10.3 C 5.84 g/m*3 10.3 C 0 km/h
Sensor: Nr:Datum:Temp:Abs-Feuchte:Windchill:Wind:
Aussen-T/F 426 26-02-2010 13:05:02 10.4 C 5.78 g/m*3 10.4 C 0 km/h
427 26-02-2010 13:17:03 10.7 C 5.6 g/m*3 10.7 C 0 km/h
428 26-02-2010 13:29:03 11.4 C 5.44 g/m*3 11.4 C 0 km/h
429 26-02-2010 13:41:02 11.1 C 5.24 g/m*3 11.1 C 0 km/h
430 26-02-2010 13:53:01 10.9 C 5.07 g/m*3 10.9 C 0 km/h
431 26-02-2010 14:05:01 11.1 C 5.34 g/m*3 11.1 C 0 km/h
432 26-02-2010 14:17:02 10.8 C 5.14 g/m*3 10.8 C 0 km/h
433 26-02-2010 14:29:02 10.6 C 5.17 g/m*3 10.6 C 0 km/h
434 26-02-2010 14:41:02 10.1 C 5.01 g/m*3 10.1 C 0 km/h
435 26-02-2010 14:53:03 9.4 C 5.25 g/m*3 9.4 C 0 km/h
436 26-02-2010 15:05:03 9.2 C 5.36 g/m*3 9.2 C 0 km/h
437 26-02-2010 15:17:02 8.9 C 5.26 g/m*3 8.9 C 0 km/h
438 26-02-2010 15:29:03 8.7 C 5.28 g/m*3 8.7 C 0 km/h
439 26-02-2010 15:41:02 8.4 C 5.34 g/m*3 8.4 C 0 km/h
440 26-02-2010 15:53:02 8.3 C 4.89 g/m*3 8.3 C 0 km/h
441 26-02-2010 16:05:02 8.2 C 4.69 g/m*3 8.2 C 0 km/h
442 26-02-2010 16:17:02 8 C 4.3 g/m*3 8 C 0 km/h
443 26-02-2010 16:29:02 7.9 C 4.19 g/m*3 7.9 C 0 km/h
444 26-02-2010 16:41:04 7.9 C 4.02 g/m*3 7.9 C 0 km/h
445 26-02-2010 16:53:02 7.9 C 4.11 g/m*3 7.9 C 0 km/h
446 26-02-2010 17:05:01 8.1 C 4.08 g/m*3 8.1 C 0 km/h
447 26-02-2010 17:17:02 8 C 4.05 g/m*3 8 C 0 km/h
448 26-02-2010 17:29:02 7.9 C 4.11 g/m*3 7.9 C 0 km/h
449 26-02-2010 17:41:02 7.8 C 4.16 g/m*3 7.8 C 0 km/h
450 26-02-2010 17:53:02 7.7 C 4.22 g/m*3 7.7 C 0 km/h
Sensor: Nr:Datum:Temp:Abs-Feuchte:Windchill:Wind:
Aussen-T/F 451 26-02-2010 18:05:02 7.6 C 4.27 g/m*3 7.6 C 0 km/h
452 26-02-2010 18:17:01 7.3 C 4.42 g/m*3 7.3 C 0 km/h
453 26-02-2010 18:29:01 6.6 C 4.76 g/m*3 6.6 C 0 km/h
454 26-02-2010 18:41:02 6.3 C 4.44 g/m*3 6.3 C 0 km/h
455 26-02-2010 18:53:02 6.3 C 4.22 g/m*3 6.3 C 0 km/h
456 26-02-2010 19:05:02 6.5 C 4.2 g/m*3 6.5 C 0 km/h
457 26-02-2010 19:17:02 6.3 C 4.29 g/m*3 6.3 C 0 km/h
458 26-02-2010 19:29:02 5.8 C 4.3 g/m*3 5.8 C 0 km/h
459 26-02-2010 19:41:04 5.8 C 4.01 g/m*3 5.8 C 0 km/h
460 26-02-2010 19:53:04 5.8 C 3.94 g/m*3 5.8 C 0 km/h
461 26-02-2010 20:05:02 5.9 C 4.04 g/m*3 5.9 C 0 km/h
462 26-02-2010 20:17:02 6 C 4.14 g/m*3 6 C 0 km/h
463 26-02-2010 20:29:02 5.9 C 4.18 g/m*3 5.9 C 0 km/h
464 26-02-2010 20:41:03 6 C 3.92 g/m*3 6 C 0 km/h
465 26-02-2010 20:53:02 5.9 C 3.89 g/m*3 5.9 C 0 km/h
466 26-02-2010 21:05:02 5.8 C 3.94 g/m*3 5.8 C 0 km/h
467 26-02-2010 21:17:03 5.6 C 4.03 g/m*3 5.6 C 0 km/h
468 26-02-2010 21:29:03 5.5 C 4 g/m*3 5.5 C 0 km/h
469 26-02-2010 21:41:02 5.6 C 3.89 g/m*3 5.6 C 0 km/h
470 26-02-2010 21:53:03 5.7 C 3.91 g/m*3 5.7 C 0 km/h
471 26-02-2010 22:05:02 5.5 C 3.86 g/m*3 5.5 C 0 km/h
472 26-02-2010 22:17:03 5.4 C 3.84 g/m*3 5.4 C 0 km/h
473 26-02-2010 22:29:03 5.3 C 3.81 g/m*3 5.3 C 0 km/h
474 26-02-2010 22:42:04 5.2 C 3.65 g/m*3 5.2 C 0 km/h
475 26-02-2010 22:54:04 5.1 C 3.69 g/m*3 5.1 C 0 km/h
Sensor: Nr:Datum:Temp:Abs-Feuchte:Windchill:Wind:
Aussen-T/F 476 26-02-2010 23:06:04 5.1 C 3.63 g/m*3 5.1 C 0 km/h
477 26-02-2010 23:18:04 5.1 C 3.63 g/m*3 5.1 C 0 km/h
478 26-02-2010 23:30:04 4.9 C 3.71 g/m*3 4.9 C 0 km/h
479 26-02-2010 23:42:04 4.7 C 3.66 g/m*3 4.7 C 0 km/h
480 26-02-2010 23:54:05 4.7 C 3.6 g/m*3 4.7 C 0 km/h
481 27-02-2010 00:06:05 4.5 C 3.62 g/m*3 4.5 C 0 km/h
482 27-02-2010 00:18:05 4.4 C 3.59 g/m*3 4.4 C 0 km/h
483 27-02-2010 00:30:05 4.4 C 3.59 g/m*3 4.4 C 0 km/h
484 27-02-2010 00:42:05 4.3 C 3.57 g/m*3 4.3 C 0 km/h
485 27-02-2010 00:54:05 4.1 C 3.58 g/m*3 4.1 C 0 km/h
486 27-02-2010 01:06:05 3.8 C 3.64 g/m*3 3.8 C 0 km/h
487 27-02-2010 01:18:05 3.9 C 3.73 g/m*3 3.9 C 0 km/h
488 27-02-2010 01:30:05 4 C 3.62 g/m*3 4 C 0 km/h
489 27-02-2010 01:42:05 4.1 C 3.58 g/m*3 4.1 C 0 km/h
490 27-02-2010 01:54:05 3.7 C 3.68 g/m*3 3.7 C 0 km/h
491 27-02-2010 02:06:05 3.2 C 3.74 g/m*3 3.2 C 0 km/h
492 27-02-2010 02:18:05 2.8 C 3.75 g/m*3 2.8 C 0 km/h
493 27-02-2010 02:30:05 3.1 C 3.77 g/m*3 3.1 C 0 km/h
494 27-02-2010 02:42:05 3.1 C 3.77 g/m*3 3.1 C 0 km/h
495 27-02-2010 02:54:05 3.2 C 3.74 g/m*3 3.2 C 0 km/h
496 27-02-2010 03:06:05 3.3 C 3.76 g/m*3 3.3 C 0 km/h
497 27-02-2010 03:18:05 3.5 C 3.69 g/m*3 3.5 C 0 km/h
498 27-02-2010 03:30:05 3.7 C 3.74 g/m*3 3.7 C 0 km/h
499 27-02-2010 03:42:05 3.6 C 3.78 g/m*3 3.6 C 0 km/h
500 27-02-2010 03:54:05 3.5 C 3.81 g/m*3 3.5 C 0 km/h
Sensor: Nr:Datum:Temp:Abs-Feuchte:Windchill:Wind:
Aussen-T/F 501 27-02-2010 04:06:06 3.4 C 3.79 g/m*3 3.4 C 0 km/h
502 27-02-2010 04:18:06 3.3 C 3.88 g/m*3 3.3 C 0 km/h
503 27-02-2010 04:30:06 3.4 C 3.97 g/m*3 3.4 C 0 km/h
504 27-02-2010 04:42:06 3.6 C 4.09 g/m*3 3.6 C 0 km/h
505 27-02-2010 04:54:06 4.1 C 4.16 g/m*3 4.1 C 0 km/h
506 27-02-2010 05:06:06 4 C 4.07 g/m*3 4 C 0 km/h
507 27-02-2010 05:18:06 3.9 C 4.17 g/m*3 3.9 C 0 km/h
508 27-02-2010 05:30:06 3.9 C 4.23 g/m*3 3.9 C 0 km/h
509 27-02-2010 05:42:06 3.8 C 4.2 g/m*3 3.8 C 0 km/h
510 27-02-2010 05:54:06 3.6 C 4.21 g/m*3 3.6 C 0 km/h
511 27-02-2010 06:06:06 4 C 4.26 g/m*3 4 C 0 km/h
512 27-02-2010 06:18:06 4.3 C 4.28 g/m*3 4.3 C 0 km/h
513 27-02-2010 06:30:06 4.3 C 4.22 g/m*3 4.3 C 0 km/h
514 27-02-2010 06:42:06 4.4 C 4.31 g/m*3 4.4 C 0 km/h
515 27-02-2010 06:54:06 4.6 C 4.37 g/m*3 4.6 C 0 km/h
516 27-02-2010 07:06:06 4.4 C 4.31 g/m*3 4.4 C 0 km/h
517 27-02-2010 07:18:06 4.7 C 4.46 g/m*3 4.7 C 0 km/h
518 27-02-2010 07:30:06 4.8 C 4.49 g/m*3 4.8 C 0 km/h
519 27-02-2010 07:42:06 5.2 C 4.54 g/m*3 5.2 C 0 km/h
520 27-02-2010 07:54:06 5.3 C 4.57 g/m*3 5.3 C 0 km/h
521 27-02-2010 08:06:07 5.4 C 4.6 g/m*3 5.4 C 0 km/h
522 27-02-2010 08:18:07 5.6 C 4.67 g/m*3 5.6 C 0 km/h
523 27-02-2010 08:30:07 5.8 C 4.66 g/m*3 5.8 C 0 km/h
524 27-02-2010 08:42:03 6.4 C 4.62 g/m*3 6.4 C 0 km/h
525 27-02-2010 08:54:01 6.5 C 4.57 g/m*3 6.5 C 0 km/h
Sensor: Nr:Datum:Temp:Abs-Feuchte:Windchill:Wind:
Aussen-T/F 526 27-02-2010 09:06:02 6.6 C 4.6 g/m*3 6.6 C 0 km/h
527 27-02-2010 09:18:02 6.8 C 4.59 g/m*3 6.8 C 0 km/h
528 27-02-2010 09:30:02 7 C 4.49 g/m*3 7 C 0 km/h
529 27-02-2010 09:42:01 7.1 C 4.45 g/m*3 7.1 C 0 km/h
530 27-02-2010 09:54:02 7.3 C 4.5 g/m*3 7.3 C 0 km/h
531 27-02-2010 10:06:01 7.5 C 4.48 g/m*3 7.5 C 0 km/h
532 27-02-2010 10:18:02 7.6 C 4.43 g/m*3 7.6 C 0 km/h
533 27-02-2010 10:30:02 8.1 C 4.49 g/m*3 8.1 C 0 km/h
534 27-02-2010 10:42:01 8.7 C 4.58 g/m*3 8.7 C 0 km/h
535 27-02-2010 10:54:03 8.6 C 4.55 g/m*3 8.6 C 0 km/h
536 27-02-2010 11:06:02 8.7 C 4.5 g/m*3 8.7 C 0 km/h
537 27-02-2010 11:18:02 9.1 C 4.53 g/m*3 9.1 C 0 km/h
538 27-02-2010 11:30:03 9.3 C 4.49 g/m*3 9.3 C 0 km/h
539 27-02-2010 11:42:02 9.3 C 4.31 g/m*3 9.3 C 0 km/h
540 27-02-2010 11:54:02 9.3 C 4.31 g/m*3 9.3 C 0 km/h
541 27-02-2010 12:06:02 9.4 C 4.34 g/m*3 9.4 C 0 km/h
542 27-02-2010 12:18:02 9.8 C 4.36 g/m*3 9.8 C 0 km/h
543 27-02-2010 12:30:02 10.1 C 4.35 g/m*3 10.1 C 0 km/h
544 27-02-2010 12:42:02 10.8 C 4.35 g/m*3 10.8 C 0 km/h
545 27-02-2010 12:54:02 11.2 C 4.16 g/m*3 11.2 C 0 km/h
546 27-02-2010 13:06:01 11.8 C 4.1 g/m*3 11.8 C 0 km/h
547 27-02-2010 13:18:01 11.8 C 3.68 g/m*3 11.8 C 0 km/h
548 27-02-2010 13:30:01 12.3 C 3.58 g/m*3 12.3 C 0 km/h
549 27-02-2010 13:42:02 12.9 C 3.49 g/m*3 12.9 C 0 km/h
550 27-02-2010 13:54:02 12.9 C 3.38 g/m*3 12.9 C 0 km/h
Sensor: Nr:Datum:Temp:Abs-Feuchte:Windchill:Wind:
Aussen-T/F 551 27-02-2010 14:06:02 13.4 C 3.49 g/m*3 13.4 C 0 km/h
552 27-02-2010 14:18:02 14.2 C 3.42 g/m*3 14.2 C 0 km/h
553 27-02-2010 14:30:02 14.5 C 3.23 g/m*3 14.5 C 0 km/h
554 27-02-2010 14:42:02 14.8 C 3.17 g/m*3 14.8 C 0 km/h
555 27-02-2010 14:54:01 14.9 C 2.8 g/m*3 14.9 C 0 km/h
556 27-02-2010 15:06:02 14.8 C 2.79 g/m*3 14.8 C 0 km/h
557 27-02-2010 15:18:01 15.5 C 2.78 g/m*3 15.5 C 0 km/h
558 27-02-2010 15:30:01 15.9 C 2.84 g/m*3 15.9 C 0 km/h
559 27-02-2010 15:42:02 15.6 C 2.93 g/m*3 15.6 C 0 km/h
560 27-02-2010 15:54:02 15.7 C 3.08 g/m*3 15.7 C 0 km/h
561 27-02-2010 16:06:02 15.7 C 2.81 g/m*3 15.7 C 0 km/h
562 27-02-2010 16:18:01 14.8 C 2.66 g/m*3 14.8 C 0 km/h
563 27-02-2010 16:30:01 15 C 2.56 g/m*3 15 C 0 km/h
564 27-02-2010 16:42:02 14.3 C 2.46 g/m*3 14.3 C 0 km/h
565 27-02-2010 16:54:02 14.6 C 2.5 g/m*3 14.6 C 0 km/h
566 27-02-2010 17:06:02 15.7 C 2.68 g/m*3 15.7 C 0 km/h
567 27-02-2010 17:18:02 14.4 C 2.47 g/m*3 14.4 C 0 km/h
568 27-02-2010 17:30:02 13.5 C 2.57 g/m*3 13.5 C 0 km/h
569 27-02-2010 17:42:02 12.9 C 3.38 g/m*3 12.9 C 0 km/h
570 27-02-2010 17:54:02 11.7 C 3.66 g/m*3 11.7 C 0 km/h
571 27-02-2010 18:06:02 11 C 3.7 g/m*3 11 C 0 km/h
572 27-02-2010 18:18:03 10.5 C 3.88 g/m*3 10.5 C 0 km/h
573 27-02-2010 18:30:03 10.2 C 3.81 g/m*3 10.2 C 0 km/h
574 27-02-2010 18:42:02 10 C 3.95 g/m*3 10 C 0 km/h
575 27-02-2010 18:54:02 9.9 C 4.2 g/m*3 9.9 C 0 km/h
Sensor: Nr:Datum:Temp:Abs-Feuchte:Windchill:Wind:
Aussen-T/F 576 27-02-2010 19:06:02 9.8 C 4.27 g/m*3 9.8 C 0 km/h
577 27-02-2010 19:18:02 10 C 4.23 g/m*3 10 C 0 km/h
578 27-02-2010 19:30:02 10 C 4.23 g/m*3 10 C 0 km/h
579 27-02-2010 19:42:02 9.8 C 4.18 g/m*3 9.8 C 0 km/h
580 27-02-2010 19:54:02 9.8 C 4.18 g/m*3 9.8 C 0 km/h
581 27-02-2010 20:06:02 10 C 4.13 g/m*3 10 C 0 km/h
582 27-02-2010 20:18:02 9.9 C 4.2 g/m*3 9.9 C 0 km/h
583 27-02-2010 20:30:02 9.7 C 4.15 g/m*3 9.7 C 0 km/h
584 27-02-2010 20:42:02 9.9 C 4.01 g/m*3 9.9 C 0 km/h
585 27-02-2010 20:54:02 9.8 C 4.18 g/m*3 9.8 C 0 km/h
586 27-02-2010 21:06:01 9.6 C 3.94 g/m*3 9.6 C 0 km/h
587 27-02-2010 21:18:02 9.6 C 3.94 g/m*3 9.6 C 0 km/h
588 27-02-2010 21:30:02 9.6 C 3.94 g/m*3 9.6 C 0 km/h
589 27-02-2010 21:42:01 9.7 C 3.69 g/m*3 9.7 C 0 km/h
590 27-02-2010 21:54:03 9.6 C 3.66 g/m*3 9.6 C 0 km/h
591 27-02-2010 22:06:03 9.7 C 3.78 g/m*3 9.7 C 0 km/h
592 27-02-2010 22:18:02 9.8 C 3.71 g/m*3 9.8 C 0 km/h
593 27-02-2010 22:30:02 9.8 C 3.71 g/m*3 9.8 C 0 km/h
594 27-02-2010 22:43:02 9.9 C 3.64 g/m*3 9.9 C 0 km/h
595 27-02-2010 22:55:02 9.8 C 3.71 g/m*3 9.8 C 0 km/h
596 27-02-2010 23:07:02 9.8 C 3.71 g/m*3 9.8 C 0 km/h
597 27-02-2010 23:19:02 9.7 C 3.69 g/m*3 9.7 C 0 km/h
598 27-02-2010 23:31:02 9.6 C 3.66 g/m*3 9.6 C 0 km/h
599 27-02-2010 23:43:03 9.6 C 3.76 g/m*3 9.6 C 0 km/h
600 27-02-2010 23:55:03 9.4 C 3.8 g/m*3 9.4 C 0 km/h
Sensor: Nr:Datum:Temp:Abs-Feuchte:Windchill:Wind:
Aussen-T/F 601 28-02-2010 00:07:03 9.3 C 3.77 g/m*3 9.3 C 0 km/h
602 28-02-2010 00:19:03 8.9 C 4.2 g/m*3 8.9 C 0 km/h
603 28-02-2010 00:31:03 8.6 C 4.04 g/m*3 8.6 C 0 km/h
604 28-02-2010 00:43:03 8.5 C 4.44 g/m*3 8.5 C 0 km/h
605 28-02-2010 00:55:03 7.3 C 4.98 g/m*3 7.3 C 0 km/h
606 28-02-2010 01:07:03 6.9 C 5.54 g/m*3 6.9 C 0 km/h
607 28-02-2010 01:19:03 6.6 C 5.59 g/m*3 6.6 C 0 km/h
608 28-02-2010 01:31:03 6.4 C 5.74 g/m*3 6.4 C 0 km/h
609 28-02-2010 01:43:03 6.4 C 5.89 g/m*3 6.4 C 0 km/h
610 28-02-2010 01:55:03 6.2 C 5.88 g/m*3 6.2 C 0 km/h
611 28-02-2010 02:07:03 6.2 C 6.03 g/m*3 6.2 C 0 km/h
612 28-02-2010 02:19:03 6.2 C 6.1 g/m*3 6.2 C 0 km/h
613 28-02-2010 02:31:03 5.9 C 6.06 g/m*3 5.9 C 0 km/h
614 28-02-2010 02:43:03 5.9 C 6.13 g/m*3 5.9 C 0 km/h
615 28-02-2010 02:55:03 5.8 C 6.09 g/m*3 5.8 C 0 km/h
616 28-02-2010 03:07:03 5.8 C 6.16 g/m*3 5.8 C 0 km/h
617 28-02-2010 03:19:03 5.7 C 6.12 g/m*3 5.7 C 0 km/h
618 28-02-2010 03:31:03 5.7 C 6.12 g/m*3 5.7 C 0 km/h
619 28-02-2010 03:43:03 5.7 C 6.12 g/m*3 5.7 C 0 km/h
620 28-02-2010 03:55:04 5.8 C 6.09 g/m*3 5.8 C 0 km/h
621 28-02-2010 04:07:04 5.9 C 6.13 g/m*3 5.9 C 0 km/h
622 28-02-2010 04:19:04 6 C 6.17 g/m*3 6 C 0 km/h
623 28-02-2010 04:31:04 6.3 C 6.29 g/m*3 6.3 C 0 km/h
624 28-02-2010 04:43:04 6.3 C 6.37 g/m*3 6.3 C 0 km/h
625 28-02-2010 04:55:04 6.1 C 6.28 g/m*3 6.1 C 0 km/h
Sensor: Nr:Datum:Temp:Abs-Feuchte:Windchill:Wind:
Aussen-T/F 626 28-02-2010 05:07:04 6.1 C 6.36 g/m*3 6.1 C 0 km/h
627 28-02-2010 05:19:04 6.3 C 6.44 g/m*3 6.3 C 0 km/h
628 28-02-2010 05:31:04 6.3 C 6.44 g/m*3 6.3 C 0 km/h
629 28-02-2010 05:43:04 6.3 C 6.44 g/m*3 6.3 C 0 km/h
630 28-02-2010 05:55:04 6.3 C 6.44 g/m*3 6.3 C 0 km/h
631 28-02-2010 06:07:04 6.1 C 6.43 g/m*3 6.1 C 0 km/h
632 28-02-2010 06:19:04 6.3 C 6.51 g/m*3 6.3 C 0 km/h
633 28-02-2010 06:31:04 6.2 C 6.47 g/m*3 6.2 C 0 km/h
634 28-02-2010 06:43:04 6.1 C 6.5 g/m*3 6.1 C 0 km/h
635 28-02-2010 06:55:04 6.1 C 6.5 g/m*3 6.1 C 0 km/h
636 28-02-2010 07:07:04 6.3 C 6.66 g/m*3 6.3 C 0 km/h
637 28-02-2010 07:19:04 6.3 C 6.66 g/m*3 6.3 C 0 km/h
638 28-02-2010 07:31:04 6.2 C 6.69 g/m*3 6.2 C 0 km/h
639 28-02-2010 07:43:04 6.3 C 6.74 g/m*3 6.3 C 0 km/h
640 28-02-2010 07:55:04 6.4 C 6.85 g/m*3 6.4 C 0 km/h
641 28-02-2010 08:07:01 6.5 C 6.9 g/m*3 6.5 C 0 km/h
642 28-02-2010 08:19:02 6.7 C 7.07 g/m*3 6.7 C 0 km/h
643 28-02-2010 08:31:02 6.9 C 7.16 g/m*3 6.9 C 0 km/h
644 28-02-2010 08:43:02 7 C 7.13 g/m*3 7 C 0 km/h
645 28-02-2010 08:55:01 7.3 C 7.35 g/m*3 7.3 C 0 km/h
646 28-02-2010 09:07:02 7.9 C 7.47 g/m*3 7.9 C 0 km/h
647 28-02-2010 09:19:02 8.2 C 7.2 g/m*3 8.2 C 0 km/h
648 28-02-2010 09:31:01 8.5 C 7.09 g/m*3 8.5 C 0 km/h
649 28-02-2010 09:43:01 8.8 C 6.96 g/m*3 8.8 C 0 km/h
650 28-02-2010 09:55:01 8.8 C 6.88 g/m*3 8.8 C 0 km/h
Sensor: Nr:Datum:Temp:Abs-Feuchte:Windchill:Wind:
Aussen-T/F 651 28-02-2010 10:07:02 8.9 C 6.75 g/m*3 8.9 C 0 km/h
652 28-02-2010 10:19:02 9.3 C 6.65 g/m*3 9.3 C 0 km/h
653 28-02-2010 10:31:01 9.6 C 6.69 g/m*3 9.6 C 0 km/h
654 28-02-2010 10:43:01 9.8 C 6.87 g/m*3 9.8 C 0 km/h
655 28-02-2010 10:55:01 10.2 C 6.66 g/m*3 10.2 C 0 km/h
656 28-02-2010 11:07:02 10.7 C 6.78 g/m*3 10.7 C 0 km/h
657 28-02-2010 11:19:02 12.3 C 5.97 g/m*3 12.3 C 0 km/h
658 28-02-2010 11:31:01 13.2 C 5.28 g/m*3 13.2 C 0 km/h
659 28-02-2010 11:43:01 13 C 5.22 g/m*3 13 C 0 km/h
660 28-02-2010 11:55:01 13 C 4.65 g/m*3 13 C 0 km/h
661 28-02-2010 12:07:01 13 C 4.65 g/m*3 13 C 0 km/h
662 28-02-2010 12:19:02 12.7 C 4.56 g/m*3 12.7 C 0 km/h
663 28-02-2010 12:31:01 13 C 4.31 g/m*3 13 C 0 km/h
664 28-02-2010 12:43:01 12.6 C 4.54 g/m*3 12.6 C 0 km/h
665 28-02-2010 12:55:02 12.5 C 4.29 g/m*3 12.5 C 0 km/h
666 28-02-2010 13:07:01 12.5 C 4.18 g/m*3 12.5 C 0 km/h
667 28-02-2010 13:19:02 12.2 C 4.1 g/m*3 12.2 C 0 km/h
668 28-02-2010 13:31:01 11.9 C 3.92 g/m*3 11.9 C 0 km/h
669 28-02-2010 13:43:01 11.8 C 3.89 g/m*3 11.8 C 0 km/h
670 28-02-2010 13:55:02 11.8 C 3.79 g/m*3 11.8 C 0 km/h
671 28-02-2010 14:07:42 11.6 C 3.64 g/m*3 11.6 C 0 km/h
672 28-02-2010 14:19:02 11.4 C 3.59 g/m*3 11.4 C 0 km/h
673 28-02-2010 14:31:02 11.1 C 3.63 g/m*3 11.1 C 0 km/h
674 28-02-2010 14:43:02 10.7 C 3.83 g/m*3 10.7 C 0 km/h
675 28-02-2010 14:55:02 10.5 C 3.88 g/m*3 10.5 C 0 km/h
Sensor: Nr:Datum:Temp:Abs-Feuchte:Windchill:Wind:
Aussen-T/F 676 28-02-2010 15:07:01 10.6 C 3.9 g/m*3 10.6 C 0 km/h
677 28-02-2010 15:19:02 10.5 C 3.88 g/m*3 10.5 C 0 km/h
678 28-02-2010 15:31:01 9.7 C 4.52 g/m*3 9.7 C 0 km/h
679 28-02-2010 15:43:01 10 C 4.51 g/m*3 10 C 0 km/h
680 28-02-2010 15:55:03 10 C 4.32 g/m*3 10 C 0 km/h
681 28-02-2010 16:07:02 10 C 4.42 g/m*3 10 C 0 km/h
682 28-02-2010 16:19:02 9.8 C 4.45 g/m*3 9.8 C 0 km/h
683 28-02-2010 16:31:02 9.6 C 4.49 g/m*3 9.6 C 0 km/h
684 28-02-2010 16:43:02 9.5 C 4.64 g/m*3 9.5 C 0 km/h
685 28-02-2010 16:55:02 9.2 C 4.64 g/m*3 9.2 C 0 km/h
686 28-02-2010 17:07:02 9.2 C 4.64 g/m*3 9.2 C 0 km/h
687 28-02-2010 17:19:02 9.2 C 4.64 g/m*3 9.2 C 0 km/h
688 28-02-2010 17:31:02 9.1 C 4.53 g/m*3 9.1 C 0 km/h
689 28-02-2010 17:43:02 8.9 C 4.56 g/m*3 8.9 C 0 km/h
690 28-02-2010 17:55:02 8.7 C 4.76 g/m*3 8.7 C 0 km/h
691 28-02-2010 18:07:01 8.2 C 5.02 g/m*3 8.2 C 0 km/h
692 28-02-2010 18:19:02 8.1 C 4.99 g/m*3 8.1 C 0 km/h
693 28-02-2010 18:31:01 8.2 C 5.02 g/m*3 8.2 C 0 km/h
694 28-02-2010 18:43:01 8.2 C 4.94 g/m*3 8.2 C 0 km/h
695 28-02-2010 18:55:03 8 C 5.13 g/m*3 8 C 0 km/h
696 28-02-2010 19:07:02 7.9 C 5.09 g/m*3 7.9 C 0 km/h
697 28-02-2010 19:19:03 8 C 4.88 g/m*3 8 C 0 km/h
698 28-02-2010 19:31:03 8.1 C 4.74 g/m*3 8.1 C 0 km/h
699 28-02-2010 19:43:03 8 C 4.71 g/m*3 8 C 0 km/h
700 28-02-2010 19:55:02 8.1 C 4.74 g/m*3 8.1 C 0 km/h
Sensor: Nr:Datum:Temp:Abs-Feuchte:Windchill:Wind:
Aussen-T/F 701 28-02-2010 20:07:03 8 C 4.71 g/m*3 8 C 0 km/h
702 28-02-2010 20:19:02 7.8 C 4.9 g/m*3 7.8 C 0 km/h
703 28-02-2010 20:31:01 7.8 C 4.98 g/m*3 7.8 C 0 km/h
704 28-02-2010 20:43:01 7.7 C 4.95 g/m*3 7.7 C 0 km/h
705 28-02-2010 20:55:01 7.8 C 4.73 g/m*3 7.8 C 0 km/h
706 28-02-2010 21:07:02 7.8 C 4.57 g/m*3 7.8 C 0 km/h
707 28-02-2010 21:19:02 7.6 C 4.51 g/m*3 7.6 C 0 km/h
708 28-02-2010 21:31:02 7.5 C 4.56 g/m*3 7.5 C 0 km/h
709 28-02-2010 21:43:02 7.6 C 4.51 g/m*3 7.6 C 0 km/h
710 28-02-2010 21:55:02 7.7 C 4.54 g/m*3 7.7 C 0 km/h
711 28-02-2010 22:08:03 7.6 C 4.51 g/m*3 7.6 C 0 km/h
712 28-02-2010 22:20:03 7.5 C 4.48 g/m*3 7.5 C 0 km/h
713 28-02-2010 22:32:03 7.4 C 4.53 g/m*3 7.4 C 0 km/h
714 28-02-2010 22:44:03 7.1 C 4.68 g/m*3 7.1 C 0 km/h
715 28-02-2010 22:56:03 7 C 4.65 g/m*3 7 C 0 km/h
716 28-02-2010 23:08:03 7 C 4.8 g/m*3 7 C 0 km/h
717 28-02-2010 23:20:03 7 C 4.8 g/m*3 7 C 0 km/h
718 28-02-2010 23:32:03 6.9 C 4.93 g/m*3 6.9 C 0 km/h
719 28-02-2010 23:44:03 6.7 C 4.94 g/m*3 6.7 C 0 km/h
720 28-02-2010 23:56:03 6.6 C 4.98 g/m*3 6.6 C 0 km/h
721 01-03-2010 00:08:03 6.3 C 4.89 g/m*3 6.3 C 0 km/h
722 01-03-2010 00:20:04 6.1 C 4.89 g/m*3 6.1 C 0 km/h
723 01-03-2010 00:32:04 6.2 C 4.85 g/m*3 6.2 C 0 km/h
724 01-03-2010 00:44:04 6.1 C 4.75 g/m*3 6.1 C 0 km/h
725 01-03-2010 00:56:04 6.1 C 4.6 g/m*3 6.1 C 0 km/h
Sensor: Nr:Datum:Temp:Abs-Feuchte:Windchill:Wind:
Aussen-T/F 726 01-03-2010 01:08:04 5.9 C 4.76 g/m*3 5.9 C 0 km/h
727 01-03-2010 01:20:04 5.7 C 4.7 g/m*3 5.7 C 0 km/h
728 01-03-2010 01:32:04 5.8 C 4.37 g/m*3 5.8 C 0 km/h
729 01-03-2010 01:44:04 5.7 C 4.34 g/m*3 5.7 C 0 km/h
730 01-03-2010 01:56:04 5.8 C 4.23 g/m*3 5.8 C 0 km/h
731 01-03-2010 02:08:04 5.8 C 4.23 g/m*3 5.8 C 0 km/h
732 01-03-2010 02:20:04 5.7 C 3.99 g/m*3 5.7 C 0 km/h
733 01-03-2010 02:32:04 5.6 C 3.96 g/m*3 5.6 C 0 km/h
734 01-03-2010 02:44:05 5.5 C 3.93 g/m*3 5.5 C 0 km/h
735 01-03-2010 02:56:05 5.4 C 4.05 g/m*3 5.4 C 0 km/h
736 01-03-2010 03:08:05 5.3 C 4.09 g/m*3 5.3 C 0 km/h
737 01-03-2010 03:20:05 5 C 4.14 g/m*3 5 C 0 km/h
738 01-03-2010 03:32:05 5 C 4.14 g/m*3 5 C 0 km/h
739 01-03-2010 03:44:05 4.9 C 4.12 g/m*3 4.9 C 0 km/h
740 01-03-2010 03:56:05 4.8 C 4.09 g/m*3 4.8 C 0 km/h
741 01-03-2010 04:08:05 4.7 C 4.13 g/m*3 4.7 C 0 km/h
742 01-03-2010 04:20:05 4.6 C 4.17 g/m*3 4.6 C 0 km/h
743 01-03-2010 04:32:05 4.6 C 4.23 g/m*3 4.6 C 0 km/h
744 01-03-2010 04:44:05 4.7 C 4.33 g/m*3 4.7 C 0 km/h
745 01-03-2010 04:56:05 4.8 C 4.36 g/m*3 4.8 C 0 km/h
746 01-03-2010 05:08:05 4.4 C 4.7 g/m*3 4.4 C 0 km/h
747 01-03-2010 05:20:05 4.1 C 4.99 g/m*3 4.1 C 0 km/h
748 01-03-2010 05:32:05 3.8 C 5.08 g/m*3 3.8 C 0 km/h
749 01-03-2010 05:44:05 3.5 C 5.04 g/m*3 3.5 C 0 km/h
750 01-03-2010 05:56:05 3.5 C 5.04 g/m*3 3.5 C 0 km/h
Sensor: Nr:Datum:Temp:Abs-Feuchte:Windchill:Wind:
Aussen-T/F 751 01-03-2010 06:08:05 3.4 C 5.01 g/m*3 3.4 C 0 km/h
752 01-03-2010 06:20:05 3.4 C 5.01 g/m*3 3.4 C 0 km/h
753 01-03-2010 06:32:05 3.6 C 4.89 g/m*3 3.6 C 0 km/h
754 01-03-2010 06:44:05 3.8 C 4.77 g/m*3 3.8 C 0 km/h
755 01-03-2010 06:56:05 4 C 4.64 g/m*3 4 C 0 km/h
756 01-03-2010 07:08:05 4.1 C 4.48 g/m*3 4.1 C 0 km/h
757 01-03-2010 07:20:03 4.2 C 4.38 g/m*3 4.2 C 0 km/h
758 01-03-2010 07:32:03 4.2 C 4.12 g/m*3 4.2 C 0 km/h
759 01-03-2010 07:44:03 4.4 C 3.92 g/m*3 4.4 C 0 km/h
760 01-03-2010 07:56:02 4.6 C 3.77 g/m*3 4.6 C 0 km/h
761 01-03-2010 08:08:02 4.6 C 3.71 g/m*3 4.6 C 0 km/h
762 01-03-2010 08:20:02 4.8 C 3.69 g/m*3 4.8 C 0 km/h
763 01-03-2010 08:32:02 4.9 C 3.71 g/m*3 4.9 C 0 km/h
764 01-03-2010 08:44:02 5 C 3.67 g/m*3 5 C 0 km/h
765 01-03-2010 08:56:01 5.1 C 3.69 g/m*3 5.1 C 0 km/h
766 01-03-2010 09:08:02 5.2 C 3.86 g/m*3 5.2 C 0 km/h
767 01-03-2010 09:20:01 5.3 C 4.02 g/m*3 5.3 C 0 km/h
768 01-03-2010 09:32:02 5.4 C 3.91 g/m*3 5.4 C 0 km/h
769 01-03-2010 09:44:02 5.6 C 3.96 g/m*3 5.6 C 0 km/h
770 01-03-2010 09:56:01 5.8 C 4.01 g/m*3 5.8 C 0 km/h
771 01-03-2010 10:08:02 6 C 3.7 g/m*3 6 C 0 km/h
772 01-03-2010 10:20:01 6.2 C 3.6 g/m*3 6.2 C 0 km/h
773 01-03-2010 10:32:02 6.4 C 3.65 g/m*3 6.4 C 0 km/h
774 01-03-2010 10:44:02 6.3 C 3.48 g/m*3 6.3 C 0 km/h
775 01-03-2010 10:56:01 6.4 C 3.5 g/m*3 6.4 C 0 km/h
Sensor: Nr:Datum:Temp:Abs-Feuchte:Windchill:Wind:
Aussen-T/F 776 01-03-2010 11:08:02 6.7 C 3.5 g/m*3 6.7 C 0 km/h
777 01-03-2010 11:20:02 6.6 C 3.47 g/m*3 6.6 C 0 km/h
778 01-03-2010 11:32:02 6.3 C 3.41 g/m*3 6.3 C 0 km/h
779 01-03-2010 11:44:02 6.6 C 3.47 g/m*3 6.6 C 0 km/h
780 01-03-2010 11:56:01 7 C 3.33 g/m*3 7 C 0 km/h
781 01-03-2010 12:08:02 7 C 3.33 g/m*3 7 C 0 km/h
782 01-03-2010 12:20:02 7.2 C 3.3 g/m*3 7.2 C 0 km/h
783 01-03-2010 12:32:01 7.5 C 3.2 g/m*3 7.5 C 0 km/h
784 01-03-2010 12:44:01 7.9 C 3.2 g/m*3 7.9 C 0 km/h
785 01-03-2010 12:56:02 7.8 C 3.18 g/m*3 7.8 C 0 km/h
786 01-03-2010 13:08:01 7.7 C 3.16 g/m*3 7.7 C 0 km/h
787 01-03-2010 13:20:02 8 C 3.14 g/m*3 8 C 0 km/h
788 01-03-2010 13:32:01 8 C 3.06 g/m*3 8 C 0 km/h
789 01-03-2010 13:44:01 7.8 C 3.02 g/m*3 7.8 C 0 km/h
790 01-03-2010 13:56:01 7.7 C 3 g/m*3 7.7 C 0 km/h
791 01-03-2010 14:08:01 7.3 C 3.16 g/m*3 7.3 C 0 km/h
792 01-03-2010 14:20:01 7.1 C 3.2 g/m*3 7.1 C 0 km/h
793 01-03-2010 14:32:02 7.6 C 3.22 g/m*3 7.6 C 0 km/h
794 01-03-2010 14:44:02 7.5 C 3.2 g/m*3 7.5 C 0 km/h
795 01-03-2010 14:56:02 7.4 C 3.18 g/m*3 7.4 C 0 km/h
796 01-03-2010 15:08:02 7.3 C 3.24 g/m*3 7.3 C 0 km/h
797 01-03-2010 15:20:02 7.6 C 3.3 g/m*3 7.6 C 0 km/h
798 01-03-2010 15:32:02 7.5 C 3.28 g/m*3 7.5 C 0 km/h
799 01-03-2010 15:44:02 7.4 C 3.1 g/m*3 7.4 C 0 km/h
800 01-03-2010 15:56:02 7.3 C 3 g/m*3 7.3 C 0 km/h
Sensor: Nr:Datum:Temp:Abs-Feuchte:Windchill:Wind:
Aussen-T/F 801 01-03-2010 16:08:01 7.3 C 3.08 g/m*3 7.3 C 0 km/h
802 01-03-2010 16:20:02 7.3 C 3.08 g/m*3 7.3 C 0 km/h
803 01-03-2010 16:32:02 7.3 C 3.08 g/m*3 7.3 C 0 km/h
804 01-03-2010 16:44:02 7.3 C 3.08 g/m*3 7.3 C 0 km/h
805 01-03-2010 16:56:02 7.2 C 3.06 g/m*3 7.2 C 0 km/h
806 01-03-2010 17:08:03 7.1 C 3.12 g/m*3 7.1 C 0 km/h
807 01-03-2010 17:20:02 6.9 C 3.08 g/m*3 6.9 C 0 km/h
808 01-03-2010 17:32:02 6.8 C 3.06 g/m*3 6.8 C 0 km/h
809 01-03-2010 17:44:02 6.8 C 3.14 g/m*3 6.8 C 0 km/h
810 01-03-2010 17:56:01 6.7 C 3.12 g/m*3 6.7 C 0 km/h
811 01-03-2010 18:08:02 6.5 C 3.22 g/m*3 6.5 C 0 km/h
812 01-03-2010 18:20:01 6.4 C 3.5 g/m*3 6.4 C 0 km/h
813 01-03-2010 18:32:01 6 C 3.56 g/m*3 6 C 0 km/h
814 01-03-2010 18:44:01 5.8 C 3.72 g/m*3 5.8 C 0 km/h
815 01-03-2010 18:56:01 5.7 C 3.77 g/m*3 5.7 C 0 km/h
816 01-03-2010 19:08:02 5.6 C 3.68 g/m*3 5.6 C 0 km/h
817 01-03-2010 19:20:01 5.6 C 3.53 g/m*3 5.6 C 0 km/h
818 01-03-2010 19:32:02 5.4 C 3.56 g/m*3 5.4 C 0 km/h
819 01-03-2010 19:44:02 5.3 C 3.53 g/m*3 5.3 C 0 km/h
820 01-03-2010 19:56:02 5.1 C 3.42 g/m*3 5.1 C 0 km/h
821 01-03-2010 20:08:03 5 C 3.4 g/m*3 5 C 0 km/h
822 01-03-2010 20:20:02 5.1 C 3.42 g/m*3 5.1 C 0 km/h
823 01-03-2010 20:32:02 4.6 C 3.44 g/m*3 4.6 C 0 km/h
824 01-03-2010 20:44:02 4.4 C 3.46 g/m*3 4.4 C 0 km/h
825 01-03-2010 20:56:02 4.4 C 3.4 g/m*3 4.4 C 0 km/h
Sensor: Nr:Datum:Temp:Abs-Feuchte:Windchill:Wind:
Aussen-T/F 826 01-03-2010 21:08:02 3.8 C 3.51 g/m*3 3.8 C 0 km/h
827 01-03-2010 21:20:02 3.4 C 3.54 g/m*3 3.4 C 0 km/h
828 01-03-2010 21:32:01 3.4 C 3.6 g/m*3 3.4 C 0 km/h
829 01-03-2010 21:44:01 3.3 C 3.64 g/m*3 3.3 C 0 km/h
830 01-03-2010 21:56:02 3.1 C 3.71 g/m*3 3.1 C 0 km/h
831 01-03-2010 22:08:02 2.8 C 3.64 g/m*3 2.8 C 0 km/h
832 01-03-2010 22:21:03 2.6 C 3.82 g/m*3 2.6 C 0 km/h
833 01-03-2010 22:33:03 2.4 C 3.83 g/m*3 2.4 C 0 km/h
834 01-03-2010 22:45:03 2.1 C 3.86 g/m*3 2.1 C 0 km/h
835 01-03-2010 22:57:03 2 C 3.89 g/m*3 2 C 0 km/h
836 01-03-2010 23:09:03 1.8 C 3.95 g/m*3 1.8 C 0 km/h
837 01-03-2010 23:21:03 1.5 C 3.92 g/m*3 1.5 C 0 km/h
838 01-03-2010 23:33:03 1.2 C 3.89 g/m*3 1.2 C 0 km/h
839 01-03-2010 23:45:03 1.1 C 3.92 g/m*3 1.1 C 0 km/h
840 01-03-2010 23:57:03 1.1 C 3.97 g/m*3 1.1 C 0 km/h
841 02-03-2010 00:09:03 0.9 C 3.97 g/m*3 0.9 C 0 km/h
842 02-03-2010 00:21:03 0.7 C 3.97 g/m*3 0.7 C 0 km/h
843 02-03-2010 00:33:03 0.5 C 3.96 g/m*3 0.5 C 0 km/h
844 02-03-2010 00:45:03 0.2 C 3.88 g/m*3 0.2 C 0 km/h
845 02-03-2010 00:57:03 0.2 C 3.88 g/m*3 0.2 C 0 km/h
846 02-03-2010 01:09:03 0.1 C 3.9 g/m*3 0.1 C 0 km/h
847 02-03-2010 01:21:03 0.2 C 3.98 g/m*3 0.2 C 0 km/h
848 02-03-2010 01:33:03 0.3 C 4.01 g/m*3 0.3 C 0 km/h
849 02-03-2010 01:45:03 0 C 3.92 g/m*3 0 C 0 km/h
850 02-03-2010 01:57:03 0 C 3.97 g/m*3 0 C 0 km/h
Sensor: Nr:Datum:Temp:Abs-Feuchte:Windchill:Wind:
Aussen-T/F 851 02-03-2010 02:09:03 0 C 3.97 g/m*3 0 C 0 km/h
852 02-03-2010 02:21:04 -0.2 C 3.92 g/m*3 -0.2 C 0 km/h
853 02-03-2010 02:33:04 -0.2 C 3.97 g/m*3 -0.2 C 0 km/h
854 02-03-2010 02:45:04 -0.4 C 3.91 g/m*3 -0.4 C 0 km/h
855 02-03-2010 02:57:04 -0.6 C 3.86 g/m*3 -0.6 C 0 km/h
856 02-03-2010 03:09:04 -0.7 C 3.83 g/m*3 -0.7 C 0 km/h
857 02-03-2010 03:21:04 -0.6 C 3.86 g/m*3 -0.6 C 0 km/h
858 02-03-2010 03:33:04 -0.7 C 3.83 g/m*3 -0.7 C 0 km/h
859 02-03-2010 03:45:04 -0.9 C 3.82 g/m*3 -0.9 C 0 km/h
860 02-03-2010 03:57:04 -1 C 3.8 g/m*3 -1 C 0 km/h
861 02-03-2010 04:09:04 -1.3 C 3.72 g/m*3 -1.3 C 0 km/h
862 02-03-2010 04:21:04 -1.3 C 3.72 g/m*3 -1.3 C 0 km/h
863 02-03-2010 04:33:04 -1.4 C 3.69 g/m*3 -1.4 C 0 km/h
864 02-03-2010 04:45:04 -1.2 C 3.79 g/m*3 -1.2 C 0 km/h
865 02-03-2010 04:57:04 -1.2 C 3.79 g/m*3 -1.2 C 0 km/h
866 02-03-2010 05:09:04 -1.1 C 3.86 g/m*3 -1.1 C 0 km/h
867 02-03-2010 05:21:04 -1.1 C 3.86 g/m*3 -1.1 C 0 km/h
868 02-03-2010 05:33:04 -1.1 C 3.86 g/m*3 -1.1 C 0 km/h
869 02-03-2010 05:45:04 -1.1 C 3.86 g/m*3 -1.1 C 0 km/h
870 02-03-2010 05:57:04 -1.4 C 3.74 g/m*3 -1.4 C 0 km/h
871 02-03-2010 06:09:04 -1.6 C 3.68 g/m*3 -1.6 C 0 km/h
872 02-03-2010 06:21:04 -1.7 C 3.66 g/m*3 -1.7 C 0 km/h
873 02-03-2010 06:33:05 -1.8 C 3.63 g/m*3 -1.8 C 0 km/h
874 02-03-2010 06:45:05 -1.9 C 3.65 g/m*3 -1.9 C 0 km/h
875 02-03-2010 06:57:05 -1.9 C 3.65 g/m*3 -1.9 C 0 km/h
Sensor: Nr:Datum:Temp:Abs-Feuchte:Windchill:Wind:
Aussen-T/F 876 02-03-2010 07:09:02 -2 C 3.63 g/m*3 -2 C 0 km/h
877 02-03-2010 07:21:03 -1.8 C 3.72 g/m*3 -1.8 C 0 km/h
878 02-03-2010 07:33:02 -1.8 C 3.72 g/m*3 -1.8 C 0 km/h
879 02-03-2010 07:45:02 -1.6 C 3.77 g/m*3 -1.6 C 0 km/h
880 02-03-2010 07:57:02 -1.2 C 3.92 g/m*3 -1.2 C 0 km/h
881 02-03-2010 08:09:02 -0.9 C 4.01 g/m*3 -0.9 C 0 km/h
882 02-03-2010 08:21:02 -0.7 C 4.06 g/m*3 -0.7 C 0 km/h
883 02-03-2010 08:33:03 -0.7 C 4.06 g/m*3 -0.7 C 0 km/h
884 02-03-2010 08:45:02 -0.6 C 4.09 g/m*3 -0.6 C 0 km/h
885 02-03-2010 08:57:03 -0.6 C 4.09 g/m*3 -0.6 C 0 km/h
886 02-03-2010 09:09:01 -0.5 C 4.07 g/m*3 -0.5 C 0 km/h
887 02-03-2010 09:21:02 0 C 4.26 g/m*3 0 C 0 km/h
888 02-03-2010 09:33:02 0.1 C 4.24 g/m*3 0.1 C 0 km/h
889 02-03-2010 09:45:02 -0.1 C 4.14 g/m*3 -0.1 C 0 km/h
890 02-03-2010 09:57:02 -0.1 C 4.14 g/m*3 -0.1 C 0 km/h
891 02-03-2010 10:09:03 0.3 C 4.25 g/m*3 0.3 C 0 km/h
892 02-03-2010 10:21:02 0.7 C 4.32 g/m*3 0.7 C 0 km/h
893 02-03-2010 10:33:02 1.2 C 4.42 g/m*3 1.2 C 0 km/h
894 02-03-2010 10:45:01 1.6 C 4.49 g/m*3 1.6 C 0 km/h
895 02-03-2010 10:57:01 2.1 C 4.48 g/m*3 2.1 C 0 km/h
896 02-03-2010 11:09:02 2.6 C 4.57 g/m*3 2.6 C 0 km/h
897 02-03-2010 11:21:01 3.1 C 4.61 g/m*3 3.1 C 0 km/h
898 02-03-2010 11:33:02 4 C 4.7 g/m*3 4 C 0 km/h
899 02-03-2010 11:45:02 4 C 4.51 g/m*3 4 C 0 km/h
900 02-03-2010 11:57:02 4.2 C 4.25 g/m*3 4.2 C 0 km/h
Sensor: Nr:Datum:Temp:Abs-Feuchte:Windchill:Wind:
Aussen-T/F 901 02-03-2010 12:09:02 5.1 C 3.63 g/m*3 5.1 C 0 km/h
902 02-03-2010 12:21:01 6.1 C 3.29 g/m*3 6.1 C 0 km/h
903 02-03-2010 12:33:02 6.3 C 3.26 g/m*3 6.3 C 0 km/h
904 02-03-2010 12:45:02 7 C 3.02 g/m*3 7 C 0 km/h
905 02-03-2010 12:57:02 7.4 C 2.86 g/m*3 7.4 C 0 km/h
906 02-03-2010 13:09:02 8.1 C 2.91 g/m*3 8.1 C 0 km/h
907 02-03-2010 13:21:01 9.1 C 2.75 g/m*3 9.1 C 0 km/h
908 02-03-2010 13:33:02 8.5 C 2.65 g/m*3 8.5 C 0 km/h
909 02-03-2010 13:45:01 9.5 C 2.73 g/m*3 9.5 C 0 km/h
910 02-03-2010 13:57:01 10.3 C 2.49 g/m*3 10.3 C 0 km/h
911 02-03-2010 14:09:02 10.2 C 2.38 g/m*3 10.2 C 0 km/h
912 02-03-2010 14:21:02 10.1 C 2.65 g/m*3 10.1 C 0 km/h
913 02-03-2010 14:33:02 9.5 C 2.28 g/m*3 9.5 C 0 km/h
914 02-03-2010 14:45:02 9.5 C 2.46 g/m*3 9.5 C 0 km/h
915 02-03-2010 14:57:02 9 C 2.29 g/m*3 9 C 0 km/h
916 02-03-2010 15:09:02 8.7 C 2.42 g/m*3 8.7 C 0 km/h
917 02-03-2010 15:21:02 9.5 C 2.55 g/m*3 9.5 C 0 km/h
918 02-03-2010 15:33:01 10.3 C 2.49 g/m*3 10.3 C 0 km/h
919 02-03-2010 15:45:02 11 C 2.4 g/m*3 11 C 0 km/h
920 02-03-2010 15:57:02 10.7 C 1.96 g/m*3 10.7 C 0 km/h
921 02-03-2010 16:09:01 9.7 C 1.84 g/m*3 9.7 C 0 km/h
922 02-03-2010 16:21:02 9.5 C 1.82 g/m*3 9.5 C 0 km/h
923 02-03-2010 16:33:01 8.7 C 2.51 g/m*3 8.7 C 0 km/h
924 02-03-2010 16:45:02 8.4 C 2.63 g/m*3 8.4 C 0 km/h
925 02-03-2010 16:57:03 8.7 C 2.77 g/m*3 8.7 C 0 km/h
Sensor: Nr:Datum:Temp:Abs-Feuchte:Windchill:Wind:
Aussen-T/F 926 02-03-2010 17:09:02 8.7 C 2.77 g/m*3 8.7 C 0 km/h
927 02-03-2010 17:21:02 9 C 2.73 g/m*3 9 C 0 km/h
928 02-03-2010 17:33:02 8.4 C 2.71 g/m*3 8.4 C 0 km/h
929 02-03-2010 17:45:02 8.2 C 2.93 g/m*3 8.2 C 0 km/h
930 02-03-2010 17:57:03 7.9 C 2.96 g/m*3 7.9 C 0 km/h
931 02-03-2010 18:09:01 7.5 C 3.04 g/m*3 7.5 C 0 km/h
932 02-03-2010 18:21:02 7 C 3.1 g/m*3 7 C 0 km/h
933 02-03-2010 18:33:02 6.5 C 3.3 g/m*3 6.5 C 0 km/h
934 02-03-2010 18:45:02 6.2 C 3.38 g/m*3 6.2 C 0 km/h
935 02-03-2010 18:57:02 5.9 C 3.53 g/m*3 5.9 C 0 km/h
936 02-03-2010 19:09:01 5.9 C 3.53 g/m*3 5.9 C 0 km/h
937 02-03-2010 19:21:02 5.9 C 3.39 g/m*3 5.9 C 0 km/h
938 02-03-2010 19:33:02 5.8 C 3.3 g/m*3 5.8 C 0 km/h
939 02-03-2010 19:45:01 5.8 C 3.3 g/m*3 5.8 C 0 km/h
940 02-03-2010 19:57:01 5.8 C 3.3 g/m*3 5.8 C 0 km/h
941 02-03-2010 20:09:02 6 C 3.19 g/m*3 6 C 0 km/h
942 02-03-2010 20:21:01 5.8 C 3.22 g/m*3 5.8 C 0 km/h
943 02-03-2010 20:33:01 5.5 C 3.3 g/m*3 5.5 C 0 km/h
944 02-03-2010 20:45:01 5 C 3.47 g/m*3 5 C 0 km/h
945 02-03-2010 20:57:02 4.4 C 3.66 g/m*3 4.4 C 0 km/h
946 02-03-2010 21:09:01 4.3 C 3.83 g/m*3 4.3 C 0 km/h
947 02-03-2010 21:21:02 3.8 C 4.02 g/m*3 3.8 C 0 km/h
948 02-03-2010 21:33:02 3.2 C 4.34 g/m*3 3.2 C 0 km/h
949 02-03-2010 21:45:02 2.9 C 4.43 g/m*3 2.9 C 0 km/h
950 02-03-2010 21:57:02 2.7 C 4.43 g/m*3 2.7 C 0 km/h
Sensor: Nr:Datum:Temp:Abs-Feuchte:Windchill:Wind:
Aussen-T/F 951 02-03-2010 22:10:02 2.5 C 4.37 g/m*3 2.5 C 0 km/h
952 02-03-2010 22:22:02 2.5 C 4.43 g/m*3 2.5 C 0 km/h
953 02-03-2010 22:34:02 2.4 C 4.34 g/m*3 2.4 C 0 km/h
954 02-03-2010 22:46:02 2.2 C 4.34 g/m*3 2.2 C 0 km/h
955 02-03-2010 22:58:02 2 C 4.28 g/m*3 2 C 0 km/h
956 02-03-2010 23:10:02 1.8 C 4.28 g/m*3 1.8 C 0 km/h
957 02-03-2010 23:22:02 1.7 C 4.3 g/m*3 1.7 C 0 km/h
958 02-03-2010 23:34:02 1.5 C 4.24 g/m*3 1.5 C 0 km/h
959 02-03-2010 23:46:02 1.3 C 4.19 g/m*3 1.3 C 0 km/h
960 02-03-2010 23:58:02 1.3 C 4.13 g/m*3 1.3 C 0 km/h
961 03-03-2010 00:10:03 1.1 C 4.08 g/m*3 1.1 C 0 km/h
962 03-03-2010 00:22:03 1.2 C 4.05 g/m*3 1.2 C 0 km/h
963 03-03-2010 00:34:03 1.1 C 3.92 g/m*3 1.1 C 0 km/h
964 03-03-2010 00:46:03 0.9 C 3.87 g/m*3 0.9 C 0 km/h
965 03-03-2010 00:58:03 0.9 C 3.81 g/m*3 0.9 C 0 km/h
966 03-03-2010 01:10:03 0.8 C 3.79 g/m*3 0.8 C 0 km/h
967 03-03-2010 01:22:03 0.5 C 3.71 g/m*3 0.5 C 0 km/h
968 03-03-2010 01:34:03 0.3 C 3.66 g/m*3 0.3 C 0 km/h
969 03-03-2010 01:46:03 0.1 C 3.66 g/m*3 0.1 C 0 km/h
970 03-03-2010 01:58:03 -0.1 C 3.66 g/m*3 -0.1 C 0 km/h
971 03-03-2010 02:10:03 0 C 3.78 g/m*3 0 C 0 km/h
972 03-03-2010 02:22:03 -0.1 C 3.8 g/m*3 -0.1 C 0 km/h
973 03-03-2010 02:34:03 -0.4 C 3.72 g/m*3 -0.4 C 0 km/h
974 03-03-2010 02:46:03 -0.5 C 3.74 g/m*3 -0.5 C 0 km/h
975 03-03-2010 02:58:03 -0.6 C 3.76 g/m*3 -0.6 C 0 km/h
Sensor: Nr:Datum:Temp:Abs-Feuchte:Windchill:Wind:
Aussen-T/F 976 03-03-2010 03:10:03 -0.7 C 3.74 g/m*3 -0.7 C 0 km/h
977 03-03-2010 03:22:03 -0.9 C 3.69 g/m*3 -0.9 C 0 km/h
978 03-03-2010 03:34:03 -0.9 C 3.73 g/m*3 -0.9 C 0 km/h
979 03-03-2010 03:46:03 -1 C 3.71 g/m*3 -1 C 0 km/h
980 03-03-2010 03:58:04 -1.1 C 3.68 g/m*3 -1.1 C 0 km/h
981 03-03-2010 04:10:04 -1.2 C 3.7 g/m*3 -1.2 C 0 km/h
982 03-03-2010 04:22:04 -1.3 C 3.67 g/m*3 -1.3 C 0 km/h
983 03-03-2010 04:34:04 -1.5 C 3.62 g/m*3 -1.5 C 0 km/h
984 03-03-2010 04:46:04 -1.4 C 3.69 g/m*3 -1.4 C 0 km/h
985 03-03-2010 04:58:04 -1.6 C 3.64 g/m*3 -1.6 C 0 km/h
986 03-03-2010 05:10:04 -1.7 C 3.62 g/m*3 -1.7 C 0 km/h
987 03-03-2010 05:22:04 -2 C 3.54 g/m*3 -2 C 0 km/h
988 03-03-2010 05:34:04 -2 C 3.54 g/m*3 -2 C 0 km/h
989 03-03-2010 05:46:04 -2.1 C 3.52 g/m*3 -2.1 C 0 km/h
990 03-03-2010 05:58:04 -2.1 C 3.56 g/m*3 -2.1 C 0 km/h
991 03-03-2010 06:10:04 -2.2 C 3.53 g/m*3 -2.2 C 0 km/h
992 03-03-2010 06:22:04 -1.8 C 3.68 g/m*3 -1.8 C 0 km/h
993 03-03-2010 06:34:04 -1.4 C 3.82 g/m*3 -1.4 C 0 km/h
994 03-03-2010 06:46:04 -1.1 C 3.91 g/m*3 -1.1 C 0 km/h
995 03-03-2010 06:58:04 -1.1 C 3.91 g/m*3 -1.1 C 0 km/h
996 03-03-2010 07:10:02 -1.1 C 3.86 g/m*3 -1.1 C 0 km/h
997 03-03-2010 07:22:02 -1.1 C 3.86 g/m*3 -1.1 C 0 km/h
998 03-03-2010 07:34:02 -1.1 C 3.82 g/m*3 -1.1 C 0 km/h
999 03-03-2010 07:46:02 -1.3 C 3.72 g/m*3 -1.3 C 0 km/h
1000 03-03-2010 07:58:02 -1.5 C 3.67 g/m*3 -1.5 C 0 km/h
Sensor: Nr:Datum:Temp:Abs-Feuchte:Windchill:Wind:
Aussen-T/F 1001 03-03-2010 08:10:02 -1.4 C 3.69 g/m*3 -1.4 C 0 km/h
1002 03-03-2010 08:22:02 -1.3 C 3.72 g/m*3 -1.3 C 0 km/h
1003 03-03-2010 08:34:02 -1.2 C 3.79 g/m*3 -1.2 C 0 km/h
1004 03-03-2010 08:46:02 -0.7 C 3.92 g/m*3 -0.7 C 0 km/h
1005 03-03-2010 08:58:02 0.1 C 4.2 g/m*3 0.1 C 0 km/h
1006 03-03-2010 09:10:01 0.6 C 4.29 g/m*3 0.6 C 0 km/h
1007 03-03-2010 09:22:02 0.8 C 4.15 g/m*3 0.8 C 0 km/h
1008 03-03-2010 09:34:02 1 C 3.84 g/m*3 1 C 0 km/h
1009 03-03-2010 09:46:02 1.2 C 3.68 g/m*3 1.2 C 0 km/h
1010 03-03-2010 09:58:02 1.5 C 3.54 g/m*3 1.5 C 0 km/h
1011 03-03-2010 10:10:03 1.4 C 3.41 g/m*3 1.4 C 0 km/h
1012 03-03-2010 10:22:02 1.1 C 3.4 g/m*3 1.1 C 0 km/h
1013 03-03-2010 10:34:02 1.2 C 3.47 g/m*3 1.2 C 0 km/h
1014 03-03-2010 10:46:01 1.3 C 3.5 g/m*3 1.3 C 0 km/h
1015 03-03-2010 10:58:01 1.7 C 3.54 g/m*3 1.7 C 0 km/h
1016 03-03-2010 11:10:02 2.2 C 3.49 g/m*3 2.2 C 0 km/h
1017 03-03-2010 11:22:01 2.5 C 3.45 g/m*3 2.5 C 0 km/h
1018 03-03-2010 11:34:01 2.8 C 3.46 g/m*3 2.8 C 0 km/h
1019 03-03-2010 11:46:01 3.1 C 3.35 g/m*3 3.1 C 0 km/h
1020 03-03-2010 11:58:01 3.7 C 3.24 g/m*3 3.7 C 0 km/h
1021 03-03-2010 12:10:02 4.3 C 3.24 g/m*3 4.3 C 0 km/h
1022 03-03-2010 12:22:01 4.8 C 3.22 g/m*3 4.8 C 0 km/h
1023 03-03-2010 12:34:02 5.1 C 3.15 g/m*3 5.1 C 0 km/h
1024 03-03-2010 12:46:01 5.8 C 3.15 g/m*3 5.8 C 0 km/h
1025 03-03-2010 12:58:01 6.5 C 3 g/m*3 6.5 C 0 km/h
Sensor: Nr:Datum:Temp:Abs-Feuchte:Windchill:Wind:
Aussen-T/F 1026 03-03-2010 13:10:02 7 C 2.94 g/m*3 7 C 0 km/h
1027 03-03-2010 13:22:01 7.8 C 2.86 g/m*3 7.8 C 0 km/h
1028 03-03-2010 13:34:02 8.5 C 2.48 g/m*3 8.5 C 0 km/h
1029 03-03-2010 13:46:01 8.9 C 2.19 g/m*3 8.9 C 0 km/h
1030 03-03-2010 13:58:01 9.1 C 1.77 g/m*3 9.1 C 0 km/h
1031 03-03-2010 14:10:02 9.4 C 1.81 g/m*3 9.4 C 0 km/h
1032 03-03-2010 14:22:02 9.8 C 1.86 g/m*3 9.8 C 0 km/h
1033 03-03-2010 14:34:01 10.3 C 1.92 g/m*3 10.3 C 0 km/h
1034 03-03-2010 14:46:02 10.5 C 1.94 g/m*3 10.5 C 0 km/h
1035 03-03-2010 14:58:02 10.2 C 1.9 g/m*3 10.2 C 0 km/h
1036 03-03-2010 15:10:01 10.7 C 1.96 g/m*3 10.7 C 0 km/h
1037 03-03-2010 15:22:02 11 C 2 g/m*3 11 C 0 km/h
1038 03-03-2010 15:34:01 11 C 2 g/m*3 11 C 0 km/h
1039 03-03-2010 15:46:03 10.5 C 1.94 g/m*3 10.5 C 0 km/h
1040 03-03-2010 15:58:03 11 C 2 g/m*3 11 C 0 km/h
1041 03-03-2010 16:10:02 11.2 C 2.03 g/m*3 11.2 C 0 km/h
1042 03-03-2010 16:22:02 11.5 C 2.07 g/m*3 11.5 C 0 km/h
1043 03-03-2010 16:34:02 11.1 C 2.01 g/m*3 11.1 C 0 km/h
1044 03-03-2010 16:46:02 10.3 C 1.92 g/m*3 10.3 C 0 km/h
1045 03-03-2010 16:58:02 10.3 C 1.92 g/m*3 10.3 C 0 km/h
1046 03-03-2010 17:10:01 9.3 C 1.8 g/m*3 9.3 C 0 km/h
1047 03-03-2010 17:22:02 8.5 C 1.71 g/m*3 8.5 C 0 km/h
1048 03-03-2010 17:34:02 7.8 C 1.63 g/m*3 7.8 C 0 km/h
1049 03-03-2010 17:46:02 7.2 C 1.96 g/m*3 7.2 C 0 km/h
1050 03-03-2010 17:58:03 6.6 C 1.89 g/m*3 6.6 C 0 km/h
Sensor: Nr:Datum:Temp:Abs-Feuchte:Windchill:Wind:
Aussen-T/F 1051 03-03-2010 18:10:02 6.2 C 2.21 g/m*3 6.2 C 0 km/h
1052 03-03-2010 18:22:02 5.7 C 2.13 g/m*3 5.7 C 0 km/h
1053 03-03-2010 18:34:03 5.4 C 2.02 g/m*3 5.4 C 0 km/h
1054 03-03-2010 18:46:02 5.1 C 2.05 g/m*3 5.1 C 0 km/h
1055 03-03-2010 18:58:02 4.8 C 2.15 g/m*3 4.8 C 0 km/h
1056 03-03-2010 19:10:02 4.6 C 2.12 g/m*3 4.6 C 0 km/h
1057 03-03-2010 19:22:02 4.4 C 2.15 g/m*3 4.4 C 0 km/h
1058 03-03-2010 19:34:02 4.2 C 2.19 g/m*3 4.2 C 0 km/h
1059 03-03-2010 19:46:02 4.1 C 2.24 g/m*3 4.1 C 0 km/h
1060 03-03-2010 19:58:02 3.9 C 2.46 g/m*3 3.9 C 0 km/h
1061 03-03-2010 20:10:02 3.7 C 2.49 g/m*3 3.7 C 0 km/h
1062 03-03-2010 20:22:02 3.7 C 2.49 g/m*3 3.7 C 0 km/h
1063 03-03-2010 20:34:02 3.6 C 2.54 g/m*3 3.6 C 0 km/h
1064 03-03-2010 20:46:01 3.4 C 2.57 g/m*3 3.4 C 0 km/h
1065 03-03-2010 20:58:01 3.3 C 2.55 g/m*3 3.3 C 0 km/h
1066 03-03-2010 21:10:02 3.2 C 2.59 g/m*3 3.2 C 0 km/h
1067 03-03-2010 21:22:01 3 C 2.62 g/m*3 3 C 0 km/h
1068 03-03-2010 21:34:02 3 C 2.68 g/m*3 3 C 0 km/h
1069 03-03-2010 21:46:02 2.9 C 2.72 g/m*3 2.9 C 0 km/h
1070 03-03-2010 21:58:02 2.8 C 2.76 g/m*3 2.8 C 0 km/h
1071 03-03-2010 22:11:02 2.7 C 2.8 g/m*3 2.7 C 0 km/h
1072 03-03-2010 22:23:02 2.6 C 2.84 g/m*3 2.6 C 0 km/h
1073 03-03-2010 22:35:02 2.5 C 2.82 g/m*3 2.5 C 0 km/h
1074 03-03-2010 22:47:03 2.4 C 2.8 g/m*3 2.4 C 0 km/h
1075 03-03-2010 22:59:03 2.2 C 2.82 g/m*3 2.2 C 0 km/h
Sensor: Nr:Datum:Temp:Abs-Feuchte:Windchill:Wind:
Aussen-T/F 1076 03-03-2010 23:11:03 1.9 C 2.87 g/m*3 1.9 C 0 km/h
1077 03-03-2010 23:23:03 1.7 C 2.89 g/m*3 1.7 C 0 km/h
1078 03-03-2010 23:35:03 1.6 C 2.92 g/m*3 1.6 C 0 km/h
1079 03-03-2010 23:47:03 1.5 C 2.95 g/m*3 1.5 C 0 km/h
1080 03-03-2010 23:59:03 1.4 C 2.93 g/m*3 1.4 C 0 km/h
1081 04-03-2010 00:11:03 1.3 C 2.97 g/m*3 1.3 C 0 km/h
1082 04-03-2010 00:23:03 1.2 C 2.89 g/m*3 1.2 C 0 km/h
1083 04-03-2010 00:35:03 1.2 C 2.89 g/m*3 1.2 C 0 km/h
1084 04-03-2010 00:47:03 1.2 C 2.89 g/m*3 1.2 C 0 km/h
1085 04-03-2010 00:59:03 1.3 C 2.91 g/m*3 1.3 C 0 km/h
1086 04-03-2010 01:11:03 1.3 C 2.91 g/m*3 1.3 C 0 km/h
1087 04-03-2010 01:23:03 1.2 C 2.89 g/m*3 1.2 C 0 km/h
1088 04-03-2010 01:35:03 1.1 C 2.87 g/m*3 1.1 C 0 km/h
1089 04-03-2010 01:47:03 1.2 C 2.89 g/m*3 1.2 C 0 km/h
1090 04-03-2010 01:59:03 1 C 2.85 g/m*3 1 C 0 km/h
1091 04-03-2010 02:11:03 0.8 C 2.92 g/m*3 0.8 C 0 km/h
1092 04-03-2010 02:23:03 0.5 C 2.96 g/m*3 0.5 C 0 km/h
1093 04-03-2010 02:35:03 0.2 C 2.95 g/m*3 0.2 C 0 km/h
1094 04-03-2010 02:47:03 0.1 C 2.98 g/m*3 0.1 C 0 km/h
1095 04-03-2010 02:59:04 0 C 2.96 g/m*3 0 C 0 km/h
1096 04-03-2010 03:11:04 -0.2 C 2.96 g/m*3 -0.2 C 0 km/h
1097 04-03-2010 03:23:04 -0.4 C 2.87 g/m*3 -0.4 C 0 km/h
1098 04-03-2010 03:35:04 -0.6 C 2.88 g/m*3 -0.6 C 0 km/h
1099 04-03-2010 03:47:04 -0.7 C 2.86 g/m*3 -0.7 C 0 km/h
1100 04-03-2010 03:59:04 -0.8 C 2.89 g/m*3 -0.8 C 0 km/h
Sensor: Nr:Datum:Temp:Abs-Feuchte:Windchill:Wind:
Aussen-T/F 1101 04-03-2010 04:11:04 -0.9 C 2.87 g/m*3 -0.9 C 0 km/h
1102 04-03-2010 04:23:04 -0.7 C 2.95 g/m*3 -0.7 C 0 km/h
1103 04-03-2010 04:35:04 -0.7 C 2.91 g/m*3 -0.7 C 0 km/h
1104 04-03-2010 04:47:04 -0.7 C 2.95 g/m*3 -0.7 C 0 km/h
1105 04-03-2010 04:59:04 -0.8 C 2.89 g/m*3 -0.8 C 0 km/h
1106 04-03-2010 05:11:04 -0.7 C 2.95 g/m*3 -0.7 C 0 km/h
1107 04-03-2010 05:23:04 -0.8 C 2.93 g/m*3 -0.8 C 0 km/h
1108 04-03-2010 05:35:04 -0.9 C 2.96 g/m*3 -0.9 C 0 km/h
1109 04-03-2010 05:47:04 -0.7 C 3 g/m*3 -0.7 C 0 km/h
1110 04-03-2010 05:59:04 -1 C 2.94 g/m*3 -1 C 0 km/h
1111 04-03-2010 06:11:04 -1 C 2.98 g/m*3 -1 C 0 km/h
1112 04-03-2010 06:23:04 -1.1 C 2.96 g/m*3 -1.1 C 0 km/h
1113 04-03-2010 06:35:04 -1.3 C 2.92 g/m*3 -1.3 C 0 km/h
1114 04-03-2010 06:47:04 -1.4 C 2.95 g/m*3 -1.4 C 0 km/h
1115 04-03-2010 06:59:04 -1.4 C 2.99 g/m*3 -1.4 C 0 km/h
1116 04-03-2010 07:11:01 -1.4 C 3.03 g/m*3 -1.4 C 0 km/h
1117 04-03-2010 07:23:02 -1.3 C 3.05 g/m*3 -1.3 C 0 km/h
1118 04-03-2010 07:35:02 -1.3 C 3.01 g/m*3 -1.3 C 0 km/h
1119 04-03-2010 07:47:01 -1.2 C 3.08 g/m*3 -1.2 C 0 km/h
1120 04-03-2010 07:59:01 -1.1 C 3.1 g/m*3 -1.1 C 0 km/h
1121 04-03-2010 08:11:02 -1.1 C 3.1 g/m*3 -1.1 C 0 km/h
1122 04-03-2010 08:23:01 -1 C 3.12 g/m*3 -1 C 0 km/h
1123 04-03-2010 08:35:01 -1.1 C 3.1 g/m*3 -1.1 C 0 km/h
1124 04-03-2010 08:47:02 -1.1 C 3.1 g/m*3 -1.1 C 0 km/h
1125 04-03-2010 08:59:02 -1 C 3.16 g/m*3 -1 C 0 km/h
Sensor: Nr:Datum:Temp:Abs-Feuchte:Windchill:Wind:
Aussen-T/F 1126 04-03-2010 09:11:02 -0.5 C 3.23 g/m*3 -0.5 C 0 km/h
1127 04-03-2010 09:23:02 0 C 3.29 g/m*3 0 C 0 km/h
1128 04-03-2010 09:35:01 0.2 C 3.24 g/m*3 0.2 C 0 km/h
1129 04-03-2010 09:47:02 0.5 C 3.26 g/m*3 0.5 C 0 km/h
1130 04-03-2010 09:59:02 1.3 C 3.34 g/m*3 1.3 C 0 km/h
1131 04-03-2010 10:11:01 2 C 3.28 g/m*3 2 C 0 km/h
1132 04-03-2010 10:23:02 3 C 3.21 g/m*3 3 C 0 km/h
1133 04-03-2010 10:35:02 3.6 C 2.85 g/m*3 3.6 C 0 km/h
1134 04-03-2010 10:47:02 3.4 C 2.63 g/m*3 3.4 C 0 km/h
1135 04-03-2010 10:59:03 3.9 C 2.59 g/m*3 3.9 C 0 km/h
1136 04-03-2010 11:11:01 3.8 C 2.45 g/m*3 3.8 C 0 km/h
1137 04-03-2010 11:23:02 4.1 C 2.24 g/m*3 4.1 C 0 km/h
1138 04-03-2010 11:35:02 4.4 C 2.35 g/m*3 4.4 C 0 km/h
1139 04-03-2010 11:47:01 4.6 C 2.32 g/m*3 4.6 C 0 km/h
1140 04-03-2010 11:59:01 4.3 C 2.08 g/m*3 4.3 C 0 km/h
1141 04-03-2010 12:11:02 4.2 C 2.19 g/m*3 4.2 C 0 km/h
1142 04-03-2010 12:23:01 4.5 C 2.3 g/m*3 4.5 C 0 km/h
1143 04-03-2010 12:35:01 4.8 C 2.28 g/m*3 4.8 C 0 km/h
1144 04-03-2010 12:47:02 4.8 C 2.08 g/m*3 4.8 C 0 km/h
1145 04-03-2010 12:59:02 5.8 C 2.08 g/m*3 5.8 C 0 km/h
1146 04-03-2010 13:11:02 6.3 C 1.92 g/m*3 6.3 C 0 km/h
1147 04-03-2010 13:23:01 6.8 C 1.53 g/m*3 6.8 C 0 km/h
1148 04-03-2010 13:35:02 7.1 C 1.56 g/m*3 7.1 C 0 km/h
1149 04-03-2010 13:47:02 6.9 C 1.54 g/m*3 6.9 C 0 km/h
1150 04-03-2010 13:59:02 7.1 C 1.56 g/m*3 7.1 C 0 km/h
Sensor: Nr:Datum:Temp:Abs-Feuchte:Windchill:Wind:
Aussen-T/F 1151 04-03-2010 14:11:02 7.9 C 1.64 g/m*3 7.9 C 0 km/h
1152 04-03-2010 14:23:01 8.2 C 1.67 g/m*3 8.2 C 0 km/h
1153 04-03-2010 14:35:02 9 C 1.76 g/m*3 9 C 0 km/h
1154 04-03-2010 14:47:02 8.9 C 1.75 g/m*3 8.9 C 0 km/h
1155 04-03-2010 14:59:02 9.2 C 1.79 g/m*3 9.2 C 0 km/h
1156 04-03-2010 15:11:02 9.2 C 1.79 g/m*3 9.2 C 0 km/h
1157 04-03-2010 15:23:01 9.3 C 1.8 g/m*3 9.3 C 0 km/h
1158 04-03-2010 15:35:02 8.2 C 1.67 g/m*3 8.2 C 0 km/h
1159 04-03-2010 15:47:02 8.9 C 1.75 g/m*3 8.9 C 0 km/h
1160 04-03-2010 15:59:02 9.2 C 1.79 g/m*3 9.2 C 0 km/h
1161 04-03-2010 16:11:02 9.4 C 1.81 g/m*3 9.4 C 0 km/h
1162 04-03-2010 16:23:01 9.3 C 1.8 g/m*3 9.3 C 0 km/h
1163 04-03-2010 16:35:02 9.1 C 1.77 g/m*3 9.1 C 0 km/h
1164 04-03-2010 16:47:01 9 C 1.76 g/m*3 9 C 0 km/h
1165 04-03-2010 16:59:01 8.5 C 1.71 g/m*3 8.5 C 0 km/h
1166 04-03-2010 17:11:02 8.3 C 1.69 g/m*3 8.3 C 0 km/h
1167 04-03-2010 17:23:02 7.7 C 1.62 g/m*3 7.7 C 0 km/h
1168 04-03-2010 17:35:01 7.3 C 1.58 g/m*3 7.3 C 0 km/h
1169 04-03-2010 17:47:02 6.9 C 1.54 g/m*3 6.9 C 0 km/h
1170 04-03-2010 17:59:02 5.7 C 1.42 g/m*3 5.7 C 0 km/h
1171 04-03-2010 18:11:01 4.9 C 1.42 g/m*3 4.9 C 0 km/h
1172 04-03-2010 18:23:02 4.3 C 1.62 g/m*3 4.3 C 0 km/h
1173 04-03-2010 18:35:01 4 C 1.78 g/m*3 4 C 0 km/h
1174 04-03-2010 18:47:02 3.5 C 1.91 g/m*3 3.5 C 0 km/h
1175 04-03-2010 18:59:02 3.2 C 1.93 g/m*3 3.2 C 0 km/h
Sensor: Nr:Datum:Temp:Abs-Feuchte:Windchill:Wind:
Aussen-T/F 1176 04-03-2010 19:11:02 3 C 2.08 g/m*3 3 C 0 km/h
1177 04-03-2010 19:23:02 2.6 C 2.14 g/m*3 2.6 C 0 km/h
1178 04-03-2010 19:35:02 2.2 C 2.25 g/m*3 2.2 C 0 km/h
1179 04-03-2010 19:47:01 1.9 C 2.32 g/m*3 1.9 C 0 km/h
1180 04-03-2010 19:59:01 1.6 C 2.33 g/m*3 1.6 C 0 km/h
1181 04-03-2010 20:11:02 1.5 C 2.36 g/m*3 1.5 C 0 km/h
1182 04-03-2010 20:23:02 1.4 C 2.35 g/m*3 1.4 C 0 km/h
1183 04-03-2010 20:35:01 1.3 C 2.38 g/m*3 1.3 C 0 km/h
1184 04-03-2010 20:47:02 1.1 C 2.35 g/m*3 1.1 C 0 km/h
1185 04-03-2010 20:59:02 1.1 C 2.51 g/m*3 1.1 C 0 km/h
1186 04-03-2010 21:11:02 1.1 C 2.51 g/m*3 1.1 C 0 km/h
1187 04-03-2010 21:23:01 1.1 C 2.51 g/m*3 1.1 C 0 km/h
1188 04-03-2010 21:35:02 0.8 C 2.56 g/m*3 0.8 C 0 km/h
1189 04-03-2010 21:47:02 0.6 C 2.58 g/m*3 0.6 C 0 km/h
1190 04-03-2010 21:59:02 0.7 C 2.59 g/m*3 0.7 C 0 km/h
1191 04-03-2010 22:11:02 0.9 C 2.68 g/m*3 0.9 C 0 km/h
1192 04-03-2010 22:24:03 0.7 C 2.64 g/m*3 0.7 C 0 km/h
1193 04-03-2010 22:36:03 0.3 C 2.57 g/m*3 0.3 C 0 km/h
1194 04-03-2010 22:48:03 0.1 C 2.63 g/m*3 0.1 C 0 km/h
1195 04-03-2010 23:00:03 0 C 2.62 g/m*3 0 C 0 km/h
1196 04-03-2010 23:12:03 -0.1 C 2.6 g/m*3 -0.1 C 0 km/h
1197 04-03-2010 23:24:03 -0.2 C 2.53 g/m*3 -0.2 C 0 km/h
1198 04-03-2010 23:36:03 -0.2 C 2.53 g/m*3 -0.2 C 0 km/h
1199 04-03-2010 23:48:03 -0.3 C 2.56 g/m*3 -0.3 C 0 km/h
1200 05-03-2010 00:00:03 -0.4 C 2.5 g/m*3 -0.4 C 0 km/h
Sensor: Nr:Datum:Temp:Abs-Feuchte:Windchill:Wind:
Aussen-T/F 1201 05-03-2010 00:12:03 -0.5 C 2.53 g/m*3 -0.5 C 0 km/h
1202 05-03-2010 00:24:03 -0.7 C 2.49 g/m*3 -0.7 C 0 km/h
1203 05-03-2010 00:36:03 -1 C 2.49 g/m*3 -1 C 0 km/h
1204 05-03-2010 00:48:03 -1.1 C 2.47 g/m*3 -1.1 C 0 km/h
1205 05-03-2010 01:00:03 -1.3 C 2.43 g/m*3 -1.3 C 0 km/h
1206 05-03-2010 01:12:03 -1.4 C 2.46 g/m*3 -1.4 C 0 km/h
1207 05-03-2010 01:24:03 -1.6 C 2.43 g/m*3 -1.6 C 0 km/h
1208 05-03-2010 01:36:04 -1.5 C 2.44 g/m*3 -1.5 C 0 km/h
1209 05-03-2010 01:48:04 -1.5 C 2.4 g/m*3 -1.5 C 0 km/h
1210 05-03-2010 02:00:04 -1.6 C 2.38 g/m*3 -1.6 C 0 km/h
1211 05-03-2010 02:12:04 -1.4 C 2.37 g/m*3 -1.4 C 0 km/h
1212 05-03-2010 02:24:04 -1.3 C 2.26 g/m*3 -1.3 C 0 km/h
1213 05-03-2010 02:36:04 -1.5 C 2.18 g/m*3 -1.5 C 0 km/h
1214 05-03-2010 02:48:04 -1.7 C 2.15 g/m*3 -1.7 C 0 km/h
1215 05-03-2010 03:00:04 -1.7 C 2.11 g/m*3 -1.7 C 0 km/h
1216 05-03-2010 03:12:04 -1.9 C 2.04 g/m*3 -1.9 C 0 km/h
1217 05-03-2010 03:24:04 -2 C 2.11 g/m*3 -2 C 0 km/h
1218 05-03-2010 03:36:04 -1.9 C 2.16 g/m*3 -1.9 C 0 km/h
1219 05-03-2010 03:48:04 -1.9 C 2.16 g/m*3 -1.9 C 0 km/h
1220 05-03-2010 04:00:04 -1.9 C 2.21 g/m*3 -1.9 C 0 km/h
1221 05-03-2010 04:12:04 -2.1 C 2.18 g/m*3 -2.1 C 0 km/h
1222 05-03-2010 04:24:04 -2.3 C 2.19 g/m*3 -2.3 C 0 km/h
1223 05-03-2010 04:36:04 -2.4 C 2.21 g/m*3 -2.4 C 0 km/h
1224 05-03-2010 04:48:04 -2.4 C 2.25 g/m*3 -2.4 C 0 km/h
1225 05-03-2010 05:00:04 -2.5 C 2.28 g/m*3 -2.5 C 0 km/h
Sensor: Nr:Datum:Temp:Abs-Feuchte:Windchill:Wind:
Aussen-T/F 1226 05-03-2010 05:12:04 -2.6 C 2.3 g/m*3 -2.6 C 0 km/h
1227 05-03-2010 05:24:04 -2.6 C 2.38 g/m*3 -2.6 C 0 km/h
1228 05-03-2010 05:36:04 -2.8 C 2.43 g/m*3 -2.8 C 0 km/h
1229 05-03-2010 05:48:05 -2.3 C 2.64 g/m*3 -2.3 C 0 km/h
1230 05-03-2010 06:00:05 -1.9 C 2.67 g/m*3 -1.9 C 0 km/h
1231 05-03-2010 06:12:05 -2 C 2.7 g/m*3 -2 C 0 km/h
1232 05-03-2010 06:24:05 -2.4 C 2.62 g/m*3 -2.4 C 0 km/h
1233 05-03-2010 06:36:05 -2.6 C 2.63 g/m*3 -2.6 C 0 km/h
1234 05-03-2010 06:48:05 -2.8 C 2.63 g/m*3 -2.8 C 0 km/h
1235 05-03-2010 07:00:05 -2.9 C 2.65 g/m*3 -2.9 C 0 km/h
1236 05-03-2010 07:12:02 -2.9 C 2.69 g/m*3 -2.9 C 0 km/h
1237 05-03-2010 07:24:03 -2.8 C 2.71 g/m*3 -2.8 C 0 km/h
1238 05-03-2010 07:36:02 -2.7 C 2.77 g/m*3 -2.7 C 0 km/h
1239 05-03-2010 07:48:02 -2.9 C 2.69 g/m*3 -2.9 C 0 km/h
1240 05-03-2010 08:00:02 -2.9 C 2.73 g/m*3 -2.9 C 0 km/h
1241 05-03-2010 08:12:02 -2.8 C 2.75 g/m*3 -2.8 C 0 km/h
1242 05-03-2010 08:24:03 -2.8 C 2.75 g/m*3 -2.8 C 0 km/h
1243 05-03-2010 08:36:02 -2.6 C 2.83 g/m*3 -2.6 C 0 km/h
1244 05-03-2010 08:48:01 -2.6 C 2.79 g/m*3 -2.6 C 0 km/h
1245 05-03-2010 09:00:01 -2.5 C 2.77 g/m*3 -2.5 C 0 km/h
1246 05-03-2010 09:12:02 -2.3 C 2.72 g/m*3 -2.3 C 0 km/h
1247 05-03-2010 09:24:01 -2 C 2.66 g/m*3 -2 C 0 km/h
1248 05-03-2010 09:36:02 -1.8 C 2.48 g/m*3 -1.8 C 0 km/h
1249 05-03-2010 09:48:02 -1.4 C 2.46 g/m*3 -1.4 C 0 km/h
1250 05-03-2010 10:00:02 -1 C 2.49 g/m*3 -1 C 0 km/h
Sensor: Nr:Datum:Temp:Abs-Feuchte:Windchill:Wind:
Aussen-T/F 1251 05-03-2010 10:12:02 -0.5 C 2.53 g/m*3 -0.5 C 0 km/h
1252 05-03-2010 10:24:02 0.4 C 2.54 g/m*3 0.4 C 0 km/h
1253 05-03-2010 10:36:02 0.9 C 2.06 g/m*3 0.9 C 0 km/h
1254 05-03-2010 10:48:02 1.4 C 1.92 g/m*3 1.4 C 0 km/h
1255 05-03-2010 11:00:02 1.8 C 1.97 g/m*3 1.8 C 0 km/h
1256 05-03-2010 11:12:02 2.1 C 2.01 g/m*3 2.1 C 0 km/h
1257 05-03-2010 11:24:02 2.1 C 1.96 g/m*3 2.1 C 0 km/h
1258 05-03-2010 11:36:02 2.2 C 1.52 g/m*3 2.2 C 0 km/h
1259 05-03-2010 11:48:01 2.5 C 1.21 g/m*3 2.5 C 0 km/h
1260 05-03-2010 12:00:01 3.5 C 1.54 g/m*3 3.5 C 0 km/h
1261 05-03-2010 12:12:02 2.5 C 1.21 g/m*3 2.5 C 0 km/h
1262 05-03-2010 12:24:01 2.7 C 1.34 g/m*3 2.7 C 0 km/h
1263 05-03-2010 12:36:01 3 C 1.19 g/m*3 3 C 0 km/h
1264 05-03-2010 12:48:01 3.6 C 1.24 g/m*3 3.6 C 0 km/h
1265 05-03-2010 13:00:01 3.5 C 1.23 g/m*3 3.5 C 0 km/h
1266 05-03-2010 13:12:02 3.3 C 1.21 g/m*3 3.3 C 0 km/h
1267 05-03-2010 13:24:01 3.5 C 1.23 g/m*3 3.5 C 0 km/h
1268 05-03-2010 13:36:01 3.2 C 1.21 g/m*3 3.2 C 0 km/h
1269 05-03-2010 13:48:01 3.2 C 1.51 g/m*3 3.2 C 0 km/h
1270 05-03-2010 14:00:01 3.1 C 1.26 g/m*3 3.1 C 0 km/h
1271 05-03-2010 14:12:02 3.6 C 1.3 g/m*3 3.6 C 0 km/h
1272 05-03-2010 14:24:02 4 C 1.27 g/m*3 4 C 0 km/h
1273 05-03-2010 14:36:01 3.7 C 1.25 g/m*3 3.7 C 0 km/h
1274 05-03-2010 14:48:01 4 C 1.34 g/m*3 4 C 0 km/h
1275 05-03-2010 15:00:01 4.5 C 1.38 g/m*3 4.5 C 0 km/h
Sensor: Nr:Datum:Temp:Abs-Feuchte:Windchill:Wind:
Aussen-T/F 1276 05-03-2010 15:12:02 5.2 C 1.58 g/m*3 5.2 C 0 km/h
1277 05-03-2010 15:24:02 4.8 C 1.41 g/m*3 4.8 C 0 km/h
1278 05-03-2010 15:36:01 5.5 C 1.47 g/m*3 5.5 C 0 km/h
1279 05-03-2010 15:48:01 6 C 1.45 g/m*3 6 C 0 km/h
1280 05-03-2010 16:00:01 5.4 C 1.4 g/m*3 5.4 C 0 km/h
1281 05-03-2010 16:12:01 4.9 C 1.35 g/m*3 4.9 C 0 km/h
1282 05-03-2010 16:24:02 4.8 C 1.34 g/m*3 4.8 C 0 km/h
1283 05-03-2010 16:36:01 4.5 C 1.38 g/m*3 4.5 C 0 km/h
1284 05-03-2010 16:48:02 4.4 C 1.63 g/m*3 4.4 C 0 km/h
1285 05-03-2010 17:00:02 4.4 C 1.7 g/m*3 4.4 C 0 km/h
1286 05-03-2010 17:12:01 4.3 C 1.49 g/m*3 4.3 C 0 km/h
1287 05-03-2010 17:24:02 4.2 C 1.48 g/m*3 4.2 C 0 km/h
1288 05-03-2010 17:36:01 4 C 1.46 g/m*3 4 C 0 km/h
1289 05-03-2010 17:48:03 3.8 C 1.44 g/m*3 3.8 C 0 km/h
1290 05-03-2010 18:00:03 3.8 C 1.57 g/m*3 3.8 C 0 km/h
1291 05-03-2010 18:12:02 3.5 C 1.66 g/m*3 3.5 C 0 km/h
1292 05-03-2010 18:24:02 3.3 C 1.82 g/m*3 3.3 C 0 km/h
1293 05-03-2010 18:36:02 3.2 C 1.99 g/m*3 3.2 C 0 km/h
1294 05-03-2010 18:48:02 3.1 C 2.21 g/m*3 3.1 C 0 km/h
1295 05-03-2010 19:00:02 3 C 2.32 g/m*3 3 C 0 km/h
1296 05-03-2010 19:12:02 2.9 C 2.42 g/m*3 2.9 C 0 km/h
1297 05-03-2010 19:24:02 2.8 C 2.46 g/m*3 2.8 C 0 km/h
1298 05-03-2010 19:36:02 2.7 C 2.56 g/m*3 2.7 C 0 km/h
1299 05-03-2010 19:48:02 2.6 C 2.66 g/m*3 2.6 C 0 km/h
1300 05-03-2010 20:00:02 2.5 C 2.7 g/m*3 2.5 C 0 km/h
Sensor: Nr:Datum:Temp:Abs-Feuchte:Windchill:Wind:
Aussen-T/F 1301 05-03-2010 20:12:01 2.5 C 2.76 g/m*3 2.5 C 0 km/h
1302 05-03-2010 20:24:02 2.4 C 2.8 g/m*3 2.4 C 0 km/h
1303 05-03-2010 20:36:01 2.5 C 2.82 g/m*3 2.5 C 0 km/h
1304 05-03-2010 20:48:02 2.5 C 2.82 g/m*3 2.5 C 0 km/h
1305 05-03-2010 21:00:02 2.5 C 2.82 g/m*3 2.5 C 0 km/h
1306 05-03-2010 21:12:01 2.4 C 2.91 g/m*3 2.4 C 0 km/h
1307 05-03-2010 21:24:01 2.1 C 3.13 g/m*3 2.1 C 0 km/h
1308 05-03-2010 21:36:02 1.8 C 3.4 g/m*3 1.8 C 0 km/h
1309 05-03-2010 21:48:02 1.5 C 3.54 g/m*3 1.5 C 0 km/h
1310 05-03-2010 22:00:03 1.3 C 3.71 g/m*3 1.3 C 0 km/h
1311 05-03-2010 22:12:02 1 C 3.84 g/m*3 1 C 0 km/h
1312 05-03-2010 22:24:02 0.9 C 3.97 g/m*3 0.9 C 0 km/h
1313 05-03-2010 22:36:02 0.8 C 4.04 g/m*3 0.8 C 0 km/h
1314 05-03-2010 22:48:02 0.8 C 4.1 g/m*3 0.8 C 0 km/h
1315 05-03-2010 23:00:02 0.7 C 4.12 g/m*3 0.7 C 0 km/h
1316 05-03-2010 23:12:01 0.5 C 4.16 g/m*3 0.5 C 0 km/h
1317 05-03-2010 23:24:02 0.6 C 4.24 g/m*3 0.6 C 0 km/h
1318 05-03-2010 23:36:02 0.7 C 4.27 g/m*3 0.7 C 0 km/h
1319 05-03-2010 23:48:02 0.7 C 4.27 g/m*3 0.7 C 0 km/h
1320 06-03-2010 00:00:03 0.9 C 4.28 g/m*3 0.9 C 0 km/h
1321 06-03-2010 00:12:02 0.7 C 4.17 g/m*3 0.7 C 0 km/h
1322 06-03-2010 00:25:05 0.6 C 4.24 g/m*3 0.6 C 0 km/h
1323 06-03-2010 00:37:05 0.7 C 4.27 g/m*3 0.7 C 0 km/h
1324 06-03-2010 00:49:05 0.6 C 4.29 g/m*3 0.6 C 0 km/h
1325 06-03-2010 01:01:05 0.6 C 4.34 g/m*3 0.6 C 0 km/h
Sensor: Nr:Datum:Temp:Abs-Feuchte:Windchill:Wind:
Aussen-T/F 1326 06-03-2010 01:13:05 0.5 C 4.36 g/m*3 0.5 C 0 km/h
1327 06-03-2010 01:25:05 0.5 C 4.41 g/m*3 0.5 C 0 km/h
1328 06-03-2010 01:37:06 0.4 C 4.43 g/m*3 0.4 C 0 km/h
1329 06-03-2010 01:49:06 0.5 C 4.46 g/m*3 0.5 C 0 km/h
1330 06-03-2010 02:01:06 0.6 C 4.54 g/m*3 0.6 C 0 km/h
1331 06-03-2010 02:13:06 0.6 C 4.6 g/m*3 0.6 C 0 km/h
1332 06-03-2010 02:25:06 0.6 C 4.6 g/m*3 0.6 C 0 km/h
1333 06-03-2010 02:37:06 0.6 C 4.6 g/m*3 0.6 C 0 km/h
1334 06-03-2010 02:49:06 0.5 C 4.61 g/m*3 0.5 C 0 km/h
1335 06-03-2010 03:01:06 0.4 C 4.58 g/m*3 0.4 C 0 km/h
1336 06-03-2010 03:13:06 0.3 C 4.55 g/m*3 0.3 C 0 km/h
1337 06-03-2010 03:25:06 0.2 C 4.57 g/m*3 0.2 C 0 km/h
1338 06-03-2010 03:37:06 0.1 C 4.54 g/m*3 0.1 C 0 km/h
1339 06-03-2010 03:49:06 0 C 4.51 g/m*3 0 C 0 km/h
1340 06-03-2010 04:01:06 0 C 4.51 g/m*3 0 C 0 km/h
1341 06-03-2010 04:13:06 0 C 4.51 g/m*3 0 C 0 km/h
1342 06-03-2010 04:25:06 0 C 4.51 g/m*3 0 C 0 km/h
1343 06-03-2010 04:37:06 0 C 4.55 g/m*3 0 C 0 km/h
1344 06-03-2010 04:49:06 0 C 4.55 g/m*3 0 C 0 km/h
1345 06-03-2010 05:01:06 0 C 4.55 g/m*3 0 C 0 km/h
1346 06-03-2010 05:13:06 -0.1 C 4.47 g/m*3 -0.1 C 0 km/h
1347 06-03-2010 05:25:06 0 C 4.51 g/m*3 0 C 0 km/h
1348 06-03-2010 05:37:06 0 C 4.51 g/m*3 0 C 0 km/h
1349 06-03-2010 05:49:07 0 C 4.51 g/m*3 0 C 0 km/h
1350 06-03-2010 06:01:07 -0.1 C 4.43 g/m*3 -0.1 C 0 km/h
Sensor: Nr:Datum:Temp:Abs-Feuchte:Windchill:Wind:
Aussen-T/F 1351 06-03-2010 06:13:07 -0.2 C 4.4 g/m*3 -0.2 C 0 km/h
1352 06-03-2010 06:25:07 -0.2 C 4.3 g/m*3 -0.2 C 0 km/h
1353 06-03-2010 06:37:07 -0.2 C 4.21 g/m*3 -0.2 C 0 km/h
1354 06-03-2010 06:49:07 -0.1 C 4.14 g/m*3 -0.1 C 0 km/h
1355 06-03-2010 07:01:07 -0.1 C 4.09 g/m*3 -0.1 C 0 km/h
1356 06-03-2010 07:13:07 0 C 4.12 g/m*3 0 C 0 km/h
1357 06-03-2010 07:25:07 0 C 4.17 g/m*3 0 C 0 km/h
1358 06-03-2010 07:37:07 0 C 4.17 g/m*3 0 C 0 km/h
1359 06-03-2010 07:49:01 0 C 4.12 g/m*3 0 C 0 km/h
1360 06-03-2010 08:01:02 0.1 C 4.2 g/m*3 0.1 C 0 km/h
1361 06-03-2010 08:13:02 0.1 C 4.2 g/m*3 0.1 C 0 km/h
1362 06-03-2010 08:25:01 0.2 C 4.22 g/m*3 0.2 C 0 km/h
1363 06-03-2010 08:37:02 0.4 C 4.23 g/m*3 0.4 C 0 km/h
1364 06-03-2010 08:49:01 0.4 C 4.13 g/m*3 0.4 C 0 km/h
1365 06-03-2010 09:01:02 0.4 C 4.03 g/m*3 0.4 C 0 km/h
1366 06-03-2010 09:13:02 0.4 C 4.03 g/m*3 0.4 C 0 km/h
1367 06-03-2010 09:25:02 0.4 C 4.08 g/m*3 0.4 C 0 km/h
1368 06-03-2010 09:37:02 0.3 C 4.06 g/m*3 0.3 C 0 km/h
1369 06-03-2010 09:49:02 0.4 C 4.03 g/m*3 0.4 C 0 km/h
1370 06-03-2010 10:01:02 0.4 C 3.88 g/m*3 0.4 C 0 km/h
1371 06-03-2010 10:13:02 0.5 C 3.71 g/m*3 0.5 C 0 km/h
1372 06-03-2010 10:25:02 0.5 C 3.71 g/m*3 0.5 C 0 km/h
1373 06-03-2010 10:37:02 0.5 C 3.71 g/m*3 0.5 C 0 km/h
1374 06-03-2010 10:49:01 0.4 C 3.59 g/m*3 0.4 C 0 km/h
1375 06-03-2010 11:01:02 0.5 C 3.66 g/m*3 0.5 C 0 km/h
Sensor: Nr:Datum:Temp:Abs-Feuchte:Windchill:Wind:
Aussen-T/F 1376 06-03-2010 11:13:02 0.4 C 3.59 g/m*3 0.4 C 0 km/h
1377 06-03-2010 11:25:01 0.5 C 3.56 g/m*3 0.5 C 0 km/h
1378 06-03-2010 11:37:01 0.4 C 3.39 g/m*3 0.4 C 0 km/h
1379 06-03-2010 11:49:01 0.3 C 3.26 g/m*3 0.3 C 0 km/h
1380 06-03-2010 12:01:02 0.4 C 3.34 g/m*3 0.4 C 0 km/h
1381 06-03-2010 12:13:02 0.5 C 3.26 g/m*3 0.5 C 0 km/h
1382 06-03-2010 12:25:01 0.4 C 3.19 g/m*3 0.4 C 0 km/h
1383 06-03-2010 12:37:02 0.6 C 3.23 g/m*3 0.6 C 0 km/h
1384 06-03-2010 12:49:02 0.7 C 3.36 g/m*3 0.7 C 0 km/h
1385 06-03-2010 13:01:02 0.8 C 3.28 g/m*3 0.8 C 0 km/h
1386 06-03-2010 13:13:02 1.1 C 3.29 g/m*3 1.1 C 0 km/h
1387 06-03-2010 13:25:01 0.9 C 2.94 g/m*3 0.9 C 0 km/h
1388 06-03-2010 13:37:02 0.5 C 3.11 g/m*3 0.5 C 0 km/h
1389 06-03-2010 13:49:02 0.4 C 3.34 g/m*3 0.4 C 0 km/h
1390 06-03-2010 14:01:02 0.2 C 3.19 g/m*3 0.2 C 0 km/h
1391 06-03-2010 14:13:02 0.5 C 3.36 g/m*3 0.5 C 0 km/h
1392 06-03-2010 14:25:02 1 C 3.32 g/m*3 1 C 0 km/h
1393 06-03-2010 14:37:02 1.7 C 3.27 g/m*3 1.7 C 0 km/h
1394 06-03-2010 14:49:02 1.4 C 3.04 g/m*3 1.4 C 0 km/h
1395 06-03-2010 15:01:02 1.3 C 3.02 g/m*3 1.3 C 0 km/h
1396 06-03-2010 15:13:02 1.3 C 2.97 g/m*3 1.3 C 0 km/h
1397 06-03-2010 15:25:02 1.5 C 2.79 g/m*3 1.5 C 0 km/h
1398 06-03-2010 15:37:02 1.3 C 2.7 g/m*3 1.3 C 0 km/h
1399 06-03-2010 15:49:02 1.4 C 2.67 g/m*3 1.4 C 0 km/h
1400 06-03-2010 16:01:02 1.4 C 2.72 g/m*3 1.4 C 0 km/h
Sensor: Nr:Datum:Temp:Abs-Feuchte:Windchill:Wind:
Aussen-T/F 1401 06-03-2010 16:13:02 0.9 C 2.63 g/m*3 0.9 C 0 km/h
1402 06-03-2010 16:25:02 1 C 2.6 g/m*3 1 C 0 km/h
1403 06-03-2010 16:37:02 0.8 C 2.66 g/m*3 0.8 C 0 km/h
1404 06-03-2010 16:49:02 0.5 C 2.71 g/m*3 0.5 C 0 km/h
1405 06-03-2010 17:01:02 0.2 C 2.55 g/m*3 0.2 C 0 km/h
1406 06-03-2010 17:13:02 -0.2 C 2.25 g/m*3 -0.2 C 0 km/h
1407 06-03-2010 17:25:02 -0.5 C 2.15 g/m*3 -0.5 C 0 km/h
1408 06-03-2010 17:37:02 -0.6 C 2.14 g/m*3 -0.6 C 0 km/h
1409 06-03-2010 17:49:01 -1 C 2.08 g/m*3 -1 C 0 km/h
1410 06-03-2010 18:01:02 -1.4 C 2.02 g/m*3 -1.4 C 0 km/h
1411 06-03-2010 18:13:02 -1.6 C 2.08 g/m*3 -1.6 C 0 km/h
1412 06-03-2010 18:25:02 -1.8 C 2.05 g/m*3 -1.8 C 0 km/h
1413 06-03-2010 18:37:02 -1.9 C 2.08 g/m*3 -1.9 C 0 km/h
1414 06-03-2010 18:49:02 -1.8 C 2.05 g/m*3 -1.8 C 0 km/h
1415 06-03-2010 19:01:02 -2 C 2.11 g/m*3 -2 C 0 km/h
1416 06-03-2010 19:13:02 -2.3 C 2.1 g/m*3 -2.3 C 0 km/h
1417 06-03-2010 19:25:02 -2.5 C 2.2 g/m*3 -2.5 C 0 km/h
1418 06-03-2010 19:37:01 -2.6 C 2.22 g/m*3 -2.6 C 0 km/h
1419 06-03-2010 19:49:02 -2.7 C 2.21 g/m*3 -2.7 C 0 km/h
1420 06-03-2010 20:01:01 -2.7 C 2.21 g/m*3 -2.7 C 0 km/h
1421 06-03-2010 20:13:01 -2.8 C 2.15 g/m*3 -2.8 C 0 km/h
1422 06-03-2010 20:25:02 -3.1 C 2.15 g/m*3 -3.1 C 0 km/h
1423 06-03-2010 20:37:01 -3.4 C 2.25 g/m*3 -3.4 C 0 km/h
1424 06-03-2010 20:49:02 -3.6 C 2.3 g/m*3 -3.6 C 0 km/h
1425 06-03-2010 21:01:01 -3.8 C 2.3 g/m*3 -3.8 C 0 km/h
Sensor: Nr:Datum:Temp:Abs-Feuchte:Windchill:Wind:
Aussen-T/F 1426 06-03-2010 21:13:01 -4 C 2.34 g/m*3 -4 C 0 km/h
1427 06-03-2010 21:25:02 -4 C 2.38 g/m*3 -4 C 0 km/h
1428 06-03-2010 21:37:01 -4.2 C 2.38 g/m*3 -4.2 C 0 km/h
1429 06-03-2010 21:50:03 -4.2 C 2.42 g/m*3 -4.2 C 0 km/h
1430 06-03-2010 22:02:03 -4.3 C 2.43 g/m*3 -4.3 C 0 km/h
1431 06-03-2010 22:14:03 -4.2 C 2.49 g/m*3 -4.2 C 0 km/h
1432 06-03-2010 22:26:03 -4 C 2.52 g/m*3 -4 C 0 km/h
1433 06-03-2010 22:38:03 -3.7 C 2.58 g/m*3 -3.7 C 0 km/h
1434 06-03-2010 22:50:03 -3.4 C 2.6 g/m*3 -3.4 C 0 km/h
1435 06-03-2010 23:02:03 -3.4 C 2.6 g/m*3 -3.4 C 0 km/h
1436 06-03-2010 23:14:03 -3.3 C 2.58 g/m*3 -3.3 C 0 km/h
1437 06-03-2010 23:26:03 -3.3 C 2.58 g/m*3 -3.3 C 0 km/h
1438 06-03-2010 23:38:03 -3.5 C 2.5 g/m*3 -3.5 C 0 km/h
1439 06-03-2010 23:50:03 -3.8 C 2.45 g/m*3 -3.8 C 0 km/h
1440 07-03-2010 00:02:03 -4.2 C 2.42 g/m*3 -4.2 C 0 km/h
1441 07-03-2010 00:14:03 -4.4 C 2.42 g/m*3 -4.4 C 0 km/h
1442 07-03-2010 00:26:04 -4.5 C 2.4 g/m*3 -4.5 C 0 km/h
1443 07-03-2010 00:38:04 -4.7 C 2.4 g/m*3 -4.7 C 0 km/h
1444 07-03-2010 00:50:04 -4.6 C 2.42 g/m*3 -4.6 C 0 km/h
1445 07-03-2010 01:02:04 -4.4 C 2.49 g/m*3 -4.4 C 0 km/h
1446 07-03-2010 01:14:04 -4.3 C 2.47 g/m*3 -4.3 C 0 km/h
1447 07-03-2010 01:26:04 -4.4 C 2.45 g/m*3 -4.4 C 0 km/h
1448 07-03-2010 01:38:04 -4.5 C 2.44 g/m*3 -4.5 C 0 km/h
1449 07-03-2010 01:50:04 -4.4 C 2.45 g/m*3 -4.4 C 0 km/h
1450 07-03-2010 02:02:04 -4.4 C 2.49 g/m*3 -4.4 C 0 km/h
Sensor: Nr:Datum:Temp:Abs-Feuchte:Windchill:Wind:
Aussen-T/F 1451 07-03-2010 02:14:04 -4.4 C 2.49 g/m*3 -4.4 C 0 km/h
1452 07-03-2010 02:26:04 -4.6 C 2.45 g/m*3 -4.6 C 0 km/h
1453 07-03-2010 02:38:04 -4.4 C 2.52 g/m*3 -4.4 C 0 km/h
1454 07-03-2010 02:50:04 -4.5 C 2.51 g/m*3 -4.5 C 0 km/h
1455 07-03-2010 03:02:04 -4.6 C 2.49 g/m*3 -4.6 C 0 km/h
1456 07-03-2010 03:14:04 -4.8 C 2.45 g/m*3 -4.8 C 0 km/h
1457 07-03-2010 03:26:04 -5 C 2.45 g/m*3 -5 C 0 km/h
1458 07-03-2010 03:38:04 -5.1 C 2.43 g/m*3 -5.1 C 0 km/h
1459 07-03-2010 03:50:04 -5.2 C 2.45 g/m*3 -5.2 C 0 km/h
1460 07-03-2010 04:02:04 -5.3 C 2.43 g/m*3 -5.3 C 0 km/h
1461 07-03-2010 04:14:04 -5.1 C 2.5 g/m*3 -5.1 C 0 km/h
1462 07-03-2010 04:26:05 -4.9 C 2.54 g/m*3 -4.9 C 0 km/h
1463 07-03-2010 04:38:05 -4.6 C 2.63 g/m*3 -4.6 C 0 km/h
1464 07-03-2010 04:50:05 -4.6 C 2.63 g/m*3 -4.6 C 0 km/h
1465 07-03-2010 05:02:05 -4.8 C 2.56 g/m*3 -4.8 C 0 km/h
1466 07-03-2010 05:14:05 -5 C 2.52 g/m*3 -5 C 0 km/h
1467 07-03-2010 05:26:05 -5.2 C 2.48 g/m*3 -5.2 C 0 km/h
1468 07-03-2010 05:38:05 -5.3 C 2.47 g/m*3 -5.3 C 0 km/h
1469 07-03-2010 05:50:05 -5.3 C 2.47 g/m*3 -5.3 C 0 km/h
1470 07-03-2010 06:02:05 -5.6 C 2.41 g/m*3 -5.6 C 0 km/h
1471 07-03-2010 06:14:05 -5.8 C 2.38 g/m*3 -5.8 C 0 km/h
1472 07-03-2010 06:26:05 -5.8 C 2.41 g/m*3 -5.8 C 0 km/h
1473 07-03-2010 06:38:05 -5.9 C 2.42 g/m*3 -5.9 C 0 km/h
1474 07-03-2010 06:50:05 -6 C 2.41 g/m*3 -6 C 0 km/h
1475 07-03-2010 07:02:05 -6 C 2.44 g/m*3 -6 C 0 km/h
Sensor: Nr:Datum:Temp:Abs-Feuchte:Windchill:Wind:
Aussen-T/F 1476 07-03-2010 07:14:05 -6.1 C 2.42 g/m*3 -6.1 C 0 km/h
1477 07-03-2010 07:26:05 -6.1 C 2.42 g/m*3 -6.1 C 0 km/h
1478 07-03-2010 07:38:05 -6.4 C 2.34 g/m*3 -6.4 C 0 km/h
1479 07-03-2010 07:50:05 -6.5 C 2.32 g/m*3 -6.5 C 0 km/h
1480 07-03-2010 08:02:05 -6.5 C 2.32 g/m*3 -6.5 C 0 km/h
1481 07-03-2010 08:14:05 -6.4 C 2.34 g/m*3 -6.4 C 0 km/h
1482 07-03-2010 08:26:02 -6.2 C 2.4 g/m*3 -6.2 C 0 km/h
1483 07-03-2010 08:38:03 -5.7 C 2.49 g/m*3 -5.7 C 0 km/h
1484 07-03-2010 08:50:02 -5.3 C 2.57 g/m*3 -5.3 C 0 km/h
1485 07-03-2010 09:02:02 -5 C 2.59 g/m*3 -5 C 0 km/h
1486 07-03-2010 09:14:02 -4.6 C 2.63 g/m*3 -4.6 C 0 km/h
1487 07-03-2010 09:26:02 -4.1 C 2.65 g/m*3 -4.1 C 0 km/h
1488 07-03-2010 09:38:02 -3.5 C 2.65 g/m*3 -3.5 C 0 km/h
1489 07-03-2010 09:50:02 -3 C 2.59 g/m*3 -3 C 0 km/h
1490 07-03-2010 10:02:01 -2 C 2.66 g/m*3 -2 C 0 km/h
1491 07-03-2010 10:14:01 -1.4 C 2.51 g/m*3 -1.4 C 0 km/h
1492 07-03-2010 10:26:02 -1 C 2.4 g/m*3 -1 C 0 km/h
1493 07-03-2010 10:38:02 -1 C 2.35 g/m*3 -1 C 0 km/h
1494 07-03-2010 10:50:02 -1 C 2.31 g/m*3 -1 C 0 km/h
1495 07-03-2010 11:02:03 -0.7 C 2.35 g/m*3 -0.7 C 0 km/h
1496 07-03-2010 11:14:03 -0.5 C 2.29 g/m*3 -0.5 C 0 km/h
1497 07-03-2010 11:26:02 -0.5 C 2.2 g/m*3 -0.5 C 0 km/h
1498 07-03-2010 11:38:02 -0.4 C 2.22 g/m*3 -0.4 C 0 km/h
1499 07-03-2010 11:50:02 -0.1 C 2.26 g/m*3 -0.1 C 0 km/h
1500 07-03-2010 12:02:02 -0.2 C 2.15 g/m*3 -0.2 C 0 km/h
Sensor: Nr:Datum:Temp:Abs-Feuchte:Windchill:Wind:
Aussen-T/F 1501 07-03-2010 12:14:02 0 C 2.23 g/m*3 0 C 0 km/h
1502 07-03-2010 12:26:01 0.4 C 2.29 g/m*3 0.4 C 0 km/h
1503 07-03-2010 12:38:02 0.9 C 2.32 g/m*3 0.9 C 0 km/h
1504 07-03-2010 12:50:02 1.5 C 2.31 g/m*3 1.5 C 0 km/h
1505 07-03-2010 13:02:02 1.6 C 2.16 g/m*3 1.6 C 0 km/h
1506 07-03-2010 13:14:02 1.8 C 2.14 g/m*3 1.8 C 0 km/h
1507 07-03-2010 13:26:02 2.2 C 2.14 g/m*3 2.2 C 0 km/h
1508 07-03-2010 13:38:02 2.5 C 2.07 g/m*3 2.5 C 0 km/h
1509 07-03-2010 13:50:02 2.9 C 2.07 g/m*3 2.9 C 0 km/h
1510 07-03-2010 14:02:03 3 C 1.96 g/m*3 3 C 0 km/h
1511 07-03-2010 14:14:03 3.3 C 2.06 g/m*3 3.3 C 0 km/h
1512 07-03-2010 14:26:02 3.7 C 1.99 g/m*3 3.7 C 0 km/h
1513 07-03-2010 14:38:02 3.7 C 1.74 g/m*3 3.7 C 0 km/h
1514 07-03-2010 14:50:01 3.9 C 1.77 g/m*3 3.9 C 0 km/h
1515 07-03-2010 15:02:02 4.2 C 1.68 g/m*3 4.2 C 0 km/h
1516 07-03-2010 15:14:02 4.5 C 1.31 g/m*3 4.5 C 0 km/h
1517 07-03-2010 15:26:01 4.6 C 1.32 g/m*3 4.6 C 0 km/h
1518 07-03-2010 15:38:02 4.7 C 1.33 g/m*3 4.7 C 0 km/h
1519 07-03-2010 15:50:02 5 C 1.36 g/m*3 5 C 0 km/h
1520 07-03-2010 16:02:02 5.1 C 1.37 g/m*3 5.1 C 0 km/h
1521 07-03-2010 16:14:02 5.3 C 1.39 g/m*3 5.3 C 0 km/h
1522 07-03-2010 16:26:01 5.8 C 1.43 g/m*3 5.8 C 0 km/h
1523 07-03-2010 16:38:02 5.9 C 1.44 g/m*3 5.9 C 0 km/h
1524 07-03-2010 16:50:02 5.7 C 1.42 g/m*3 5.7 C 0 km/h
1525 07-03-2010 17:02:02 5.8 C 1.43 g/m*3 5.8 C 0 km/h
Sensor: Nr:Datum:Temp:Abs-Feuchte:Windchill:Wind:
Aussen-T/F 1526 07-03-2010 17:14:02 5.1 C 1.37 g/m*3 5.1 C 0 km/h
1527 07-03-2010 17:26:02 4.9 C 1.35 g/m*3 4.9 C 0 km/h
1528 07-03-2010 17:38:02 4.7 C 1.33 g/m*3 4.7 C 0 km/h
1529 07-03-2010 17:50:02 4.1 C 1.28 g/m*3 4.1 C 0 km/h
1530 07-03-2010 18:02:02 3.2 C 1.21 g/m*3 3.2 C 0 km/h
1531 07-03-2010 18:14:03 2.2 C 1.63 g/m*3 2.2 C 0 km/h
1532 07-03-2010 18:26:02 1.4 C 1.71 g/m*3 1.4 C 0 km/h
1533 07-03-2010 18:38:02 0.6 C 1.77 g/m*3 0.6 C 0 km/h
1534 07-03-2010 18:50:02 0.1 C 1.76 g/m*3 0.1 C 0 km/h
1535 07-03-2010 19:02:02 -0.2 C 1.77 g/m*3 -0.2 C 0 km/h
1536 07-03-2010 19:14:02 -0.4 C 1.74 g/m*3 -0.4 C 0 km/h
1537 07-03-2010 19:26:02 -0.6 C 1.81 g/m*3 -0.6 C 0 km/h
1538 07-03-2010 19:38:02 -0.7 C 1.85 g/m*3 -0.7 C 0 km/h
1539 07-03-2010 19:50:01 -1.2 C 1.87 g/m*3 -1.2 C 0 km/h
1540 07-03-2010 20:02:01 -1.4 C 1.89 g/m*3 -1.4 C 0 km/h
1541 07-03-2010 20:14:02 -1.5 C 1.83 g/m*3 -1.5 C 0 km/h
1542 07-03-2010 20:26:01 -1.7 C 1.89 g/m*3 -1.7 C 0 km/h
1543 07-03-2010 20:38:01 -1.9 C 1.95 g/m*3 -1.9 C 0 km/h
1544 07-03-2010 20:50:01 -2 C 2.02 g/m*3 -2 C 0 km/h
1545 07-03-2010 21:02:01 -2.3 C 2.02 g/m*3 -2.3 C 0 km/h
1546 07-03-2010 21:14:01 -2.4 C 2.01 g/m*3 -2.4 C 0 km/h
1547 07-03-2010 21:26:01 -2.5 C 1.95 g/m*3 -2.5 C 0 km/h
1548 07-03-2010 21:38:01 -2.5 C 1.83 g/m*3 -2.5 C 0 km/h
1549 07-03-2010 21:51:03 -2.5 C 1.87 g/m*3 -2.5 C 0 km/h
1550 07-03-2010 22:03:03 -2.6 C 1.82 g/m*3 -2.6 C 0 km/h
Sensor: Nr:Datum:Temp:Abs-Feuchte:Windchill:Wind:
Aussen-T/F 1551 07-03-2010 22:15:03 -2.8 C 1.79 g/m*3 -2.8 C 0 km/h
1552 07-03-2010 22:27:03 -2.8 C 1.83 g/m*3 -2.8 C 0 km/h
1553 07-03-2010 22:39:03 -3 C 1.85 g/m*3 -3 C 0 km/h
1554 07-03-2010 22:51:03 -3.2 C 1.9 g/m*3 -3.2 C 0 km/h
1555 07-03-2010 23:03:04 -3.3 C 1.96 g/m*3 -3.3 C 0 km/h
1556 07-03-2010 23:15:04 -3.4 C 1.95 g/m*3 -3.4 C 0 km/h
1557 07-03-2010 23:27:04 -3.4 C 1.91 g/m*3 -3.4 C 0 km/h
1558 07-03-2010 23:39:04 -3.4 C 1.83 g/m*3 -3.4 C 0 km/h
1559 07-03-2010 23:51:04 -3.7 C 1.76 g/m*3 -3.7 C 0 km/h
1560 08-03-2010 00:03:04 -3.9 C 1.81 g/m*3 -3.9 C 0 km/h
1561 08-03-2010 00:15:04 -4 C 1.83 g/m*3 -4 C 0 km/h
1562 08-03-2010 00:27:04 -4.2 C 1.77 g/m*3 -4.2 C 0 km/h
1563 08-03-2010 00:39:04 -4.3 C 1.79 g/m*3 -4.3 C 0 km/h
1564 08-03-2010 00:51:04 -4.5 C 1.8 g/m*3 -4.5 C 0 km/h
1565 08-03-2010 01:03:04 -4.5 C 1.76 g/m*3 -4.5 C 0 km/h
1566 08-03-2010 01:15:04 -4.6 C 1.75 g/m*3 -4.6 C 0 km/h
1567 08-03-2010 01:27:04 -4.6 C 1.75 g/m*3 -4.6 C 0 km/h
1568 08-03-2010 01:39:04 -4.7 C 1.7 g/m*3 -4.7 C 0 km/h
1569 08-03-2010 01:51:04 -4.8 C 1.73 g/m*3 -4.8 C 0 km/h
1570 08-03-2010 02:03:04 -5 C 1.7 g/m*3 -5 C 0 km/h
1571 08-03-2010 02:15:04 -4.9 C 1.68 g/m*3 -4.9 C 0 km/h
1572 08-03-2010 02:27:04 -5 C 1.6 g/m*3 -5 C 0 km/h
1573 08-03-2010 02:39:04 -4.7 C 1.53 g/m*3 -4.7 C 0 km/h
1574 08-03-2010 02:51:04 -5 C 1.63 g/m*3 -5 C 0 km/h
1575 08-03-2010 03:03:04 -5.3 C 1.7 g/m*3 -5.3 C 0 km/h
Sensor: Nr:Datum:Temp:Abs-Feuchte:Windchill:Wind:
Aussen-T/F 1576 08-03-2010 03:15:05 -5.8 C 1.67 g/m*3 -5.8 C 0 km/h
1577 08-03-2010 03:27:05 -5.9 C 1.72 g/m*3 -5.9 C 0 km/h
1578 08-03-2010 03:39:05 -5.8 C 1.74 g/m*3 -5.8 C 0 km/h
1579 08-03-2010 03:51:05 -6 C 1.71 g/m*3 -6 C 0 km/h
1580 08-03-2010 04:03:05 -6.1 C 1.73 g/m*3 -6.1 C 0 km/h
1581 08-03-2010 04:15:05 -6.1 C 1.73 g/m*3 -6.1 C 0 km/h
1582 08-03-2010 04:27:05 -6.4 C 1.72 g/m*3 -6.4 C 0 km/h
1583 08-03-2010 04:39:05 -6.4 C 1.75 g/m*3 -6.4 C 0 km/h
1584 08-03-2010 04:51:05 -6.6 C 1.73 g/m*3 -6.6 C 0 km/h
1585 08-03-2010 05:03:05 -6.6 C 1.73 g/m*3 -6.6 C 0 km/h
1586 08-03-2010 05:15:05 -6.8 C 1.73 g/m*3 -6.8 C 0 km/h
1587 08-03-2010 05:27:05 -6.9 C 1.75 g/m*3 -6.9 C 0 km/h
1588 08-03-2010 05:39:05 -7.1 C 1.72 g/m*3 -7.1 C 0 km/h
1589 08-03-2010 05:51:05 -7.2 C 1.74 g/m*3 -7.2 C 0 km/h
1590 08-03-2010 06:03:05 -7.3 C 1.76 g/m*3 -7.3 C 0 km/h
1591 08-03-2010 06:15:05 -7.3 C 1.76 g/m*3 -7.3 C 0 km/h
1592 08-03-2010 06:27:05 -7.3 C 1.76 g/m*3 -7.3 C 0 km/h
1593 08-03-2010 06:39:05 -7.2 C 1.83 g/m*3 -7.2 C 0 km/h
1594 08-03-2010 06:51:05 -7.4 C 1.83 g/m*3 -7.4 C 0 km/h
1595 08-03-2010 07:03:02 -7.4 C 1.83 g/m*3 -7.4 C 0 km/h
1596 08-03-2010 07:15:03 -7.5 C 1.82 g/m*3 -7.5 C 0 km/h
1597 08-03-2010 07:27:03 -7.3 C 1.9 g/m*3 -7.3 C 0 km/h
1598 08-03-2010 07:39:03 -7 C 1.97 g/m*3 -7 C 0 km/h
1599 08-03-2010 07:51:01 -6.5 C 2.05 g/m*3 -6.5 C 0 km/h
1600 08-03-2010 08:03:01 -6.1 C 2.11 g/m*3 -6.1 C 0 km/h
Sensor: Nr:Datum:Temp:Abs-Feuchte:Windchill:Wind:
Aussen-T/F 1601 08-03-2010 08:15:01 -5.8 C 2.09 g/m*3 -5.8 C 0 km/h
1602 08-03-2010 08:27:01 -5.3 C 2.1 g/m*3 -5.3 C 0 km/h
1603 08-03-2010 08:39:02 -5 C 2.08 g/m*3 -5 C 0 km/h
1604 08-03-2010 08:51:02 -4.5 C 2.12 g/m*3 -4.5 C 0 km/h
1605 08-03-2010 09:03:02 -4.2 C 2.02 g/m*3 -4.2 C 0 km/h
1606 08-03-2010 09:15:02 -3.7 C 2.06 g/m*3 -3.7 C 0 km/h
1607 08-03-2010 09:27:02 -3.1 C 2.15 g/m*3 -3.1 C 0 km/h
1608 08-03-2010 09:39:02 -2.5 C 2.12 g/m*3 -2.5 C 0 km/h
1609 08-03-2010 09:51:02 -2.1 C 2.01 g/m*3 -2.1 C 0 km/h
1610 08-03-2010 10:03:01 -1.7 C 2.02 g/m*3 -1.7 C 0 km/h
1611 08-03-2010 10:15:01 -1.3 C 1.99 g/m*3 -1.3 C 0 km/h
1612 08-03-2010 10:27:01 -0.6 C 1.95 g/m*3 -0.6 C 0 km/h
1613 08-03-2010 10:39:02 0 C 1.94 g/m*3 0 C 0 km/h
1614 08-03-2010 10:51:02 0.4 C 1.74 g/m*3 0.4 C 0 km/h
1615 08-03-2010 11:03:01 0.7 C 1.78 g/m*3 0.7 C 0 km/h
1616 08-03-2010 11:15:02 1.1 C 1.83 g/m*3 1.1 C 0 km/h
1617 08-03-2010 11:27:02 1.3 C 1.7 g/m*3 1.3 C 0 km/h
1618 08-03-2010 11:39:02 1.7 C 1.85 g/m*3 1.7 C 0 km/h
1619 08-03-2010 11:51:01 2.4 C 1.77 g/m*3 2.4 C 0 km/h
1620 08-03-2010 12:03:02 2.6 C 1.62 g/m*3 2.6 C 0 km/h
1621 08-03-2010 12:15:01 3.1 C 1.68 g/m*3 3.1 C 0 km/h
1622 08-03-2010 12:27:01 3.2 C 1.63 g/m*3 3.2 C 0 km/h
1623 08-03-2010 12:39:02 3.4 C 1.53 g/m*3 3.4 C 0 km/h
1624 08-03-2010 12:51:02 3.2 C 1.39 g/m*3 3.2 C 0 km/h
1625 08-03-2010 13:03:02 3.2 C 1.51 g/m*3 3.2 C 0 km/h
Sensor: Nr:Datum:Temp:Abs-Feuchte:Windchill:Wind:
Aussen-T/F 1626 08-03-2010 13:15:02 3.6 C 1.61 g/m*3 3.6 C 0 km/h
1627 08-03-2010 13:27:02 4.5 C 1.31 g/m*3 4.5 C 0 km/h
1628 08-03-2010 13:39:02 4.9 C 1.35 g/m*3 4.9 C 0 km/h
1629 08-03-2010 13:51:02 4.9 C 1.35 g/m*3 4.9 C 0 km/h
1630 08-03-2010 14:03:02 4.8 C 1.34 g/m*3 4.8 C 0 km/h
1631 08-03-2010 14:15:02 3.9 C 1.26 g/m*3 3.9 C 0 km/h
1632 08-03-2010 14:27:02 3.5 C 1.41 g/m*3 3.5 C 0 km/h
1633 08-03-2010 14:39:02 3.8 C 1.44 g/m*3 3.8 C 0 km/h
1634 08-03-2010 14:51:02 4.6 C 1.32 g/m*3 4.6 C 0 km/h
1635 08-03-2010 15:03:01 4.3 C 1.3 g/m*3 4.3 C 0 km/h
1636 08-03-2010 15:15:02 4.9 C 1.35 g/m*3 4.9 C 0 km/h
1637 08-03-2010 15:27:02 5.1 C 1.37 g/m*3 5.1 C 0 km/h
1638 08-03-2010 15:39:01 6.4 C 1.49 g/m*3 6.4 C 0 km/h
1639 08-03-2010 15:51:02 6.7 C 1.52 g/m*3 6.7 C 0 km/h
1640 08-03-2010 16:03:01 6.5 C 1.5 g/m*3 6.5 C 0 km/h
1641 08-03-2010 16:15:02 6.6 C 1.51 g/m*3 6.6 C 0 km/h
1642 08-03-2010 16:27:02 6.9 C 1.54 g/m*3 6.9 C 0 km/h
1643 08-03-2010 16:39:01 6.7 C 1.52 g/m*3 6.7 C 0 km/h
1644 08-03-2010 16:51:02 6.4 C 1.49 g/m*3 6.4 C 0 km/h
1645 08-03-2010 17:03:02 6.2 C 1.47 g/m*3 6.2 C 0 km/h
1646 08-03-2010 17:15:02 6.3 C 1.48 g/m*3 6.3 C 0 km/h
1647 08-03-2010 17:27:02 5.8 C 1.43 g/m*3 5.8 C 0 km/h
1648 08-03-2010 17:39:02 4.6 C 1.32 g/m*3 4.6 C 0 km/h
1649 08-03-2010 17:51:02 4.2 C 1.29 g/m*3 4.2 C 0 km/h
1650 08-03-2010 18:03:02 3.7 C 1.56 g/m*3 3.7 C 0 km/h
Sensor: Nr:Datum:Temp:Abs-Feuchte:Windchill:Wind:
Aussen-T/F 1651 08-03-2010 18:15:01 2.9 C 1.71 g/m*3 2.9 C 0 km/h
1652 08-03-2010 18:27:01 1.8 C 1.75 g/m*3 1.8 C 0 km/h
1653 08-03-2010 18:39:02 1.4 C 1.87 g/m*3 1.4 C 0 km/h
1654 08-03-2010 18:51:02 0.7 C 2.03 g/m*3 0.7 C 0 km/h
1655 08-03-2010 19:03:02 0.4 C 2.04 g/m*3 0.4 C 0 km/h
1656 08-03-2010 19:15:02 0.1 C 2.1 g/m*3 0.1 C 0 km/h
1657 08-03-2010 19:27:02 -0.2 C 2.15 g/m*3 -0.2 C 0 km/h
1658 08-03-2010 19:39:02 -0.3 C 2.04 g/m*3 -0.3 C 0 km/h
1659 08-03-2010 19:51:01 -0.3 C 1.99 g/m*3 -0.3 C 0 km/h
1660 08-03-2010 20:03:02 -0.6 C 2 g/m*3 -0.6 C 0 km/h
1661 08-03-2010 20:15:01 -0.7 C 2.08 g/m*3 -0.7 C 0 km/h
1662 08-03-2010 20:27:01 -1.1 C 2.11 g/m*3 -1.1 C 0 km/h
1663 08-03-2010 20:39:01 -1.2 C 2.1 g/m*3 -1.2 C 0 km/h
1664 08-03-2010 20:51:01 -1.4 C 2.15 g/m*3 -1.4 C 0 km/h
1665 08-03-2010 21:03:02 -1.4 C 2.15 g/m*3 -1.4 C 0 km/h
1666 08-03-2010 21:15:01 -1.5 C 2.18 g/m*3 -1.5 C 0 km/h
1667 08-03-2010 21:27:01 -1.3 C 2.26 g/m*3 -1.3 C 0 km/h
1668 08-03-2010 21:40:03 -1.3 C 2.26 g/m*3 -1.3 C 0 km/h
1669 08-03-2010 21:52:03 -1.2 C 2.32 g/m*3 -1.2 C 0 km/h
1670 08-03-2010 22:04:03 -1.2 C 2.36 g/m*3 -1.2 C 0 km/h
1671 08-03-2010 22:16:03 -1.2 C 2.32 g/m*3 -1.2 C 0 km/h
1672 08-03-2010 22:28:03 -1.1 C 2.24 g/m*3 -1.1 C 0 km/h
1673 08-03-2010 22:40:03 -0.9 C 2.09 g/m*3 -0.9 C 0 km/h
1674 08-03-2010 22:52:03 -1 C 2.08 g/m*3 -1 C 0 km/h
1675 08-03-2010 23:04:03 -1.4 C 2.07 g/m*3 -1.4 C 0 km/h
Sensor: Nr:Datum:Temp:Abs-Feuchte:Windchill:Wind:
Aussen-T/F 1676 08-03-2010 23:16:04 -1.8 C 2.05 g/m*3 -1.8 C 0 km/h
1677 08-03-2010 23:28:04 -1.9 C 2.04 g/m*3 -1.9 C 0 km/h
1678 08-03-2010 23:40:04 -1.9 C 2.08 g/m*3 -1.9 C 0 km/h
1679 08-03-2010 23:52:04 -2 C 2.11 g/m*3 -2 C 0 km/h
1680 09-03-2010 00:04:04 -2.1 C 2.13 g/m*3 -2.1 C 0 km/h
1681 09-03-2010 00:16:04 -2.2 C 2.12 g/m*3 -2.2 C 0 km/h
1682 09-03-2010 00:28:04 -2.4 C 2.09 g/m*3 -2.4 C 0 km/h
1683 09-03-2010 00:40:04 -2.4 C 2.09 g/m*3 -2.4 C 0 km/h
1684 09-03-2010 00:52:04 -2.6 C 2.14 g/m*3 -2.6 C 0 km/h
1685 09-03-2010 01:04:04 -2.8 C 2.15 g/m*3 -2.8 C 0 km/h
1686 09-03-2010 01:16:04 -3 C 2.2 g/m*3 -3 C 0 km/h
1687 09-03-2010 01:28:04 -3.1 C 2.22 g/m*3 -3.1 C 0 km/h
1688 09-03-2010 01:40:04 -3.2 C 2.21 g/m*3 -3.2 C 0 km/h
1689 09-03-2010 01:52:04 -3.3 C 2.19 g/m*3 -3.3 C 0 km/h
1690 09-03-2010 02:04:04 -3.4 C 2.18 g/m*3 -3.4 C 0 km/h
1691 09-03-2010 02:16:05 -3.4 C 2.21 g/m*3 -3.4 C 0 km/h
1692 09-03-2010 02:28:05 -3.3 C 2.23 g/m*3 -3.3 C 0 km/h
1693 09-03-2010 02:40:05 -3.3 C 2.23 g/m*3 -3.3 C 0 km/h
1694 09-03-2010 02:52:05 -3.5 C 2.24 g/m*3 -3.5 C 0 km/h
1695 09-03-2010 03:04:05 -3.7 C 2.24 g/m*3 -3.7 C 0 km/h
1696 09-03-2010 03:16:05 -3.8 C 2.23 g/m*3 -3.8 C 0 km/h
1697 09-03-2010 03:28:05 -3.9 C 2.25 g/m*3 -3.9 C 0 km/h
1698 09-03-2010 03:40:05 -4 C 2.27 g/m*3 -4 C 0 km/h
1699 09-03-2010 03:52:05 -4.1 C 2.29 g/m*3 -4.1 C 0 km/h
1700 09-03-2010 04:04:05 -4.2 C 2.27 g/m*3 -4.2 C 0 km/h
Sensor: Nr:Datum:Temp:Abs-Feuchte:Windchill:Wind:
Aussen-T/F 1701 09-03-2010 04:16:05 -4.3 C 2.29 g/m*3 -4.3 C 0 km/h
1702 09-03-2010 04:28:05 -4.5 C 2.22 g/m*3 -4.5 C 0 km/h
1703 09-03-2010 04:40:05 -4.5 C 2.19 g/m*3 -4.5 C 0 km/h
1704 09-03-2010 04:52:05 -4.5 C 2.19 g/m*3 -4.5 C 0 km/h
1705 09-03-2010 05:04:05 -4.6 C 2.17 g/m*3 -4.6 C 0 km/h
1706 09-03-2010 05:16:05 -4.7 C 2.16 g/m*3 -4.7 C 0 km/h
1707 09-03-2010 05:28:05 -4.8 C 2.14 g/m*3 -4.8 C 0 km/h
1708 09-03-2010 05:40:05 -4.9 C 2.16 g/m*3 -4.9 C 0 km/h
1709 09-03-2010 05:52:05 -4.9 C 2.16 g/m*3 -4.9 C 0 km/h
1710 09-03-2010 06:04:05 -4.8 C 2.14 g/m*3 -4.8 C 0 km/h
1711 09-03-2010 06:16:05 -4.8 C 2.14 g/m*3 -4.8 C 0 km/h
1712 09-03-2010 06:28:05 -4.9 C 2.13 g/m*3 -4.9 C 0 km/h
1713 09-03-2010 06:40:06 -5.2 C 2.08 g/m*3 -5.2 C 0 km/h
1714 09-03-2010 06:52:06 -5.3 C 2.07 g/m*3 -5.3 C 0 km/h
1715 09-03-2010 07:04:03 -5.6 C 2.05 g/m*3 -5.6 C 0 km/h
1716 09-03-2010 07:16:03 -5.6 C 2.09 g/m*3 -5.6 C 0 km/h
1717 09-03-2010 07:28:03 -5.4 C 2.15 g/m*3 -5.4 C 0 km/h
1718 09-03-2010 07:40:03 -5.3 C 2.17 g/m*3 -5.3 C 0 km/h
1719 09-03-2010 07:52:02 -5.3 C 2.17 g/m*3 -5.3 C 0 km/h
1720 09-03-2010 08:04:02 -5.2 C 2.18 g/m*3 -5.2 C 0 km/h
1721 09-03-2010 08:16:02 -5 C 2.18 g/m*3 -5 C 0 km/h
1722 09-03-2010 08:28:02 -4.9 C 2.16 g/m*3 -4.9 C 0 km/h
1723 09-03-2010 08:40:02 -4.8 C 2.14 g/m*3 -4.8 C 0 km/h
1724 09-03-2010 08:52:02 -4.7 C 2.16 g/m*3 -4.7 C 0 km/h
1725 09-03-2010 09:04:01 -4.5 C 2.19 g/m*3 -4.5 C 0 km/h
Sensor: Nr:Datum:Temp:Abs-Feuchte:Windchill:Wind:
Aussen-T/F 1726 09-03-2010 09:16:02 -4.2 C 2.16 g/m*3 -4.2 C 0 km/h
1727 09-03-2010 09:28:02 -3.9 C 2.17 g/m*3 -3.9 C 0 km/h
1728 09-03-2010 09:40:01 -3.4 C 2.18 g/m*3 -3.4 C 0 km/h
1729 09-03-2010 09:52:02 -2.7 C 2.13 g/m*3 -2.7 C 0 km/h
1730 09-03-2010 10:04:01 -2.4 C 2.09 g/m*3 -2.4 C 0 km/h
1731 09-03-2010 10:16:01 -1.9 C 2.08 g/m*3 -1.9 C 0 km/h
1732 09-03-2010 10:28:01 -1.2 C 2.05 g/m*3 -1.2 C 0 km/h
1733 09-03-2010 10:40:02 -0.7 C 1.94 g/m*3 -0.7 C 0 km/h
1734 09-03-2010 10:52:02 -0.4 C 1.84 g/m*3 -0.4 C 0 km/h
1735 09-03-2010 11:04:01 -0.1 C 1.73 g/m*3 -0.1 C 0 km/h
1736 09-03-2010 11:16:02 0.3 C 1.63 g/m*3 0.3 C 0 km/h
1737 09-03-2010 11:28:02 0.5 C 1.5 g/m*3 0.5 C 0 km/h
1738 09-03-2010 11:40:02 0.5 C 1.3 g/m*3 0.5 C 0 km/h
1739 09-03-2010 11:52:01 0.8 C 1.28 g/m*3 0.8 C 0 km/h
1740 09-03-2010 12:04:02 1 C 1.09 g/m*3 1 C 0 km/h
1741 09-03-2010 12:16:01 1.3 C 1.06 g/m*3 1.3 C 0 km/h
1742 09-03-2010 12:28:01 1.6 C 1.14 g/m*3 1.6 C 0 km/h
1743 09-03-2010 12:40:02 1.8 C 1.1 g/m*3 1.8 C 0 km/h
1744 09-03-2010 12:52:02 2.2 C 1.13 g/m*3 2.2 C 0 km/h
1745 09-03-2010 13:04:02 2.2 C 1.13 g/m*3 2.2 C 0 km/h
1746 09-03-2010 13:16:01 2.9 C 1.18 g/m*3 2.9 C 0 km/h
1747 09-03-2010 13:28:01 3.2 C 1.21 g/m*3 3.2 C 0 km/h
1748 09-03-2010 13:40:02 3.5 C 1.23 g/m*3 3.5 C 0 km/h
1749 09-03-2010 13:52:02 3.7 C 1.25 g/m*3 3.7 C 0 km/h
1750 09-03-2010 14:04:02 3.9 C 1.26 g/m*3 3.9 C 0 km/h
Sensor: Nr:Datum:Temp:Abs-Feuchte:Windchill:Wind:
Aussen-T/F 1751 09-03-2010 14:16:02 4.5 C 1.31 g/m*3 4.5 C 0 km/h
1752 09-03-2010 14:28:02 4.9 C 1.35 g/m*3 4.9 C 0 km/h
1753 09-03-2010 14:40:02 5.3 C 1.39 g/m*3 5.3 C 0 km/h
1754 09-03-2010 14:52:02 5.7 C 1.42 g/m*3 5.7 C 0 km/h
1755 09-03-2010 15:04:02 5.7 C 1.42 g/m*3 5.7 C 0 km/h
1756 09-03-2010 15:16:02 5.7 C 1.42 g/m*3 5.7 C 0 km/h
1757 09-03-2010 15:28:02 5.7 C 1.42 g/m*3 5.7 C 0 km/h
1758 09-03-2010 15:40:02 6.2 C 1.47 g/m*3 6.2 C 0 km/h
1759 09-03-2010 15:52:02 6 C 1.45 g/m*3 6 C 0 km/h
1760 09-03-2010 16:04:02 5.9 C 1.44 g/m*3 5.9 C 0 km/h
1761 09-03-2010 16:16:02 5.8 C 1.43 g/m*3 5.8 C 0 km/h
1762 09-03-2010 16:28:02 6.3 C 1.48 g/m*3 6.3 C 0 km/h
1763 09-03-2010 16:40:02 6.3 C 1.48 g/m*3 6.3 C 0 km/h
1764 09-03-2010 16:52:02 6.2 C 1.47 g/m*3 6.2 C 0 km/h
1765 09-03-2010 17:04:02 5.5 C 1.4 g/m*3 5.5 C 0 km/h
1766 09-03-2010 17:16:03 5.2 C 1.38 g/m*3 5.2 C 0 km/h
1767 09-03-2010 17:28:03 4.8 C 1.34 g/m*3 4.8 C 0 km/h
1768 09-03-2010 17:40:02 4.4 C 1.31 g/m*3 4.4 C 0 km/h
1769 09-03-2010 17:52:02 4 C 1.27 g/m*3 4 C 0 km/h
1770 09-03-2010 18:04:02 3.2 C 1.21 g/m*3 3.2 C 0 km/h
1771 09-03-2010 18:16:02 2.4 C 1.14 g/m*3 2.4 C 0 km/h
1772 09-03-2010 18:28:02 1.5 C 1.07 g/m*3 1.5 C 0 km/h
1773 09-03-2010 18:40:02 1.1 C 1.05 g/m*3 1.1 C 0 km/h
1774 09-03-2010 18:52:02 0.7 C 1.02 g/m*3 0.7 C 0 km/h
1775 09-03-2010 19:04:02 0.5 C 1 g/m*3 0.5 C 0 km/h
Sensor: Nr:Datum:Temp:Abs-Feuchte:Windchill:Wind:
Aussen-T/F 1776 09-03-2010 19:16:02 0.2 C 0.98 g/m*3 0.2 C 0 km/h
1777 09-03-2010 19:28:02 -0.1 C 0.96 g/m*3 -0.1 C 0 km/h
1778 09-03-2010 19:40:02 -0.3 C 0.95 g/m*3 -0.3 C 0 km/h
1779 09-03-2010 19:52:02 -0.6 C 0.93 g/m*3 -0.6 C 0 km/h
1780 09-03-2010 20:04:01 -0.6 C 0.93 g/m*3 -0.6 C 0 km/h
1781 09-03-2010 20:16:02 -0.8 C 0.92 g/m*3 -0.8 C 0 km/h
1782 09-03-2010 20:28:03 -1.2 C 0.89 g/m*3 -1.2 C 0 km/h
1783 09-03-2010 20:40:01 -1.4 C 0.88 g/m*3 -1.4 C 0 km/h
1784 09-03-2010 20:52:02 -1.5 C 0.92 g/m*3 -1.5 C 0 km/h
1785 09-03-2010 21:04:01 -1.7 C 0.9 g/m*3 -1.7 C 0 km/h
1786 09-03-2010 21:16:02 -1.7 C 0.86 g/m*3 -1.7 C 0 km/h
1787 09-03-2010 21:28:02 -1.9 C 0.85 g/m*3 -1.9 C 0 km/h
1788 09-03-2010 21:40:02 -1.8 C 0.85 g/m*3 -1.8 C 0 km/h
1789 09-03-2010 21:52:02 -1.9 C 0.85 g/m*3 -1.9 C 0 km/h
1790 09-03-2010 22:04:02 -1.8 C 0.85 g/m*3 -1.8 C 0 km/h
1791 09-03-2010 22:16:02 -1.7 C 0.86 g/m*3 -1.7 C 0 km/h
1792 09-03-2010 22:28:02 -1.7 C 0.86 g/m*3 -1.7 C 0 km/h
1793 09-03-2010 22:40:02 -1.8 C 0.85 g/m*3 -1.8 C 0 km/h
1794 09-03-2010 22:52:02 -1.8 C 0.9 g/m*3 -1.8 C 0 km/h
1795 09-03-2010 23:05:02 -2 C 1.1 g/m*3 -2 C 0 km/h
1796 09-03-2010 23:17:02 -2.3 C 1.24 g/m*3 -2.3 C 0 km/h
1797 09-03-2010 23:29:02 -2.4 C 1.27 g/m*3 -2.4 C 0 km/h
1798 09-03-2010 23:41:02 -2.5 C 1.34 g/m*3 -2.5 C 0 km/h
1799 09-03-2010 23:53:02 -2.6 C 1.41 g/m*3 -2.6 C 0 km/h
1800 10-03-2010 00:05:02 -2.7 C 1.48 g/m*3 -2.7 C 0 km/h
Sensor: Nr:Datum:Temp:Abs-Feuchte:Windchill:Wind:
Aussen-T/F 1801 10-03-2010 00:17:02 -2.8 C 1.55 g/m*3 -2.8 C 0 km/h
1802 10-03-2010 00:29:02 -2.7 C 1.56 g/m*3 -2.7 C 0 km/h
1803 10-03-2010 00:41:02 -2.6 C 1.58 g/m*3 -2.6 C 0 km/h
1804 10-03-2010 00:53:02 -2.7 C 1.6 g/m*3 -2.7 C 0 km/h
1805 10-03-2010 01:05:03 -3 C 1.65 g/m*3 -3 C 0 km/h
1806 10-03-2010 01:17:03 -3.1 C 1.68 g/m*3 -3.1 C 0 km/h
1807 10-03-2010 01:29:03 -3.2 C 1.7 g/m*3 -3.2 C 0 km/h
1808 10-03-2010 01:41:03 -3 C 1.73 g/m*3 -3 C 0 km/h
1809 10-03-2010 01:53:03 -3.4 C 1.72 g/m*3 -3.4 C 0 km/h
1810 10-03-2010 02:05:03 -3.4 C 1.76 g/m*3 -3.4 C 0 km/h
1811 10-03-2010 02:17:03 -3.5 C 1.74 g/m*3 -3.5 C 0 km/h
1812 10-03-2010 02:29:03 -3.6 C 1.77 g/m*3 -3.6 C 0 km/h
1813 10-03-2010 02:41:03 -3.8 C 1.78 g/m*3 -3.8 C 0 km/h
1814 10-03-2010 02:53:03 -3.8 C 1.78 g/m*3 -3.8 C 0 km/h
1815 10-03-2010 03:05:03 -3.8 C 1.78 g/m*3 -3.8 C 0 km/h
1816 10-03-2010 03:17:03 -3.8 C 1.82 g/m*3 -3.8 C 0 km/h
1817 10-03-2010 03:29:03 -3.9 C 1.81 g/m*3 -3.9 C 0 km/h
1818 10-03-2010 03:41:03 -3.9 C 1.77 g/m*3 -3.9 C 0 km/h
1819 10-03-2010 03:53:03 -3.9 C 1.77 g/m*3 -3.9 C 0 km/h
1820 10-03-2010 04:05:03 -3.6 C 1.81 g/m*3 -3.6 C 0 km/h
1821 10-03-2010 04:17:03 -3.5 C 1.78 g/m*3 -3.5 C 0 km/h
1822 10-03-2010 04:29:03 -3.5 C 1.74 g/m*3 -3.5 C 0 km/h
1823 10-03-2010 04:41:03 -3.5 C 1.74 g/m*3 -3.5 C 0 km/h
1824 10-03-2010 04:53:03 -3.5 C 1.71 g/m*3 -3.5 C 0 km/h
1825 10-03-2010 05:05:03 -3.6 C 1.69 g/m*3 -3.6 C 0 km/h
Sensor: Nr:Datum:Temp:Abs-Feuchte:Windchill:Wind:
Aussen-T/F 1826 10-03-2010 05:17:03 -3.5 C 1.71 g/m*3 -3.5 C 0 km/h
1827 10-03-2010 05:29:04 -3.5 C 1.71 g/m*3 -3.5 C 0 km/h
1828 10-03-2010 05:41:04 -3.5 C 1.71 g/m*3 -3.5 C 0 km/h
1829 10-03-2010 05:53:04 -3.4 C 1.68 g/m*3 -3.4 C 0 km/h
1830 10-03-2010 06:05:04 -3.6 C 1.66 g/m*3 -3.6 C 0 km/h
1831 10-03-2010 06:17:04 -3.6 C 1.69 g/m*3 -3.6 C 0 km/h
1832 10-03-2010 06:29:04 -3.9 C 1.69 g/m*3 -3.9 C 0 km/h
1833 10-03-2010 06:41:04 -3.8 C 1.67 g/m*3 -3.8 C 0 km/h
1834 10-03-2010 06:53:04 -3.7 C 1.68 g/m*3 -3.7 C 0 km/h
1835 10-03-2010 07:05:02 -3.7 C 1.68 g/m*3 -3.7 C 0 km/h
1836 10-03-2010 07:17:02 -3.6 C 1.69 g/m*3 -3.6 C 0 km/h
1837 10-03-2010 07:29:02 -3.6 C 1.69 g/m*3 -3.6 C 0 km/h
1838 10-03-2010 07:41:02 -3.4 C 1.72 g/m*3 -3.4 C 0 km/h
1839 10-03-2010 07:53:02 -3 C 1.69 g/m*3 -3 C 0 km/h
1840 10-03-2010 08:05:02 -2.7 C 1.69 g/m*3 -2.7 C 0 km/h
1841 10-03-2010 08:17:02 -2.5 C 1.67 g/m*3 -2.5 C 0 km/h
1842 10-03-2010 08:29:02 -2.1 C 1.67 g/m*3 -2.1 C 0 km/h
1843 10-03-2010 08:41:02 -1.8 C 1.62 g/m*3 -1.8 C 0 km/h
1844 10-03-2010 08:53:02 -1.3 C 1.51 g/m*3 -1.3 C 0 km/h
1845 10-03-2010 09:05:02 -1 C 1.4 g/m*3 -1 C 0 km/h
1846 10-03-2010 09:17:02 -0.8 C 1.38 g/m*3 -0.8 C 0 km/h
1847 10-03-2010 09:29:02 -0.4 C 1.23 g/m*3 -0.4 C 0 km/h
1848 10-03-2010 09:41:01 -0.1 C 1.2 g/m*3 -0.1 C 0 km/h
1849 10-03-2010 09:53:01 0.5 C 1 g/m*3 0.5 C 0 km/h
1850 10-03-2010 10:05:01 1.1 C 1.05 g/m*3 1.1 C 0 km/h
Sensor: Nr:Datum:Temp:Abs-Feuchte:Windchill:Wind:
Aussen-T/F 1851 10-03-2010 10:17:02 1.4 C 1.07 g/m*3 1.4 C 0 km/h
1852 10-03-2010 10:29:02 1.8 C 1.1 g/m*3 1.8 C 0 km/h
1853 10-03-2010 10:41:01 2.3 C 1.13 g/m*3 2.3 C 0 km/h
1854 10-03-2010 10:53:02 2.8 C 1.17 g/m*3 2.8 C 0 km/h
1855 10-03-2010 11:05:01 3.3 C 1.21 g/m*3 3.3 C 0 km/h
1856 10-03-2010 11:17:02 3.6 C 1.24 g/m*3 3.6 C 0 km/h
1857 10-03-2010 11:29:02 3.9 C 1.26 g/m*3 3.9 C 0 km/h
1858 10-03-2010 11:41:01 4.1 C 1.28 g/m*3 4.1 C 0 km/h
1859 10-03-2010 11:53:02 4.3 C 1.62 g/m*3 4.3 C 0 km/h
1860 10-03-2010 12:05:02 4.6 C 1.52 g/m*3 4.6 C 0 km/h
1861 10-03-2010 12:17:02 5.1 C 1.57 g/m*3 5.1 C 0 km/h
1862 10-03-2010 12:29:02 5.7 C 1.49 g/m*3 5.7 C 0 km/h
1863 10-03-2010 12:41:01 6.1 C 1.46 g/m*3 6.1 C 0 km/h
1864 10-03-2010 12:53:02 6.5 C 1.5 g/m*3 6.5 C 0 km/h
1865 10-03-2010 13:05:01 6.6 C 1.51 g/m*3 6.6 C 0 km/h
1866 10-03-2010 13:17:01 7 C 1.55 g/m*3 7 C 0 km/h
1867 10-03-2010 13:29:01 7.4 C 1.59 g/m*3 7.4 C 0 km/h
1868 10-03-2010 13:41:02 7.6 C 1.61 g/m*3 7.6 C 0 km/h
1869 10-03-2010 13:53:02 8 C 1.65 g/m*3 8 C 0 km/h
1870 10-03-2010 14:05:02 8.2 C 1.67 g/m*3 8.2 C 0 km/h
1871 10-03-2010 14:17:02 8.2 C 1.67 g/m*3 8.2 C 0 km/h
1872 10-03-2010 14:29:02 8.3 C 1.69 g/m*3 8.3 C 0 km/h
1873 10-03-2010 14:41:02 8.5 C 1.71 g/m*3 8.5 C 0 km/h
1874 10-03-2010 14:53:02 8.2 C 1.67 g/m*3 8.2 C 0 km/h
1875 10-03-2010 15:05:03 8.7 C 1.73 g/m*3 8.7 C 0 km/h
Sensor: Nr:Datum:Temp:Abs-Feuchte:Windchill:Wind:
Aussen-T/F 1876 10-03-2010 15:17:02 9.3 C 1.8 g/m*3 9.3 C 0 km/h
1877 10-03-2010 15:29:02 8.7 C 1.73 g/m*3 8.7 C 0 km/h
1878 10-03-2010 15:41:02 8.4 C 1.7 g/m*3 8.4 C 0 km/h
1879 10-03-2010 15:53:01 8.8 C 1.74 g/m*3 8.8 C 0 km/h
1880 10-03-2010 16:05:02 8.7 C 1.73 g/m*3 8.7 C 0 km/h
1881 10-03-2010 16:17:01 8.3 C 1.69 g/m*3 8.3 C 0 km/h
1882 10-03-2010 16:29:01 7.8 C 1.63 g/m*3 7.8 C 0 km/h
1883 10-03-2010 16:41:01 7.4 C 1.59 g/m*3 7.4 C 0 km/h
1884 10-03-2010 16:53:01 7.1 C 1.56 g/m*3 7.1 C 0 km/h
1885 10-03-2010 17:05:02 6.8 C 1.53 g/m*3 6.8 C 0 km/h
1886 10-03-2010 17:17:02 6.5 C 1.5 g/m*3 6.5 C 0 km/h
1887 10-03-2010 17:29:02 6.2 C 1.47 g/m*3 6.2 C 0 km/h
1888 10-03-2010 17:41:01 6.1 C 1.46 g/m*3 6.1 C 0 km/h
1889 10-03-2010 17:53:01 5.7 C 1.42 g/m*3 5.7 C 0 km/h
1890 10-03-2010 18:05:01 5.4 C 1.4 g/m*3 5.4 C 0 km/h
1891 10-03-2010 18:17:02 5 C 1.36 g/m*3 5 C 0 km/h
1892 10-03-2010 18:29:02 4.4 C 1.5 g/m*3 4.4 C 0 km/h
1893 10-03-2010 18:41:01 4 C 1.78 g/m*3 4 C 0 km/h
1894 10-03-2010 18:53:02 3.7 C 1.93 g/m*3 3.7 C 0 km/h
1895 10-03-2010 19:05:01 3.7 C 1.81 g/m*3 3.7 C 0 km/h
1896 10-03-2010 19:17:02 3.5 C 1.72 g/m*3 3.5 C 0 km/h
1897 10-03-2010 19:29:02 3.3 C 1.7 g/m*3 3.3 C 0 km/h
1898 10-03-2010 19:41:01 2.9 C 1.89 g/m*3 2.9 C 0 km/h
1899 10-03-2010 19:53:03 2.7 C 1.81 g/m*3 2.7 C 0 km/h
1900 10-03-2010 20:05:02 2.7 C 1.81 g/m*3 2.7 C 0 km/h
Sensor: Nr:Datum:Temp:Abs-Feuchte:Windchill:Wind:
Aussen-T/F 1901 10-03-2010 20:17:02 2.5 C 1.78 g/m*3 2.5 C 0 km/h
1902 10-03-2010 20:29:02 2.4 C 1.83 g/m*3 2.4 C 0 km/h
1903 10-03-2010 20:41:02 2.3 C 1.76 g/m*3 2.3 C 0 km/h
1904 10-03-2010 20:53:02 2.2 C 1.8 g/m*3 2.2 C 0 km/h
1905 10-03-2010 21:05:01 2.2 C 1.75 g/m*3 2.2 C 0 km/h
1906 10-03-2010 21:18:02 2.1 C 1.73 g/m*3 2.1 C 0 km/h
1907 10-03-2010 21:30:02 1.9 C 1.93 g/m*3 1.9 C 0 km/h
1908 10-03-2010 21:42:02 1.8 C 1.92 g/m*3 1.8 C 0 km/h
1909 10-03-2010 21:54:02 1.7 C 1.96 g/m*3 1.7 C 0 km/h
1910 10-03-2010 22:06:02 1.5 C 1.99 g/m*3 1.5 C 0 km/h
1911 10-03-2010 22:18:02 1.5 C 1.99 g/m*3 1.5 C 0 km/h
1912 10-03-2010 22:30:02 1.4 C 2.03 g/m*3 1.4 C 0 km/h
1913 10-03-2010 22:42:02 1.4 C 2.03 g/m*3 1.4 C 0 km/h
1914 10-03-2010 22:54:02 1.4 C 2.08 g/m*3 1.4 C 0 km/h
1915 10-03-2010 23:06:02 1.1 C 2.09 g/m*3 1.1 C 0 km/h
1916 10-03-2010 23:18:02 0.8 C 2.15 g/m*3 0.8 C 0 km/h
1917 10-03-2010 23:30:02 0.6 C 2.22 g/m*3 0.6 C 0 km/h
1918 10-03-2010 23:42:02 0.4 C 2.24 g/m*3 0.4 C 0 km/h
1919 10-03-2010 23:54:02 0.2 C 2.26 g/m*3 0.2 C 0 km/h
1920 11-03-2010 00:06:02 0 C 2.33 g/m*3 0 C 0 km/h
1921 11-03-2010 00:18:02 0 C 2.33 g/m*3 0 C 0 km/h
1922 11-03-2010 00:30:02 -0.2 C 2.29 g/m*3 -0.2 C 0 km/h
1923 11-03-2010 00:42:02 -0.2 C 2.29 g/m*3 -0.2 C 0 km/h
1924 11-03-2010 00:54:02 -0.2 C 2.29 g/m*3 -0.2 C 0 km/h
1925 11-03-2010 01:06:02 -0.3 C 2.28 g/m*3 -0.3 C 0 km/h
Sensor: Nr:Datum:Temp:Abs-Feuchte:Windchill:Wind:
Aussen-T/F 1926 11-03-2010 01:18:03 -0.5 C 2.25 g/m*3 -0.5 C 0 km/h
1927 11-03-2010 01:30:03 -0.9 C 2.28 g/m*3 -0.9 C 0 km/h
1928 11-03-2010 01:42:03 -0.9 C 2.37 g/m*3 -0.9 C 0 km/h
1929 11-03-2010 01:54:03 -1.1 C 2.29 g/m*3 -1.1 C 0 km/h
1930 11-03-2010 02:06:03 -1 C 2.31 g/m*3 -1 C 0 km/h
1931 11-03-2010 02:18:03 -1.1 C 2.29 g/m*3 -1.1 C 0 km/h
1932 11-03-2010 02:30:03 -1.3 C 2.3 g/m*3 -1.3 C 0 km/h
1933 11-03-2010 02:42:03 -1.3 C 2.3 g/m*3 -1.3 C 0 km/h
1934 11-03-2010 02:54:03 -1.4 C 2.33 g/m*3 -1.4 C 0 km/h
1935 11-03-2010 03:06:03 -1.5 C 2.31 g/m*3 -1.5 C 0 km/h
1936 11-03-2010 03:18:03 -1.5 C 2.36 g/m*3 -1.5 C 0 km/h
1937 11-03-2010 03:30:03 -1.7 C 2.32 g/m*3 -1.7 C 0 km/h
1938 11-03-2010 03:42:03 -1.8 C 2.31 g/m*3 -1.8 C 0 km/h
1939 11-03-2010 03:54:03 -1.9 C 2.29 g/m*3 -1.9 C 0 km/h
1940 11-03-2010 04:06:03 -2 C 2.32 g/m*3 -2 C 0 km/h
1941 11-03-2010 04:18:03 -2 C 2.32 g/m*3 -2 C 0 km/h
1942 11-03-2010 04:30:03 -2.1 C 2.3 g/m*3 -2.1 C 0 km/h
1943 11-03-2010 04:42:03 -2.2 C 2.29 g/m*3 -2.2 C 0 km/h
1944 11-03-2010 04:54:03 -2.3 C 2.31 g/m*3 -2.3 C 0 km/h
1945 11-03-2010 05:06:03 -2.6 C 2.26 g/m*3 -2.6 C 0 km/h
1946 11-03-2010 05:18:03 -3 C 2.2 g/m*3 -3 C 0 km/h
1947 11-03-2010 05:30:04 -3 C 2.32 g/m*3 -3 C 0 km/h
1948 11-03-2010 05:42:04 -3 C 2.4 g/m*3 -3 C 0 km/h
1949 11-03-2010 05:54:04 -2.8 C 2.39 g/m*3 -2.8 C 0 km/h
1950 11-03-2010 06:06:04 -2.7 C 2.37 g/m*3 -2.7 C 0 km/h
Sensor: Nr:Datum:Temp:Abs-Feuchte:Windchill:Wind:
Aussen-T/F 1951 11-03-2010 06:18:04 -2.8 C 2.35 g/m*3 -2.8 C 0 km/h
1952 11-03-2010 06:30:04 -2.8 C 2.39 g/m*3 -2.8 C 0 km/h
1953 11-03-2010 06:42:04 -2.8 C 2.39 g/m*3 -2.8 C 0 km/h
1954 11-03-2010 06:54:04 -2.8 C 2.43 g/m*3 -2.8 C 0 km/h
1955 11-03-2010 07:06:02 -2.9 C 2.45 g/m*3 -2.9 C 0 km/h
1956 11-03-2010 07:18:01 -3 C 2.44 g/m*3 -3 C 0 km/h
1957 11-03-2010 07:30:01 -3 C 2.47 g/m*3 -3 C 0 km/h
1958 11-03-2010 07:42:02 -2.9 C 2.49 g/m*3 -2.9 C 0 km/h
1959 11-03-2010 07:54:01 -2.7 C 2.53 g/m*3 -2.7 C 0 km/h
1960 11-03-2010 08:06:02 -2.4 C 2.58 g/m*3 -2.4 C 0 km/h
1961 11-03-2010 08:18:02 -2.1 C 2.55 g/m*3 -2.1 C 0 km/h
1962 11-03-2010 08:30:02 -1.8 C 2.52 g/m*3 -1.8 C 0 km/h
1963 11-03-2010 08:42:01 -1.3 C 2.52 g/m*3 -1.3 C 0 km/h
1964 11-03-2010 08:54:02 -0.9 C 2.55 g/m*3 -0.9 C 0 km/h
1965 11-03-2010 09:06:01 -0.7 C 2.54 g/m*3 -0.7 C 0 km/h
1966 11-03-2010 09:18:02 -0.4 C 2.45 g/m*3 -0.4 C 0 km/h
1967 11-03-2010 09:30:03 -0.3 C 2.42 g/m*3 -0.3 C 0 km/h
1968 11-03-2010 09:42:01 -0.2 C 2.39 g/m*3 -0.2 C 0 km/h
1969 11-03-2010 09:54:02 -0.2 C 2.29 g/m*3 -0.2 C 0 km/h
1970 11-03-2010 10:06:02 0.1 C 2.34 g/m*3 0.1 C 0 km/h
1971 11-03-2010 10:18:02 0.2 C 2.36 g/m*3 0.2 C 0 km/h
1972 11-03-2010 10:30:02 0.2 C 2.31 g/m*3 0.2 C 0 km/h
1973 11-03-2010 10:42:03 0.4 C 2.39 g/m*3 0.4 C 0 km/h
1974 11-03-2010 10:54:02 0.9 C 2.42 g/m*3 0.9 C 0 km/h
1975 11-03-2010 11:06:01 1.1 C 2.35 g/m*3 1.1 C 0 km/h
Sensor: Nr:Datum:Temp:Abs-Feuchte:Windchill:Wind:
Aussen-T/F 1976 11-03-2010 11:18:02 1.4 C 2.35 g/m*3 1.4 C 0 km/h
1977 11-03-2010 11:30:02 1.6 C 2.27 g/m*3 1.6 C 0 km/h
1978 11-03-2010 11:42:02 1.9 C 2.26 g/m*3 1.9 C 0 km/h
1979 11-03-2010 11:54:02 2 C 2.17 g/m*3 2 C 0 km/h
1980 11-03-2010 12:06:03 2.2 C 2.2 g/m*3 2.2 C 0 km/h
1981 11-03-2010 12:18:02 2.7 C 2.21 g/m*3 2.7 C 0 km/h
1982 11-03-2010 12:30:02 3.1 C 2.04 g/m*3 3.1 C 0 km/h
1983 11-03-2010 12:42:02 3.6 C 1.98 g/m*3 3.6 C 0 km/h
1984 11-03-2010 12:54:02 4 C 1.91 g/m*3 4 C 0 km/h
1985 11-03-2010 13:06:02 4.5 C 1.84 g/m*3 4.5 C 0 km/h
1986 11-03-2010 13:18:01 4.8 C 1.68 g/m*3 4.8 C 0 km/h
1987 11-03-2010 13:30:01 5.1 C 1.78 g/m*3 5.1 C 0 km/h
1988 11-03-2010 13:42:02 5.9 C 1.87 g/m*3 5.9 C 0 km/h
1989 11-03-2010 13:54:02 5.6 C 1.84 g/m*3 5.6 C 0 km/h
1990 11-03-2010 14:06:02 6.1 C 1.9 g/m*3 6.1 C 0 km/h
1991 11-03-2010 14:18:01 6.5 C 1.95 g/m*3 6.5 C 0 km/h
1992 11-03-2010 14:30:01 6.2 C 2.13 g/m*3 6.2 C 0 km/h
1993 11-03-2010 14:42:02 6.6 C 2.04 g/m*3 6.6 C 0 km/h
1994 11-03-2010 14:54:02 6.3 C 2.07 g/m*3 6.3 C 0 km/h
1995 11-03-2010 15:06:02 5.7 C 2.35 g/m*3 5.7 C 0 km/h
1996 11-03-2010 15:18:01 5.9 C 2.45 g/m*3 5.9 C 0 km/h
1997 11-03-2010 15:30:01 4.9 C 2.57 g/m*3 4.9 C 0 km/h
1998 11-03-2010 15:42:02 4.6 C 2.65 g/m*3 4.6 C 0 km/h
1999 11-03-2010 15:54:02 4.8 C 2.68 g/m*3 4.8 C 0 km/h
2000 11-03-2010 16:06:02 4.7 C 2.66 g/m*3 4.7 C 0 km/h
Sensor: Nr:Datum:Temp:Abs-Feuchte:Windchill:Wind:
Aussen-T/F 2001 11-03-2010 16:18:02 4.8 C 2.68 g/m*3 4.8 C 0 km/h
2002 11-03-2010 16:30:02 4.3 C 2.66 g/m*3 4.3 C 0 km/h
2003 11-03-2010 16:42:02 4.2 C 2.71 g/m*3 4.2 C 0 km/h
2004 11-03-2010 16:54:02 4 C 2.67 g/m*3 4 C 0 km/h
2005 11-03-2010 17:06:02 3.9 C 2.78 g/m*3 3.9 C 0 km/h
2006 11-03-2010 17:18:02 3.6 C 2.79 g/m*3 3.6 C 0 km/h
2007 11-03-2010 17:30:02 3.1 C 2.75 g/m*3 3.1 C 0 km/h
2008 11-03-2010 17:42:04 2.8 C 2.82 g/m*3 2.8 C 0 km/h
2009 11-03-2010 17:54:02 2.2 C 2.76 g/m*3 2.2 C 0 km/h
2010 11-03-2010 18:06:01 2 C 2.78 g/m*3 2 C 0 km/h
2011 11-03-2010 18:18:02 1.6 C 2.87 g/m*3 1.6 C 0 km/h
2012 11-03-2010 18:30:02 1.2 C 2.84 g/m*3 1.2 C 0 km/h
2013 11-03-2010 18:42:02 0.9 C 2.89 g/m*3 0.9 C 0 km/h
2014 11-03-2010 18:54:02 0.7 C 2.9 g/m*3 0.7 C 0 km/h
2015 11-03-2010 19:06:02 0.4 C 2.89 g/m*3 0.4 C 0 km/h
2016 11-03-2010 19:18:02 0.3 C 2.92 g/m*3 0.3 C 0 km/h
2017 11-03-2010 19:30:02 0.3 C 2.97 g/m*3 0.3 C 0 km/h
2018 11-03-2010 19:42:02 0.1 C 2.93 g/m*3 0.1 C 0 km/h
2019 11-03-2010 19:54:02 0 C 2.91 g/m*3 0 C 0 km/h
2020 11-03-2010 20:06:02 -0.1 C 2.89 g/m*3 -0.1 C 0 km/h
2021 11-03-2010 20:18:02 -0.2 C 2.91 g/m*3 -0.2 C 0 km/h
2022 11-03-2010 20:30:02 -0.4 C 2.92 g/m*3 -0.4 C 0 km/h
2023 11-03-2010 20:42:02 -0.4 C 2.97 g/m*3 -0.4 C 0 km/h
2024 11-03-2010 20:54:01 -0.6 C 2.97 g/m*3 -0.6 C 0 km/h
2025 11-03-2010 21:07:04 -0.8 C 2.93 g/m*3 -0.8 C 0 km/h
Sensor: Nr:Datum:Temp:Abs-Feuchte:Windchill:Wind:
Aussen-T/F 2026 11-03-2010 21:19:04 -0.8 C 2.98 g/m*3 -0.8 C 0 km/h
2027 11-03-2010 21:31:04 -0.9 C 2.96 g/m*3 -0.9 C 0 km/h
2028 11-03-2010 21:43:05 -1.1 C 2.96 g/m*3 -1.1 C 0 km/h
2029 11-03-2010 21:55:05 -1.1 C 2.96 g/m*3 -1.1 C 0 km/h
2030 11-03-2010 22:07:05 -1.2 C 3.03 g/m*3 -1.2 C 0 km/h
2031 11-03-2010 22:19:05 -1.3 C 3.01 g/m*3 -1.3 C 0 km/h
2032 11-03-2010 22:31:05 -1.2 C 3.08 g/m*3 -1.2 C 0 km/h
2033 11-03-2010 22:43:05 -1.4 C 3.03 g/m*3 -1.4 C 0 km/h
2034 11-03-2010 22:55:05 -1.5 C 3.06 g/m*3 -1.5 C 0 km/h
2035 11-03-2010 23:07:05 -1.7 C 3.01 g/m*3 -1.7 C 0 km/h
2036 11-03-2010 23:19:05 -1.9 C 2.97 g/m*3 -1.9 C 0 km/h
2037 11-03-2010 23:31:05 -2 C 2.99 g/m*3 -2 C 0 km/h
2038 11-03-2010 23:43:05 -2.2 C 2.95 g/m*3 -2.2 C 0 km/h
2039 11-03-2010 23:55:05 -2.5 C 2.89 g/m*3 -2.5 C 0 km/h
2040 12-03-2010 00:07:05 -2.6 C 2.87 g/m*3 -2.6 C 0 km/h
2041 12-03-2010 00:19:05 -2.6 C 2.87 g/m*3 -2.6 C 0 km/h
2042 12-03-2010 00:31:05 -2.7 C 2.89 g/m*3 -2.7 C 0 km/h
2043 12-03-2010 00:43:05 -2.7 C 2.89 g/m*3 -2.7 C 0 km/h
2044 12-03-2010 00:55:05 -2.3 C 2.97 g/m*3 -2.3 C 0 km/h
2045 12-03-2010 01:07:05 -1.9 C 3.06 g/m*3 -1.9 C 0 km/h
2046 12-03-2010 01:19:05 -1.6 C 3.08 g/m*3 -1.6 C 0 km/h
2047 12-03-2010 01:31:05 -1.5 C 3.06 g/m*3 -1.5 C 0 km/h
2048 12-03-2010 01:43:05 -1.3 C 3.1 g/m*3 -1.3 C 0 km/h
2049 12-03-2010 01:55:06 -1.4 C 3.03 g/m*3 -1.4 C 0 km/h
2050 12-03-2010 02:07:06 -1.4 C 3.03 g/m*3 -1.4 C 0 km/h
Sensor: Nr:Datum:Temp:Abs-Feuchte:Windchill:Wind:
Aussen-T/F 2051 12-03-2010 02:19:06 -1.3 C 3.1 g/m*3 -1.3 C 0 km/h
2052 12-03-2010 02:31:06 -1.3 C 3.1 g/m*3 -1.3 C 0 km/h
2053 12-03-2010 02:43:06 -1.3 C 3.1 g/m*3 -1.3 C 0 km/h
2054 12-03-2010 02:55:06 -1.3 C 3.1 g/m*3 -1.3 C 0 km/h
2055 12-03-2010 03:07:06 -1.2 C 3.12 g/m*3 -1.2 C 0 km/h
2056 12-03-2010 03:19:06 -1.3 C 3.1 g/m*3 -1.3 C 0 km/h
2057 12-03-2010 03:31:06 -1.3 C 3.1 g/m*3 -1.3 C 0 km/h
2058 12-03-2010 03:43:06 -1.3 C 3.14 g/m*3 -1.3 C 0 km/h
2059 12-03-2010 03:55:06 -1.2 C 3.17 g/m*3 -1.2 C 0 km/h
2060 12-03-2010 04:07:06 -1.3 C 3.14 g/m*3 -1.3 C 0 km/h
2061 12-03-2010 04:19:06 -1.3 C 3.14 g/m*3 -1.3 C 0 km/h
2062 12-03-2010 04:31:06 -1.3 C 3.14 g/m*3 -1.3 C 0 km/h
2063 12-03-2010 04:43:06 -1.3 C 3.14 g/m*3 -1.3 C 0 km/h
2064 12-03-2010 04:55:06 -1.3 C 3.14 g/m*3 -1.3 C 0 km/h
2065 12-03-2010 05:07:06 -1.2 C 3.17 g/m*3 -1.2 C 0 km/h
2066 12-03-2010 05:19:06 -1.2 C 3.21 g/m*3 -1.2 C 0 km/h
2067 12-03-2010 05:31:06 -1.2 C 3.21 g/m*3 -1.2 C 0 km/h
2068 12-03-2010 05:43:06 -1.1 C 3.23 g/m*3 -1.1 C 0 km/h
2069 12-03-2010 05:55:06 -1.1 C 3.23 g/m*3 -1.1 C 0 km/h
2070 12-03-2010 06:07:07 -1.1 C 3.28 g/m*3 -1.1 C 0 km/h
2071 12-03-2010 06:19:07 -1.1 C 3.28 g/m*3 -1.1 C 0 km/h
2072 12-03-2010 06:31:07 -0.9 C 3.32 g/m*3 -0.9 C 0 km/h
2073 12-03-2010 06:43:07 -0.9 C 3.32 g/m*3 -0.9 C 0 km/h
2074 12-03-2010 06:55:07 -0.9 C 3.37 g/m*3 -0.9 C 0 km/h
2075 12-03-2010 07:07:03 -0.9 C 3.41 g/m*3 -0.9 C 0 km/h
Sensor: Nr:Datum:Temp:Abs-Feuchte:Windchill:Wind:
Aussen-T/F 2076 12-03-2010 07:19:04 -0.9 C 3.46 g/m*3 -0.9 C 0 km/h
2077 12-03-2010 07:31:03 -0.9 C 3.51 g/m*3 -0.9 C 0 km/h
2078 12-03-2010 07:43:03 -0.9 C 3.55 g/m*3 -0.9 C 0 km/h
2079 12-03-2010 07:55:01 -0.9 C 3.6 g/m*3 -0.9 C 0 km/h
2080 12-03-2010 08:07:02 -0.7 C 3.69 g/m*3 -0.7 C 0 km/h
2081 12-03-2010 08:19:02 -0.7 C 3.69 g/m*3 -0.7 C 0 km/h
2082 12-03-2010 08:31:01 -0.5 C 3.74 g/m*3 -0.5 C 0 km/h
2083 12-03-2010 08:43:01 -0.4 C 3.77 g/m*3 -0.4 C 0 km/h
2084 12-03-2010 08:55:03 -0.4 C 3.82 g/m*3 -0.4 C 0 km/h
2085 12-03-2010 09:07:02 -0.3 C 3.89 g/m*3 -0.3 C 0 km/h
2086 12-03-2010 09:19:02 -0.2 C 3.92 g/m*3 -0.2 C 0 km/h
2087 12-03-2010 09:31:03 0 C 4.02 g/m*3 0 C 0 km/h
2088 12-03-2010 09:43:03 0.1 C 4.05 g/m*3 0.1 C 0 km/h
2089 12-03-2010 09:55:02 0.3 C 4.06 g/m*3 0.3 C 0 km/h
2090 12-03-2010 10:07:01 0.4 C 4.08 g/m*3 0.4 C 0 km/h
2091 12-03-2010 10:19:02 0.7 C 4.12 g/m*3 0.7 C 0 km/h
2092 12-03-2010 10:31:02 0.9 C 4.12 g/m*3 0.9 C 0 km/h
2093 12-03-2010 10:43:02 1.3 C 4.13 g/m*3 1.3 C 0 km/h
2094 12-03-2010 10:55:02 1.5 C 4.14 g/m*3 1.5 C 0 km/h
2095 12-03-2010 11:07:03 1.8 C 4.11 g/m*3 1.8 C 0 km/h
2096 12-03-2010 11:19:02 2.1 C 4.08 g/m*3 2.1 C 0 km/h
2097 12-03-2010 11:31:02 2.2 C 4.06 g/m*3 2.2 C 0 km/h
2098 12-03-2010 11:43:03 2.6 C 4.17 g/m*3 2.6 C 0 km/h
2099 12-03-2010 11:55:01 2.7 C 4.2 g/m*3 2.7 C 0 km/h
2100 12-03-2010 12:07:02 2.8 C 4.16 g/m*3 2.8 C 0 km/h
Sensor: Nr:Datum:Temp:Abs-Feuchte:Windchill:Wind:
Aussen-T/F 2101 12-03-2010 12:19:01 3.1 C 4.19 g/m*3 3.1 C 0 km/h
2102 12-03-2010 12:31:01 3.4 C 4.28 g/m*3 3.4 C 0 km/h
2103 12-03-2010 12:43:01 3.8 C 4.27 g/m*3 3.8 C 0 km/h
2104 12-03-2010 12:55:01 3.9 C 4.29 g/m*3 3.9 C 0 km/h
2105 12-03-2010 13:07:02 4.4 C 4.31 g/m*3 4.4 C 0 km/h
2106 12-03-2010 13:19:01 4.4 C 4.24 g/m*3 4.4 C 0 km/h
2107 12-03-2010 13:31:02 4.6 C 4.3 g/m*3 4.6 C 0 km/h
2108 12-03-2010 13:43:02 5 C 4.14 g/m*3 5 C 0 km/h
2109 12-03-2010 13:55:01 5.2 C 4.27 g/m*3 5.2 C 0 km/h
2110 12-03-2010 14:07:02 4.8 C 4.16 g/m*3 4.8 C 0 km/h
2111 12-03-2010 14:19:02 5 C 4.08 g/m*3 5 C 0 km/h
2112 12-03-2010 14:31:01 5.1 C 4.1 g/m*3 5.1 C 0 km/h
2113 12-03-2010 14:43:01 5.4 C 4.12 g/m*3 5.4 C 0 km/h
2114 12-03-2010 14:55:01 6.1 C 4.09 g/m*3 6.1 C 0 km/h
2115 12-03-2010 15:07:02 7.1 C 4.29 g/m*3 7.1 C 0 km/h
2116 12-03-2010 15:19:02 6.9 C 3.85 g/m*3 6.9 C 0 km/h
2117 12-03-2010 15:31:01 7.4 C 4.06 g/m*3 7.4 C 0 km/h
2118 12-03-2010 15:43:01 7.3 C 3.95 g/m*3 7.3 C 0 km/h
2119 12-03-2010 15:55:01 6.1 C 3.8 g/m*3 6.1 C 0 km/h
2120 12-03-2010 16:07:01 5.3 C 4.09 g/m*3 5.3 C 0 km/h
2121 12-03-2010 16:19:02 4.9 C 4.25 g/m*3 4.9 C 0 km/h
2122 12-03-2010 16:31:01 5.1 C 4.38 g/m*3 5.1 C 0 km/h
2123 12-03-2010 16:43:01 5.2 C 4.41 g/m*3 5.2 C 0 km/h
2124 12-03-2010 16:55:02 5.1 C 4.31 g/m*3 5.1 C 0 km/h
2125 12-03-2010 17:07:01 4.9 C 4.32 g/m*3 4.9 C 0 km/h
Sensor: Nr:Datum:Temp:Abs-Feuchte:Windchill:Wind:
Aussen-T/F 2126 12-03-2010 17:19:01 4.9 C 4.32 g/m*3 4.9 C 0 km/h
2127 12-03-2010 17:31:01 4.8 C 4.29 g/m*3 4.8 C 0 km/h
2128 12-03-2010 17:43:01 4.4 C 4.24 g/m*3 4.4 C 0 km/h
2129 12-03-2010 17:55:02 4.1 C 4.29 g/m*3 4.1 C 0 km/h
2130 12-03-2010 18:07:02 3.9 C 4.36 g/m*3 3.9 C 0 km/h
2131 12-03-2010 18:19:02 3.7 C 4.36 g/m*3 3.7 C 0 km/h
2132 12-03-2010 18:31:01 3.5 C 4.37 g/m*3 3.5 C 0 km/h
2133 12-03-2010 18:43:01 3.2 C 4.28 g/m*3 3.2 C 0 km/h
2134 12-03-2010 18:55:02 3 C 4.28 g/m*3 3 C 0 km/h
2135 12-03-2010 19:07:01 2.8 C 4.34 g/m*3 2.8 C 0 km/h
2136 12-03-2010 19:19:02 2.8 C 4.34 g/m*3 2.8 C 0 km/h
2137 12-03-2010 19:31:01 2.8 C 4.4 g/m*3 2.8 C 0 km/h
2138 12-03-2010 19:43:01 2.9 C 4.43 g/m*3 2.9 C 0 km/h
2139 12-03-2010 19:55:02 3.1 C 4.43 g/m*3 3.1 C 0 km/h
2140 12-03-2010 20:07:02 3.1 C 4.43 g/m*3 3.1 C 0 km/h
2141 12-03-2010 20:19:02 3.1 C 4.43 g/m*3 3.1 C 0 km/h
2142 12-03-2010 20:31:03 3.2 C 4.46 g/m*3 3.2 C 0 km/h
2143 12-03-2010 20:43:03 3.1 C 4.37 g/m*3 3.1 C 0 km/h
2144 12-03-2010 20:55:02 2.9 C 4.43 g/m*3 2.9 C 0 km/h
2145 12-03-2010 21:07:01 2.8 C 4.4 g/m*3 2.8 C 0 km/h
2146 12-03-2010 21:19:02 2.8 C 4.46 g/m*3 2.8 C 0 km/h
2147 12-03-2010 21:31:02 2.7 C 4.43 g/m*3 2.7 C 0 km/h
2148 12-03-2010 21:43:02 2.7 C 4.43 g/m*3 2.7 C 0 km/h
2149 12-03-2010 21:55:03 2.6 C 4.4 g/m*3 2.6 C 0 km/h
2150 12-03-2010 22:07:03 2.6 C 4.4 g/m*3 2.6 C 0 km/h
Sensor: Nr:Datum:Temp:Abs-Feuchte:Windchill:Wind:
Aussen-T/F 2151 12-03-2010 22:20:03 2.6 C 4.46 g/m*3 2.6 C 0 km/h
2152 12-03-2010 22:32:03 2.4 C 4.4 g/m*3 2.4 C 0 km/h
2153 12-03-2010 22:44:03 2.4 C 4.45 g/m*3 2.4 C 0 km/h
2154 12-03-2010 22:56:03 2.4 C 4.45 g/m*3 2.4 C 0 km/h
2155 12-03-2010 23:08:03 2.4 C 4.45 g/m*3 2.4 C 0 km/h
2156 12-03-2010 23:20:03 2.4 C 4.45 g/m*3 2.4 C 0 km/h
2157 12-03-2010 23:32:03 2.3 C 4.42 g/m*3 2.3 C 0 km/h
2158 12-03-2010 23:44:03 2.2 C 4.45 g/m*3 2.2 C 0 km/h
2159 12-03-2010 23:56:03 2.3 C 4.48 g/m*3 2.3 C 0 km/h
2160 13-03-2010 00:08:03 2.3 C 4.48 g/m*3 2.3 C 0 km/h
2161 13-03-2010 00:20:03 2.2 C 4.45 g/m*3 2.2 C 0 km/h
2162 13-03-2010 00:32:03 2.3 C 4.48 g/m*3 2.3 C 0 km/h
2163 13-03-2010 00:44:03 2.3 C 4.48 g/m*3 2.3 C 0 km/h
2164 13-03-2010 00:56:03 2.3 C 4.48 g/m*3 2.3 C 0 km/h
2165 13-03-2010 01:08:03 2.2 C 4.45 g/m*3 2.2 C 0 km/h
2166 13-03-2010 01:20:03 2.2 C 4.39 g/m*3 2.2 C 0 km/h
2167 13-03-2010 01:32:03 2.3 C 4.42 g/m*3 2.3 C 0 km/h
2168 13-03-2010 01:44:03 2.2 C 4.39 g/m*3 2.2 C 0 km/h
2169 13-03-2010 01:56:03 2.2 C 4.39 g/m*3 2.2 C 0 km/h
2170 13-03-2010 02:08:03 2.2 C 4.39 g/m*3 2.2 C 0 km/h
2171 13-03-2010 02:20:03 2.1 C 4.31 g/m*3 2.1 C 0 km/h
2172 13-03-2010 02:32:03 2.2 C 4.34 g/m*3 2.2 C 0 km/h
2173 13-03-2010 02:44:04 2.1 C 4.25 g/m*3 2.1 C 0 km/h
2174 13-03-2010 02:56:04 2.2 C 4.28 g/m*3 2.2 C 0 km/h
2175 13-03-2010 03:08:04 2.2 C 4.22 g/m*3 2.2 C 0 km/h
Sensor: Nr:Datum:Temp:Abs-Feuchte:Windchill:Wind:
Aussen-T/F 2176 13-03-2010 03:20:04 2.2 C 4.22 g/m*3 2.2 C 0 km/h
2177 13-03-2010 03:32:04 2.2 C 4.22 g/m*3 2.2 C 0 km/h
2178 13-03-2010 03:44:04 2 C 4.17 g/m*3 2 C 0 km/h
2179 13-03-2010 03:56:04 1.8 C 4.22 g/m*3 1.8 C 0 km/h
2180 13-03-2010 04:08:04 1.9 C 4.19 g/m*3 1.9 C 0 km/h
2181 13-03-2010 04:20:04 2 C 4.17 g/m*3 2 C 0 km/h
2182 13-03-2010 04:32:04 2 C 4.17 g/m*3 2 C 0 km/h
2183 13-03-2010 04:44:04 2 C 4.17 g/m*3 2 C 0 km/h
2184 13-03-2010 04:56:04 2 C 4.17 g/m*3 2 C 0 km/h
2185 13-03-2010 05:08:04 2 C 4.17 g/m*3 2 C 0 km/h
2186 13-03-2010 05:20:04 1.8 C 4.17 g/m*3 1.8 C 0 km/h
2187 13-03-2010 05:32:04 1.9 C 4.19 g/m*3 1.9 C 0 km/h
2188 13-03-2010 05:44:04 2 C 4.11 g/m*3 2 C 0 km/h
2189 13-03-2010 05:56:04 2 C 4.11 g/m*3 2 C 0 km/h
2190 13-03-2010 06:08:04 2 C 4.11 g/m*3 2 C 0 km/h
2191 13-03-2010 06:20:04 2.1 C 4.08 g/m*3 2.1 C 0 km/h
2192 13-03-2010 06:32:04 2.2 C 4.11 g/m*3 2.2 C 0 km/h
2193 13-03-2010 06:44:04 2.1 C 4.08 g/m*3 2.1 C 0 km/h
2194 13-03-2010 06:56:02 2.3 C 4.2 g/m*3 2.3 C 0 km/h
2195 13-03-2010 07:08:02 2.3 C 4.25 g/m*3 2.3 C 0 km/h
2196 13-03-2010 07:20:02 2.3 C 4.31 g/m*3 2.3 C 0 km/h
2197 13-03-2010 07:32:02 2.3 C 4.31 g/m*3 2.3 C 0 km/h
2198 13-03-2010 07:44:02 2.4 C 4.45 g/m*3 2.4 C 0 km/h
2199 13-03-2010 07:56:02 2.6 C 4.63 g/m*3 2.6 C 0 km/h
2200 13-03-2010 08:08:02 2.7 C 4.66 g/m*3 2.7 C 0 km/h
Sensor: Nr:Datum:Temp:Abs-Feuchte:Windchill:Wind:
Aussen-T/F 2201 13-03-2010 08:20:02 2.8 C 4.69 g/m*3 2.8 C 0 km/h
2202 13-03-2010 08:32:02 2.9 C 4.72 g/m*3 2.9 C 0 km/h
2203 13-03-2010 08:44:02 3.1 C 4.73 g/m*3 3.1 C 0 km/h
2204 13-03-2010 08:56:02 3.3 C 4.73 g/m*3 3.3 C 0 km/h
2205 13-03-2010 09:08:01 3.4 C 4.7 g/m*3 3.4 C 0 km/h
2206 13-03-2010 09:20:02 3.4 C 4.64 g/m*3 3.4 C 0 km/h
2207 13-03-2010 09:32:01 3.6 C 4.7 g/m*3 3.6 C 0 km/h
2208 13-03-2010 09:44:01 3.6 C 4.7 g/m*3 3.6 C 0 km/h
2209 13-03-2010 09:56:02 3.7 C 4.74 g/m*3 3.7 C 0 km/h
2210 13-03-2010 10:08:01 4 C 4.7 g/m*3 4 C 0 km/h
2211 13-03-2010 10:20:02 4.4 C 4.7 g/m*3 4.4 C 0 km/h
2212 13-03-2010 10:32:02 4.8 C 4.69 g/m*3 4.8 C 0 km/h
2213 13-03-2010 10:44:02 4.8 C 4.49 g/m*3 4.8 C 0 km/h
2214 13-03-2010 10:56:02 5 C 4.42 g/m*3 5 C 0 km/h
2215 13-03-2010 11:08:02 4.8 C 4.22 g/m*3 4.8 C 0 km/h
2216 13-03-2010 11:20:02 4.7 C 4.26 g/m*3 4.7 C 0 km/h
2217 13-03-2010 11:32:02 5.2 C 4.34 g/m*3 5.2 C 0 km/h
2218 13-03-2010 11:44:02 5.3 C 4.23 g/m*3 5.3 C 0 km/h
2219 13-03-2010 11:56:02 6 C 4.06 g/m*3 6 C 0 km/h
2220 13-03-2010 12:08:02 6.5 C 4.05 g/m*3 6.5 C 0 km/h
2221 13-03-2010 12:20:01 6.2 C 3.75 g/m*3 6.2 C 0 km/h
2222 13-03-2010 12:32:02 5.8 C 3.72 g/m*3 5.8 C 0 km/h
2223 13-03-2010 12:44:02 6.3 C 3.78 g/m*3 6.3 C 0 km/h
2224 13-03-2010 12:56:02 6.7 C 3.72 g/m*3 6.7 C 0 km/h
2225 13-03-2010 13:08:02 6.3 C 3.7 g/m*3 6.3 C 0 km/h
Sensor: Nr:Datum:Temp:Abs-Feuchte:Windchill:Wind:
Aussen-T/F 2226 13-03-2010 13:20:02 6 C 3.7 g/m*3 6 C 0 km/h
2227 13-03-2010 13:32:02 5.8 C 3.94 g/m*3 5.8 C 0 km/h
2228 13-03-2010 13:44:02 5.8 C 4.01 g/m*3 5.8 C 0 km/h
2229 13-03-2010 13:56:02 6.1 C 4.16 g/m*3 6.1 C 0 km/h
2230 13-03-2010 14:08:02 6.3 C 4.07 g/m*3 6.3 C 0 km/h
2231 13-03-2010 14:20:02 6.3 C 4.07 g/m*3 6.3 C 0 km/h
2232 13-03-2010 14:32:02 6.1 C 4.02 g/m*3 6.1 C 0 km/h
2233 13-03-2010 14:44:02 6.2 C 3.97 g/m*3 6.2 C 0 km/h
2234 13-03-2010 14:56:02 6.3 C 4 g/m*3 6.3 C 0 km/h
2235 13-03-2010 15:08:02 6.5 C 4.05 g/m*3 6.5 C 0 km/h
2236 13-03-2010 15:20:02 6.5 C 3.9 g/m*3 6.5 C 0 km/h
2237 13-03-2010 15:32:02 6.5 C 3.9 g/m*3 6.5 C 0 km/h
2238 13-03-2010 15:44:02 6.7 C 4.03 g/m*3 6.7 C 0 km/h
2239 13-03-2010 15:56:02 6.6 C 3.93 g/m*3 6.6 C 0 km/h
2240 13-03-2010 16:08:02 6.6 C 3.93 g/m*3 6.6 C 0 km/h
2241 13-03-2010 16:20:03 6.5 C 3.9 g/m*3 6.5 C 0 km/h
2242 13-03-2010 16:32:02 6.5 C 3.9 g/m*3 6.5 C 0 km/h
2243 13-03-2010 16:44:02 6.4 C 3.87 g/m*3 6.4 C 0 km/h
2244 13-03-2010 16:56:02 6.4 C 3.95 g/m*3 6.4 C 0 km/h
2245 13-03-2010 17:08:02 6.4 C 3.95 g/m*3 6.4 C 0 km/h
2246 13-03-2010 17:20:02 6.3 C 3.92 g/m*3 6.3 C 0 km/h
2247 13-03-2010 17:32:02 6.3 C 4 g/m*3 6.3 C 0 km/h
2248 13-03-2010 17:44:02 6.2 C 3.97 g/m*3 6.2 C 0 km/h
2249 13-03-2010 17:56:02 6.2 C 3.97 g/m*3 6.2 C 0 km/h
2250 13-03-2010 18:08:02 6.2 C 3.97 g/m*3 6.2 C 0 km/h
Sensor: Nr:Datum:Temp:Abs-Feuchte:Windchill:Wind:
Aussen-T/F 2251 13-03-2010 18:20:02 6.1 C 3.95 g/m*3 6.1 C 0 km/h
2252 13-03-2010 18:32:01 6.1 C 3.95 g/m*3 6.1 C 0 km/h
2253 13-03-2010 18:44:01 6 C 3.92 g/m*3 6 C 0 km/h
2254 13-03-2010 18:56:02 6.1 C 3.95 g/m*3 6.1 C 0 km/h
2255 13-03-2010 19:08:01 6 C 3.92 g/m*3 6 C 0 km/h
2256 13-03-2010 19:20:02 6 C 3.99 g/m*3 6 C 0 km/h
2257 13-03-2010 19:32:02 6 C 3.99 g/m*3 6 C 0 km/h
2258 13-03-2010 19:44:02 6 C 3.99 g/m*3 6 C 0 km/h
2259 13-03-2010 19:56:02 6 C 3.99 g/m*3 6 C 0 km/h
2260 13-03-2010 20:08:01 5.8 C 4.08 g/m*3 5.8 C 0 km/h
2261 13-03-2010 20:20:01 5.8 C 4.23 g/m*3 5.8 C 0 km/h
2262 13-03-2010 20:32:02 5.5 C 4.28 g/m*3 5.5 C 0 km/h
2263 13-03-2010 20:44:02 5.5 C 4.42 g/m*3 5.5 C 0 km/h
2264 13-03-2010 20:56:02 5.6 C 4.45 g/m*3 5.6 C 0 km/h
2265 13-03-2010 21:08:02 5.6 C 4.45 g/m*3 5.6 C 0 km/h
2266 13-03-2010 21:20:02 5.5 C 4.35 g/m*3 5.5 C 0 km/h
2267 13-03-2010 21:32:02 5.6 C 4.17 g/m*3 5.6 C 0 km/h
2268 13-03-2010 21:44:02 5.5 C 4.07 g/m*3 5.5 C 0 km/h
2269 13-03-2010 21:56:01 5.4 C 4.05 g/m*3 5.4 C 0 km/h
2270 13-03-2010 22:08:02 5.3 C 4.02 g/m*3 5.3 C 0 km/h
2271 13-03-2010 22:21:03 5.2 C 4.13 g/m*3 5.2 C 0 km/h
2272 13-03-2010 22:33:04 5 C 4.21 g/m*3 5 C 0 km/h
2273 13-03-2010 22:45:04 5 C 4.08 g/m*3 5 C 0 km/h
2274 13-03-2010 22:57:04 5.2 C 3.79 g/m*3 5.2 C 0 km/h
2275 13-03-2010 23:09:04 5.1 C 3.63 g/m*3 5.1 C 0 km/h
Sensor: Nr:Datum:Temp:Abs-Feuchte:Windchill:Wind:
Aussen-T/F 2276 13-03-2010 23:21:04 5.1 C 3.63 g/m*3 5.1 C 0 km/h
2277 13-03-2010 23:33:04 5.1 C 3.63 g/m*3 5.1 C 0 km/h
2278 13-03-2010 23:45:04 5 C 3.67 g/m*3 5 C 0 km/h
2279 13-03-2010 23:57:04 4.9 C 3.71 g/m*3 4.9 C 0 km/h
2280 14-03-2010 00:09:04 4.8 C 3.62 g/m*3 4.8 C 0 km/h
2281 14-03-2010 00:21:04 4.7 C 3.6 g/m*3 4.7 C 0 km/h
2282 14-03-2010 00:33:04 4.7 C 3.6 g/m*3 4.7 C 0 km/h
2283 14-03-2010 00:45:04 4.7 C 3.6 g/m*3 4.7 C 0 km/h
2284 14-03-2010 00:57:04 4.6 C 3.57 g/m*3 4.6 C 0 km/h
2285 14-03-2010 01:09:04 4.6 C 3.64 g/m*3 4.6 C 0 km/h
2286 14-03-2010 01:21:04 4.5 C 3.68 g/m*3 4.5 C 0 km/h
2287 14-03-2010 01:33:04 4.4 C 3.66 g/m*3 4.4 C 0 km/h
2288 14-03-2010 01:45:04 4.3 C 3.7 g/m*3 4.3 C 0 km/h
2289 14-03-2010 01:57:04 4.3 C 3.76 g/m*3 4.3 C 0 km/h
2290 14-03-2010 02:09:04 4.3 C 3.76 g/m*3 4.3 C 0 km/h
2291 14-03-2010 02:21:04 4.3 C 3.83 g/m*3 4.3 C 0 km/h
2292 14-03-2010 02:33:04 4.3 C 3.83 g/m*3 4.3 C 0 km/h
2293 14-03-2010 02:45:05 4.2 C 3.8 g/m*3 4.2 C 0 km/h
2294 14-03-2010 02:57:05 4.3 C 3.83 g/m*3 4.3 C 0 km/h
2295 14-03-2010 03:09:05 4.3 C 3.89 g/m*3 4.3 C 0 km/h
2296 14-03-2010 03:21:05 4.3 C 3.89 g/m*3 4.3 C 0 km/h
2297 14-03-2010 03:33:05 4.4 C 3.85 g/m*3 4.4 C 0 km/h
2298 14-03-2010 03:45:05 4.4 C 3.85 g/m*3 4.4 C 0 km/h
2299 14-03-2010 03:57:05 4.4 C 3.85 g/m*3 4.4 C 0 km/h
2300 14-03-2010 04:09:05 4.4 C 3.85 g/m*3 4.4 C 0 km/h
Sensor: Nr:Datum:Temp:Abs-Feuchte:Windchill:Wind:
Aussen-T/F 2301 14-03-2010 04:21:05 4.5 C 3.88 g/m*3 4.5 C 0 km/h
2302 14-03-2010 04:33:05 4.4 C 3.92 g/m*3 4.4 C 0 km/h
2303 14-03-2010 04:45:05 4.4 C 3.92 g/m*3 4.4 C 0 km/h
2304 14-03-2010 04:57:05 4.3 C 3.96 g/m*3 4.3 C 0 km/h
2305 14-03-2010 05:09:05 4.3 C 4.02 g/m*3 4.3 C 0 km/h
2306 14-03-2010 05:21:05 4.3 C 4.02 g/m*3 4.3 C 0 km/h
2307 14-03-2010 05:33:05 4.3 C 4.02 g/m*3 4.3 C 0 km/h
2308 14-03-2010 05:45:05 4.2 C 3.99 g/m*3 4.2 C 0 km/h
2309 14-03-2010 05:57:05 4.2 C 3.99 g/m*3 4.2 C 0 km/h
2310 14-03-2010 06:09:05 4.3 C 4.02 g/m*3 4.3 C 0 km/h
2311 14-03-2010 06:21:05 4.2 C 3.99 g/m*3 4.2 C 0 km/h
2312 14-03-2010 06:33:05 4.2 C 3.99 g/m*3 4.2 C 0 km/h
2313 14-03-2010 06:45:06 4.2 C 3.99 g/m*3 4.2 C 0 km/h
2314 14-03-2010 06:57:06 4.2 C 4.06 g/m*3 4.2 C 0 km/h
2315 14-03-2010 07:09:06 4.3 C 4.02 g/m*3 4.3 C 0 km/h
2316 14-03-2010 07:21:06 4.3 C 4.02 g/m*3 4.3 C 0 km/h
2317 14-03-2010 07:33:06 4.5 C 4.08 g/m*3 4.5 C 0 km/h
2318 14-03-2010 07:45:06 4.6 C 4.04 g/m*3 4.6 C 0 km/h
2319 14-03-2010 07:57:06 4.7 C 4 g/m*3 4.7 C 0 km/h
2320 14-03-2010 08:09:06 4.8 C 3.96 g/m*3 4.8 C 0 km/h
2321 14-03-2010 08:21:06 4.9 C 3.92 g/m*3 4.9 C 0 km/h
2322 14-03-2010 08:33:06 5.2 C 3.86 g/m*3 5.2 C 0 km/h
2323 14-03-2010 08:45:01 5.3 C 3.81 g/m*3 5.3 C 0 km/h
2324 14-03-2010 08:57:01 5.4 C 3.77 g/m*3 5.4 C 0 km/h
2325 14-03-2010 09:09:02 5.6 C 3.82 g/m*3 5.6 C 0 km/h
Sensor: Nr:Datum:Temp:Abs-Feuchte:Windchill:Wind:
Aussen-T/F 2326 14-03-2010 09:21:01 5.7 C 3.77 g/m*3 5.7 C 0 km/h
2327 14-03-2010 09:33:02 6 C 3.7 g/m*3 6 C 0 km/h
2328 14-03-2010 09:45:02 5.9 C 3.75 g/m*3 5.9 C 0 km/h
2329 14-03-2010 09:57:02 6 C 3.77 g/m*3 6 C 0 km/h
2330 14-03-2010 10:09:02 6.3 C 3.78 g/m*3 6.3 C 0 km/h
2331 14-03-2010 10:21:02 6.5 C 3.75 g/m*3 6.5 C 0 km/h
2332 14-03-2010 10:33:02 6.8 C 3.82 g/m*3 6.8 C 0 km/h
2333 14-03-2010 10:45:02 7 C 3.64 g/m*3 7 C 0 km/h
2334 14-03-2010 10:57:02 6.9 C 3.7 g/m*3 6.9 C 0 km/h
2335 14-03-2010 11:09:02 7.2 C 3.69 g/m*3 7.2 C 0 km/h
2336 14-03-2010 11:21:02 7.5 C 3.76 g/m*3 7.5 C 0 km/h
2337 14-03-2010 11:33:02 7.4 C 3.66 g/m*3 7.4 C 0 km/h
2338 14-03-2010 11:45:01 7.5 C 3.76 g/m*3 7.5 C 0 km/h
2339 14-03-2010 11:57:01 7.6 C 3.63 g/m*3 7.6 C 0 km/h
2340 14-03-2010 12:09:02 7.8 C 3.51 g/m*3 7.8 C 0 km/h
2341 14-03-2010 12:21:01 7.8 C 3.43 g/m*3 7.8 C 0 km/h
2342 14-03-2010 12:33:01 7.7 C 3.49 g/m*3 7.7 C 0 km/h
2343 14-03-2010 12:45:01 7.6 C 3.54 g/m*3 7.6 C 0 km/h
2344 14-03-2010 12:57:01 7.6 C 3.63 g/m*3 7.6 C 0 km/h
2345 14-03-2010 13:09:02 7.6 C 3.63 g/m*3 7.6 C 0 km/h
2346 14-03-2010 13:21:01 7.7 C 3.73 g/m*3 7.7 C 0 km/h
2347 14-03-2010 13:33:02 7.7 C 3.73 g/m*3 7.7 C 0 km/h
2348 14-03-2010 13:45:02 7.5 C 3.76 g/m*3 7.5 C 0 km/h
2349 14-03-2010 13:57:02 7.5 C 3.76 g/m*3 7.5 C 0 km/h
2350 14-03-2010 14:09:02 7.4 C 3.74 g/m*3 7.4 C 0 km/h
Sensor: Nr:Datum:Temp:Abs-Feuchte:Windchill:Wind:
Aussen-T/F 2351 14-03-2010 14:21:01 7.3 C 3.79 g/m*3 7.3 C 0 km/h
2352 14-03-2010 14:33:02 7.4 C 3.82 g/m*3 7.4 C 0 km/h
2353 14-03-2010 14:45:02 7.5 C 3.84 g/m*3 7.5 C 0 km/h
2354 14-03-2010 14:57:02 7.5 C 3.84 g/m*3 7.5 C 0 km/h
2355 14-03-2010 15:09:02 7.7 C 3.89 g/m*3 7.7 C 0 km/h
2356 14-03-2010 15:21:02 7.7 C 3.89 g/m*3 7.7 C 0 km/h
2357 14-03-2010 15:33:02 7.8 C 3.84 g/m*3 7.8 C 0 km/h
2358 14-03-2010 15:45:02 7.8 C 3.92 g/m*3 7.8 C 0 km/h
2359 14-03-2010 15:57:02 7.7 C 3.97 g/m*3 7.7 C 0 km/h
2360 14-03-2010 16:09:02 7.6 C 3.95 g/m*3 7.6 C 0 km/h
2361 14-03-2010 16:21:02 7.3 C 4.03 g/m*3 7.3 C 0 km/h
2362 14-03-2010 16:33:02 7.2 C 4.08 g/m*3 7.2 C 0 km/h
2363 14-03-2010 16:45:02 6.9 C 4.31 g/m*3 6.9 C 0 km/h
2364 14-03-2010 16:57:02 6.5 C 4.27 g/m*3 6.5 C 0 km/h
2365 14-03-2010 17:09:02 6.4 C 4.47 g/m*3 6.4 C 0 km/h
2366 14-03-2010 17:21:02 6.7 C 4.18 g/m*3 6.7 C 0 km/h
2367 14-03-2010 17:33:02 6.8 C 4.21 g/m*3 6.8 C 0 km/h
2368 14-03-2010 17:45:02 6.6 C 4.23 g/m*3 6.6 C 0 km/h
2369 14-03-2010 17:57:02 6.4 C 4.32 g/m*3 6.4 C 0 km/h
2370 14-03-2010 18:09:02 6.4 C 4.4 g/m*3 6.4 C 0 km/h
2371 14-03-2010 18:21:02 6.2 C 4.49 g/m*3 6.2 C 0 km/h
2372 14-03-2010 18:33:02 5.9 C 4.61 g/m*3 5.9 C 0 km/h
2373 14-03-2010 18:45:02 5.7 C 4.84 g/m*3 5.7 C 0 km/h
2374 14-03-2010 18:57:02 5.4 C 4.95 g/m*3 5.4 C 0 km/h
2375 14-03-2010 19:09:01 5.4 C 4.95 g/m*3 5.4 C 0 km/h
Sensor: Nr:Datum:Temp:Abs-Feuchte:Windchill:Wind:
Aussen-T/F 2376 14-03-2010 19:21:02 5.4 C 4.95 g/m*3 5.4 C 0 km/h
2377 14-03-2010 19:33:01 5.6 C 5.02 g/m*3 5.6 C 0 km/h
2378 14-03-2010 19:45:02 5.7 C 4.98 g/m*3 5.7 C 0 km/h
2379 14-03-2010 19:57:02 5.8 C 4.94 g/m*3 5.8 C 0 km/h
2380 14-03-2010 20:09:01 5.7 C 4.91 g/m*3 5.7 C 0 km/h
2381 14-03-2010 20:21:02 5.7 C 4.84 g/m*3 5.7 C 0 km/h
2382 14-03-2010 20:33:01 5.7 C 4.77 g/m*3 5.7 C 0 km/h
2383 14-03-2010 20:45:02 5.8 C 4.73 g/m*3 5.8 C 0 km/h
2384 14-03-2010 20:57:02 5.7 C 4.63 g/m*3 5.7 C 0 km/h
2385 14-03-2010 21:09:02 5.7 C 4.55 g/m*3 5.7 C 0 km/h
2386 14-03-2010 21:21:02 5.7 C 4.55 g/m*3 5.7 C 0 km/h
2387 14-03-2010 21:33:02 5.9 C 4.4 g/m*3 5.9 C 0 km/h
2388 14-03-2010 21:46:05 5.8 C 4.37 g/m*3 5.8 C 0 km/h
2389 14-03-2010 21:58:06 5.8 C 4.3 g/m*3 5.8 C 0 km/h
2390 14-03-2010 22:10:06 5.8 C 4.3 g/m*3 5.8 C 0 km/h
2391 14-03-2010 22:22:06 5.9 C 4.33 g/m*3 5.9 C 0 km/h
2392 14-03-2010 22:34:06 5.8 C 4.3 g/m*3 5.8 C 0 km/h
2393 14-03-2010 22:46:06 5.9 C 4.33 g/m*3 5.9 C 0 km/h
2394 14-03-2010 22:58:06 5.9 C 4.33 g/m*3 5.9 C 0 km/h
2395 14-03-2010 23:10:06 6.1 C 4.31 g/m*3 6.1 C 0 km/h
2396 14-03-2010 23:22:06 6 C 4.5 g/m*3 6 C 0 km/h
2397 14-03-2010 23:34:06 5.8 C 4.58 g/m*3 5.8 C 0 km/h
2398 14-03-2010 23:46:06 6.1 C 4.75 g/m*3 6.1 C 0 km/h
2399 14-03-2010 23:58:06 5.7 C 4.77 g/m*3 5.7 C 0 km/h
2400 15-03-2010 00:10:06 5.8 C 4.73 g/m*3 5.8 C 0 km/h
Sensor: Nr:Datum:Temp:Abs-Feuchte:Windchill:Wind:
Aussen-T/F 2401 15-03-2010 00:22:06 5.8 C 4.73 g/m*3 5.8 C 0 km/h
2402 15-03-2010 00:34:06 5.9 C 4.76 g/m*3 5.9 C 0 km/h
2403 15-03-2010 00:46:06 5.8 C 4.8 g/m*3 5.8 C 0 km/h
2404 15-03-2010 00:58:06 5.8 C 4.73 g/m*3 5.8 C 0 km/h
2405 15-03-2010 01:10:06 5.8 C 4.73 g/m*3 5.8 C 0 km/h
2406 15-03-2010 01:22:06 5.8 C 4.73 g/m*3 5.8 C 0 km/h
2407 15-03-2010 01:34:06 5.7 C 4.63 g/m*3 5.7 C 0 km/h
2408 15-03-2010 01:46:06 5.7 C 4.7 g/m*3 5.7 C 0 km/h
2409 15-03-2010 01:58:07 5.7 C 4.77 g/m*3 5.7 C 0 km/h
2410 15-03-2010 02:10:07 5.4 C 4.81 g/m*3 5.4 C 0 km/h
2411 15-03-2010 02:22:07 5.2 C 4.82 g/m*3 5.2 C 0 km/h
2412 15-03-2010 02:34:07 4.9 C 4.93 g/m*3 4.9 C 0 km/h
2413 15-03-2010 02:46:07 4.8 C 5.03 g/m*3 4.8 C 0 km/h
2414 15-03-2010 02:58:07 4.7 C 5 g/m*3 4.7 C 0 km/h
2415 15-03-2010 03:10:07 5 C 4.76 g/m*3 5 C 0 km/h
2416 15-03-2010 03:22:07 5 C 4.69 g/m*3 5 C 0 km/h
2417 15-03-2010 03:34:07 4.9 C 4.79 g/m*3 4.9 C 0 km/h
2418 15-03-2010 03:46:07 4.8 C 4.69 g/m*3 4.8 C 0 km/h
2419 15-03-2010 03:58:07 4.7 C 4.73 g/m*3 4.7 C 0 km/h
2420 15-03-2010 04:10:07 4.6 C 4.63 g/m*3 4.6 C 0 km/h
2421 15-03-2010 04:22:07 4.6 C 4.63 g/m*3 4.6 C 0 km/h
2422 15-03-2010 04:34:07 4.6 C 4.63 g/m*3 4.6 C 0 km/h
2423 15-03-2010 04:46:07 4.6 C 4.57 g/m*3 4.6 C 0 km/h
2424 15-03-2010 04:58:07 4.7 C 4.6 g/m*3 4.7 C 0 km/h
2425 15-03-2010 05:10:07 4.6 C 4.5 g/m*3 4.6 C 0 km/h
Sensor: Nr:Datum:Temp:Abs-Feuchte:Windchill:Wind:
Aussen-T/F 2426 15-03-2010 05:22:07 4.6 C 4.57 g/m*3 4.6 C 0 km/h
2427 15-03-2010 05:34:07 4.6 C 4.43 g/m*3 4.6 C 0 km/h
2428 15-03-2010 05:46:07 4.7 C 4.33 g/m*3 4.7 C 0 km/h
2429 15-03-2010 05:58:07 4.7 C 4.33 g/m*3 4.7 C 0 km/h
2430 15-03-2010 06:10:08 4.7 C 4.26 g/m*3 4.7 C 0 km/h
2431 15-03-2010 06:22:03 4.7 C 4.2 g/m*3 4.7 C 0 km/h
2432 15-03-2010 06:34:04 4.6 C 4.17 g/m*3 4.6 C 0 km/h
2433 15-03-2010 06:46:02 4.6 C 4.23 g/m*3 4.6 C 0 km/h
2434 15-03-2010 06:58:02 4.7 C 4.2 g/m*3 4.7 C 0 km/h
2435 15-03-2010 07:10:02 4.4 C 4.37 g/m*3 4.4 C 0 km/h
2436 15-03-2010 07:22:02 4 C 4.64 g/m*3 4 C 0 km/h
2437 15-03-2010 07:34:02 3.7 C 4.86 g/m*3 3.7 C 0 km/h
2438 15-03-2010 07:46:02 3.6 C 4.95 g/m*3 3.6 C 0 km/h
2439 15-03-2010 07:58:02 3.7 C 5.11 g/m*3 3.7 C 0 km/h
2440 15-03-2010 08:10:02 3.8 C 5.21 g/m*3 3.8 C 0 km/h
2441 15-03-2010 08:22:02 3.7 C 5.23 g/m*3 3.7 C 0 km/h
2442 15-03-2010 08:34:02 3.8 C 5.33 g/m*3 3.8 C 0 km/h
2443 15-03-2010 08:46:02 4 C 5.4 g/m*3 4 C 0 km/h
2444 15-03-2010 08:58:02 4.2 C 5.54 g/m*3 4.2 C 0 km/h
2445 15-03-2010 09:10:02 4.3 C 5.51 g/m*3 4.3 C 0 km/h
2446 15-03-2010 09:22:02 4.3 C 5.51 g/m*3 4.3 C 0 km/h
2447 15-03-2010 09:34:02 4.4 C 5.55 g/m*3 4.4 C 0 km/h
2448 15-03-2010 09:46:02 4.6 C 5.62 g/m*3 4.6 C 0 km/h
2449 15-03-2010 09:58:02 4.5 C 5.52 g/m*3 4.5 C 0 km/h
2450 15-03-2010 10:10:02 4.5 C 5.52 g/m*3 4.5 C 0 km/h
Sensor: Nr:Datum:Temp:Abs-Feuchte:Windchill:Wind:
Aussen-T/F 2451 15-03-2010 10:22:02 4.6 C 5.56 g/m*3 4.6 C 0 km/h
2452 15-03-2010 10:34:02 5.1 C 5.61 g/m*3 5.1 C 0 km/h
2453 15-03-2010 10:46:02 5.5 C 5.48 g/m*3 5.5 C 0 km/h
2454 15-03-2010 10:58:02 6 C 5.44 g/m*3 6 C 0 km/h
2455 15-03-2010 11:10:02 5.9 C 5.26 g/m*3 5.9 C 0 km/h
2456 15-03-2010 11:22:02 6 C 5.08 g/m*3 6 C 0 km/h
2457 15-03-2010 11:34:01 5.9 C 5.05 g/m*3 5.9 C 0 km/h
2458 15-03-2010 11:46:02 5.9 C 4.98 g/m*3 5.9 C 0 km/h
2459 15-03-2010 11:58:02 6 C 4.94 g/m*3 6 C 0 km/h
2460 15-03-2010 12:10:01 6 C 4.79 g/m*3 6 C 0 km/h
2461 15-03-2010 12:22:02 6.6 C 4.98 g/m*3 6.6 C 0 km/h
2462 15-03-2010 12:34:01 7.4 C 4.85 g/m*3 7.4 C 0 km/h
2463 15-03-2010 12:46:02 7.8 C 4.98 g/m*3 7.8 C 0 km/h
2464 15-03-2010 12:58:02 8.5 C 4.87 g/m*3 8.5 C 0 km/h
2465 15-03-2010 13:10:02 9.3 C 4.67 g/m*3 9.3 C 0 km/h
2466 15-03-2010 13:22:02 9 C 4.58 g/m*3 9 C 0 km/h
2467 15-03-2010 13:34:02 9.4 C 4.61 g/m*3 9.4 C 0 km/h
2468 15-03-2010 13:46:02 9.9 C 4.58 g/m*3 9.9 C 0 km/h
2469 15-03-2010 13:58:03 9.7 C 4.33 g/m*3 9.7 C 0 km/h
2470 15-03-2010 14:10:01 10.1 C 4.35 g/m*3 10.1 C 0 km/h
2471 15-03-2010 14:22:01 10 C 4.04 g/m*3 10 C 0 km/h
2472 15-03-2010 14:34:02 10.4 C 3.95 g/m*3 10.4 C 0 km/h
2473 15-03-2010 14:46:02 10.5 C 4.07 g/m*3 10.5 C 0 km/h
2474 15-03-2010 14:58:02 10.3 C 4.02 g/m*3 10.3 C 0 km/h
2475 15-03-2010 15:10:01 10.4 C 4.05 g/m*3 10.4 C 0 km/h
Sensor: Nr:Datum:Temp:Abs-Feuchte:Windchill:Wind:
Aussen-T/F 2476 15-03-2010 15:22:02 11 C 4.1 g/m*3 11 C 0 km/h
2477 15-03-2010 15:34:02 10.5 C 3.98 g/m*3 10.5 C 0 km/h
2478 15-03-2010 15:46:02 10.4 C 4.05 g/m*3 10.4 C 0 km/h
2479 15-03-2010 15:58:02 10.1 C 4.07 g/m*3 10.1 C 0 km/h
2480 15-03-2010 16:10:03 9.9 C 4.2 g/m*3 9.9 C 0 km/h
2481 15-03-2010 16:22:02 10 C 4.23 g/m*3 10 C 0 km/h
2482 15-03-2010 16:34:02 9.9 C 4.29 g/m*3 9.9 C 0 km/h
2483 15-03-2010 16:46:01 9.8 C 4.27 g/m*3 9.8 C 0 km/h
2484 15-03-2010 16:58:01 9.7 C 4.43 g/m*3 9.7 C 0 km/h
2485 15-03-2010 17:10:02 9.6 C 4.4 g/m*3 9.6 C 0 km/h
2486 15-03-2010 17:22:01 9.2 C 4.55 g/m*3 9.2 C 0 km/h
2487 15-03-2010 17:34:01 8.6 C 4.98 g/m*3 8.6 C 0 km/h
2488 15-03-2010 17:46:01 8.3 C 5.06 g/m*3 8.3 C 0 km/h
2489 15-03-2010 17:58:01 8.2 C 4.94 g/m*3 8.2 C 0 km/h
2490 15-03-2010 18:10:02 8.2 C 5.11 g/m*3 8.2 C 0 km/h
2491 15-03-2010 18:22:01 8.1 C 5.16 g/m*3 8.1 C 0 km/h
2492 15-03-2010 18:34:02 8 C 5.21 g/m*3 8 C 0 km/h
2493 15-03-2010 18:46:01 8.1 C 5.08 g/m*3 8.1 C 0 km/h
2494 15-03-2010 18:58:01 7.7 C 5.27 g/m*3 7.7 C 0 km/h
2495 15-03-2010 19:10:02 7.5 C 5.36 g/m*3 7.5 C 0 km/h
2496 15-03-2010 19:22:01 7.2 C 5.42 g/m*3 7.2 C 0 km/h
2497 15-03-2010 19:34:02 7.1 C 5.46 g/m*3 7.1 C 0 km/h
2498 15-03-2010 19:46:01 7 C 5.5 g/m*3 7 C 0 km/h
2499 15-03-2010 19:58:01 7 C 5.58 g/m*3 7 C 0 km/h
2500 15-03-2010 20:10:02 6.7 C 5.77 g/m*3 6.7 C 0 km/h
Sensor: Nr:Datum:Temp:Abs-Feuchte:Windchill:Wind:
Aussen-T/F 2501 15-03-2010 20:22:01 6.8 C 5.81 g/m*3 6.8 C 0 km/h
2502 15-03-2010 20:34:02 6.9 C 5.62 g/m*3 6.9 C 0 km/h
2503 15-03-2010 20:46:01 6.8 C 5.58 g/m*3 6.8 C 0 km/h
2504 15-03-2010 20:58:01 6.8 C 5.58 g/m*3 6.8 C 0 km/h
2505 15-03-2010 21:10:02 6.9 C 5.47 g/m*3 6.9 C 0 km/h
2506 15-03-2010 21:22:02 6.6 C 5.59 g/m*3 6.6 C 0 km/h
2507 15-03-2010 21:34:02 6.4 C 5.66 g/m*3 6.4 C 0 km/h
2508 15-03-2010 21:46:01 6.3 C 5.85 g/m*3 6.3 C 0 km/h
2509 15-03-2010 21:58:01 6.2 C 5.81 g/m*3 6.2 C 0 km/h
2510 15-03-2010 22:10:01 6.1 C 5.77 g/m*3 6.1 C 0 km/h
2511 15-03-2010 22:23:02 6 C 5.73 g/m*3 6 C 0 km/h
2512 15-03-2010 22:35:02 6 C 5.88 g/m*3 6 C 0 km/h
2513 15-03-2010 22:47:02 5.8 C 5.95 g/m*3 5.8 C 0 km/h
2514 15-03-2010 22:59:02 5.8 C 6.02 g/m*3 5.8 C 0 km/h
2515 15-03-2010 23:11:02 5.7 C 6.05 g/m*3 5.7 C 0 km/h
2516 15-03-2010 23:23:02 5.6 C 6.08 g/m*3 5.6 C 0 km/h
2517 15-03-2010 23:35:03 5.5 C 6.11 g/m*3 5.5 C 0 km/h
2518 15-03-2010 23:47:03 5.5 C 6.11 g/m*3 5.5 C 0 km/h
2519 15-03-2010 23:59:03 5.4 C 6.07 g/m*3 5.4 C 0 km/h
2520 16-03-2010 00:11:03 5.4 C 6.14 g/m*3 5.4 C 0 km/h
2521 16-03-2010 00:23:03 5.4 C 6.14 g/m*3 5.4 C 0 km/h
2522 16-03-2010 00:35:03 5.3 C 6.1 g/m*3 5.3 C 0 km/h
2523 16-03-2010 00:47:03 5.2 C 6.13 g/m*3 5.2 C 0 km/h
2524 16-03-2010 00:59:03 5.1 C 6.09 g/m*3 5.1 C 0 km/h
2525 16-03-2010 01:11:03 5 C 5.98 g/m*3 5 C 0 km/h
Sensor: Nr:Datum:Temp:Abs-Feuchte:Windchill:Wind:
Aussen-T/F 2526 16-03-2010 01:23:03 5 C 6.05 g/m*3 5 C 0 km/h
2527 16-03-2010 01:35:03 5 C 6.05 g/m*3 5 C 0 km/h
2528 16-03-2010 01:47:03 5 C 6.05 g/m*3 5 C 0 km/h
2529 16-03-2010 01:59:03 5 C 6.05 g/m*3 5 C 0 km/h
2530 16-03-2010 02:11:03 5 C 6.12 g/m*3 5 C 0 km/h
2531 16-03-2010 02:23:03 4.9 C 6.08 g/m*3 4.9 C 0 km/h
2532 16-03-2010 02:35:03 4.9 C 6.08 g/m*3 4.9 C 0 km/h
2533 16-03-2010 02:47:03 4.9 C 6.08 g/m*3 4.9 C 0 km/h
2534 16-03-2010 02:59:03 4.8 C 5.97 g/m*3 4.8 C 0 km/h
2535 16-03-2010 03:11:03 4.8 C 5.97 g/m*3 4.8 C 0 km/h
2536 16-03-2010 03:23:03 4.7 C 5.93 g/m*3 4.7 C 0 km/h
2537 16-03-2010 03:35:04 4.8 C 6.04 g/m*3 4.8 C 0 km/h
2538 16-03-2010 03:47:04 4.8 C 6.04 g/m*3 4.8 C 0 km/h
2539 16-03-2010 03:59:04 4.8 C 6.1 g/m*3 4.8 C 0 km/h
2540 16-03-2010 04:11:04 4.8 C 6.1 g/m*3 4.8 C 0 km/h
2541 16-03-2010 04:23:04 4.8 C 6.1 g/m*3 4.8 C 0 km/h
2542 16-03-2010 04:35:04 4.7 C 6.06 g/m*3 4.7 C 0 km/h
2543 16-03-2010 04:47:04 4.8 C 6.1 g/m*3 4.8 C 0 km/h
2544 16-03-2010 04:59:04 4.7 C 6.06 g/m*3 4.7 C 0 km/h
2545 16-03-2010 05:11:04 4.7 C 6.06 g/m*3 4.7 C 0 km/h
2546 16-03-2010 05:23:04 4.7 C 6.13 g/m*3 4.7 C 0 km/h
2547 16-03-2010 05:35:04 4.7 C 6.13 g/m*3 4.7 C 0 km/h
2548 16-03-2010 05:47:04 4.6 C 6.02 g/m*3 4.6 C 0 km/h
2549 16-03-2010 05:59:04 4.6 C 6.02 g/m*3 4.6 C 0 km/h
2550 16-03-2010 06:11:04 4.6 C 6.02 g/m*3 4.6 C 0 km/h
Sensor: Nr:Datum:Temp:Abs-Feuchte:Windchill:Wind:
Aussen-T/F 2551 16-03-2010 06:23:04 4.6 C 5.96 g/m*3 4.6 C 0 km/h
2552 16-03-2010 06:35:04 4.6 C 5.96 g/m*3 4.6 C 0 km/h
2553 16-03-2010 06:47:04 4.7 C 6.06 g/m*3 4.7 C 0 km/h
2554 16-03-2010 06:59:04 4.7 C 6.06 g/m*3 4.7 C 0 km/h
2555 16-03-2010 07:11:02 4.7 C 6.06 g/m*3 4.7 C 0 km/h
2556 16-03-2010 07:23:01 4.8 C 6.1 g/m*3 4.8 C 0 km/h
2557 16-03-2010 07:35:02 4.9 C 6.21 g/m*3 4.9 C 0 km/h
2558 16-03-2010 07:47:02 5 C 6.18 g/m*3 5 C 0 km/h
2559 16-03-2010 07:59:02 5 C 6.18 g/m*3 5 C 0 km/h
2560 16-03-2010 08:11:02 5 C 6.18 g/m*3 5 C 0 km/h
2561 16-03-2010 08:23:02 5.1 C 6.22 g/m*3 5.1 C 0 km/h
2562 16-03-2010 08:35:02 5.3 C 6.31 g/m*3 5.3 C 0 km/h
2563 16-03-2010 08:47:02 5.3 C 6.24 g/m*3 5.3 C 0 km/h
2564 16-03-2010 08:59:02 5.5 C 6.32 g/m*3 5.5 C 0 km/h
2565 16-03-2010 09:11:01 5.7 C 6.4 g/m*3 5.7 C 0 km/h
2566 16-03-2010 09:23:02 6 C 6.46 g/m*3 6 C 0 km/h
2567 16-03-2010 09:35:01 6.4 C 6.48 g/m*3 6.4 C 0 km/h
2568 16-03-2010 09:47:02 6.4 C 6.26 g/m*3 6.4 C 0 km/h
2569 16-03-2010 09:59:02 6.6 C 6.11 g/m*3 6.6 C 0 km/h
2570 16-03-2010 10:11:01 6.7 C 6 g/m*3 6.7 C 0 km/h
2571 16-03-2010 10:23:01 6.8 C 5.97 g/m*3 6.8 C 0 km/h
2572 16-03-2010 10:35:02 6.8 C 5.81 g/m*3 6.8 C 0 km/h
2573 16-03-2010 10:47:02 6.8 C 5.66 g/m*3 6.8 C 0 km/h
2574 16-03-2010 10:59:03 6.9 C 5.7 g/m*3 6.9 C 0 km/h
2575 16-03-2010 11:11:01 7.1 C 5.62 g/m*3 7.1 C 0 km/h
Sensor: Nr:Datum:Temp:Abs-Feuchte:Windchill:Wind:
Aussen-T/F 2576 16-03-2010 11:23:02 7.5 C 5.44 g/m*3 7.5 C 0 km/h
2577 16-03-2010 11:35:02 8.1 C 5.41 g/m*3 8.1 C 0 km/h
2578 16-03-2010 11:47:02 8.5 C 5.29 g/m*3 8.5 C 0 km/h
2579 16-03-2010 11:59:02 8.7 C 5.1 g/m*3 8.7 C 0 km/h
2580 16-03-2010 12:11:03 8.7 C 5.1 g/m*3 8.7 C 0 km/h
2581 16-03-2010 12:23:02 8.9 C 5.26 g/m*3 8.9 C 0 km/h
2582 16-03-2010 12:35:02 8.4 C 5.17 g/m*3 8.4 C 0 km/h
2583 16-03-2010 12:47:02 7.9 C 5.34 g/m*3 7.9 C 0 km/h
2584 16-03-2010 12:59:02 7.8 C 5.39 g/m*3 7.8 C 0 km/h
2585 16-03-2010 13:11:02 8 C 5.29 g/m*3 8 C 0 km/h
2586 16-03-2010 13:23:01 7.8 C 5.14 g/m*3 7.8 C 0 km/h
2587 16-03-2010 13:35:02 8.7 C 5.45 g/m*3 8.7 C 0 km/h
2588 16-03-2010 13:47:02 8.2 C 5.11 g/m*3 8.2 C 0 km/h
2589 16-03-2010 13:59:02 8.1 C 5.08 g/m*3 8.1 C 0 km/h
2590 16-03-2010 14:11:02 8.1 C 5.16 g/m*3 8.1 C 0 km/h
2591 16-03-2010 14:23:01 8.7 C 5.36 g/m*3 8.7 C 0 km/h
2592 16-03-2010 14:35:02 8.7 C 5.1 g/m*3 8.7 C 0 km/h
2593 16-03-2010 14:47:02 8.2 C 4.94 g/m*3 8.2 C 0 km/h
2594 16-03-2010 14:59:02 8.1 C 4.99 g/m*3 8.1 C 0 km/h
2595 16-03-2010 15:11:02 8.1 C 5.08 g/m*3 8.1 C 0 km/h
2596 16-03-2010 15:23:01 8.5 C 5.12 g/m*3 8.5 C 0 km/h
2597 16-03-2010 15:35:02 8.6 C 4.81 g/m*3 8.6 C 0 km/h
2598 16-03-2010 15:47:01 8.8 C 4.79 g/m*3 8.8 C 0 km/h
2599 16-03-2010 15:59:01 9 C 4.85 g/m*3 9 C 0 km/h
2600 16-03-2010 16:11:02 8.7 C 4.76 g/m*3 8.7 C 0 km/h
Sensor: Nr:Datum:Temp:Abs-Feuchte:Windchill:Wind:
Aussen-T/F 2601 16-03-2010 16:23:02 8.5 C 4.78 g/m*3 8.5 C 0 km/h
2602 16-03-2010 16:35:02 8.7 C 4.84 g/m*3 8.7 C 0 km/h
2603 16-03-2010 16:47:02 8.7 C 4.84 g/m*3 8.7 C 0 km/h
2604 16-03-2010 16:59:02 8.7 C 4.84 g/m*3 8.7 C 0 km/h
2605 16-03-2010 17:11:02 8.9 C 4.99 g/m*3 8.9 C 0 km/h
2606 16-03-2010 17:23:02 8.8 C 5.05 g/m*3 8.8 C 0 km/h
2607 16-03-2010 17:35:01 8.6 C 4.98 g/m*3 8.6 C 0 km/h
2608 16-03-2010 17:47:02 8.6 C 4.98 g/m*3 8.6 C 0 km/h
2609 16-03-2010 17:59:02 8.4 C 5.01 g/m*3 8.4 C 0 km/h
2610 16-03-2010 18:11:01 8.2 C 5.28 g/m*3 8.2 C 0 km/h
2611 16-03-2010 18:23:02 8 C 5.37 g/m*3 8 C 0 km/h
2612 16-03-2010 18:35:01 7.8 C 5.55 g/m*3 7.8 C 0 km/h
2613 16-03-2010 18:47:02 7.5 C 5.52 g/m*3 7.5 C 0 km/h
2614 16-03-2010 18:59:02 7.3 C 5.53 g/m*3 7.3 C 0 km/h
2615 16-03-2010 19:11:02 7.1 C 5.46 g/m*3 7.1 C 0 km/h
2616 16-03-2010 19:23:02 7 C 5.58 g/m*3 7 C 0 km/h
2617 16-03-2010 19:35:03 6.9 C 5.62 g/m*3 6.9 C 0 km/h
2618 16-03-2010 19:47:02 6.8 C 5.58 g/m*3 6.8 C 0 km/h
2619 16-03-2010 19:59:02 6.6 C 5.51 g/m*3 6.6 C 0 km/h
2620 16-03-2010 20:11:01 6.2 C 5.37 g/m*3 6.2 C 0 km/h
2621 16-03-2010 20:23:02 5.7 C 5.34 g/m*3 5.7 C 0 km/h
2622 16-03-2010 20:35:02 5.3 C 5.2 g/m*3 5.3 C 0 km/h
2623 16-03-2010 20:47:02 4.9 C 5.2 g/m*3 4.9 C 0 km/h
2624 16-03-2010 20:59:03 4.6 C 5.16 g/m*3 4.6 C 0 km/h
2625 16-03-2010 21:11:01 4.4 C 5.09 g/m*3 4.4 C 0 km/h
Sensor: Nr:Datum:Temp:Abs-Feuchte:Windchill:Wind:
Aussen-T/F 2626 16-03-2010 21:23:01 4.2 C 5.03 g/m*3 4.2 C 0 km/h
2627 16-03-2010 21:36:04 4 C 5.02 g/m*3 4 C 0 km/h
2628 16-03-2010 21:48:04 3.8 C 5.02 g/m*3 3.8 C 0 km/h
2629 16-03-2010 22:00:04 3.7 C 5.05 g/m*3 3.7 C 0 km/h
2630 16-03-2010 22:12:04 3.3 C 4.91 g/m*3 3.3 C 0 km/h
2631 16-03-2010 22:24:04 3.2 C 4.88 g/m*3 3.2 C 0 km/h
2632 16-03-2010 22:36:04 2.9 C 4.84 g/m*3 2.9 C 0 km/h
2633 16-03-2010 22:48:04 2.8 C 4.81 g/m*3 2.8 C 0 km/h
2634 16-03-2010 23:00:04 2.7 C 4.78 g/m*3 2.7 C 0 km/h
2635 16-03-2010 23:12:04 2.5 C 4.71 g/m*3 2.5 C 0 km/h
2636 16-03-2010 23:24:04 2.4 C 4.74 g/m*3 2.4 C 0 km/h
2637 16-03-2010 23:36:04 2.2 C 4.68 g/m*3 2.2 C 0 km/h
2638 16-03-2010 23:48:04 2 C 4.61 g/m*3 2 C 0 km/h
2639 17-03-2010 00:00:04 2.3 C 4.76 g/m*3 2.3 C 0 km/h
2640 17-03-2010 00:12:04 2 C 4.67 g/m*3 2 C 0 km/h
2641 17-03-2010 00:24:05 2.2 C 4.73 g/m*3 2.2 C 0 km/h
2642 17-03-2010 00:36:05 2.3 C 4.82 g/m*3 2.3 C 0 km/h
2643 17-03-2010 00:48:05 2.3 C 4.76 g/m*3 2.3 C 0 km/h
2644 17-03-2010 01:00:05 2.3 C 4.76 g/m*3 2.3 C 0 km/h
2645 17-03-2010 01:12:05 2.3 C 4.76 g/m*3 2.3 C 0 km/h
2646 17-03-2010 01:24:05 1.8 C 4.6 g/m*3 1.8 C 0 km/h
2647 17-03-2010 01:36:05 1.6 C 4.54 g/m*3 1.6 C 0 km/h
2648 17-03-2010 01:48:05 1.7 C 4.63 g/m*3 1.7 C 0 km/h
2649 17-03-2010 02:00:05 2 C 4.67 g/m*3 2 C 0 km/h
2650 17-03-2010 02:12:05 2 C 4.67 g/m*3 2 C 0 km/h
Sensor: Nr:Datum:Temp:Abs-Feuchte:Windchill:Wind:
Aussen-T/F 2651 17-03-2010 02:24:05 2.1 C 4.64 g/m*3 2.1 C 0 km/h
2652 17-03-2010 02:36:05 2.1 C 4.64 g/m*3 2.1 C 0 km/h
2653 17-03-2010 02:48:05 2.1 C 4.59 g/m*3 2.1 C 0 km/h
2654 17-03-2010 03:00:05 2.2 C 4.62 g/m*3 2.2 C 0 km/h
2655 17-03-2010 03:12:05 2 C 4.56 g/m*3 2 C 0 km/h
2656 17-03-2010 03:24:05 2.1 C 4.59 g/m*3 2.1 C 0 km/h
2657 17-03-2010 03:36:05 2 C 4.56 g/m*3 2 C 0 km/h
2658 17-03-2010 03:48:05 2.1 C 4.59 g/m*3 2.1 C 0 km/h
2659 17-03-2010 04:00:05 2 C 4.56 g/m*3 2 C 0 km/h
2660 17-03-2010 04:12:05 1.9 C 4.58 g/m*3 1.9 C 0 km/h
2661 17-03-2010 04:24:05 1.7 C 4.46 g/m*3 1.7 C 0 km/h
2662 17-03-2010 04:36:06 1.4 C 4.37 g/m*3 1.4 C 0 km/h
2663 17-03-2010 04:48:06 1.1 C 4.34 g/m*3 1.1 C 0 km/h
2664 17-03-2010 05:00:06 1 C 4.31 g/m*3 1 C 0 km/h
2665 17-03-2010 05:12:06 0.8 C 4.3 g/m*3 0.8 C 0 km/h
2666 17-03-2010 05:24:06 0.8 C 4.35 g/m*3 0.8 C 0 km/h
2667 17-03-2010 05:36:06 0.7 C 4.32 g/m*3 0.7 C 0 km/h
2668 17-03-2010 05:48:06 0.7 C 4.37 g/m*3 0.7 C 0 km/h
2669 17-03-2010 06:00:06 0.6 C 4.34 g/m*3 0.6 C 0 km/h
2670 17-03-2010 06:12:06 0.5 C 4.31 g/m*3 0.5 C 0 km/h
2671 17-03-2010 06:24:06 0.6 C 4.39 g/m*3 0.6 C 0 km/h
2672 17-03-2010 06:36:06 0.4 C 4.33 g/m*3 0.4 C 0 km/h
2673 17-03-2010 06:48:02 0.6 C 4.39 g/m*3 0.6 C 0 km/h
2674 17-03-2010 07:00:02 0.5 C 4.36 g/m*3 0.5 C 0 km/h
2675 17-03-2010 07:12:02 0.6 C 4.44 g/m*3 0.6 C 0 km/h
Sensor: Nr:Datum:Temp:Abs-Feuchte:Windchill:Wind:
Aussen-T/F 2676 17-03-2010 07:24:03 0.8 C 4.51 g/m*3 0.8 C 0 km/h
2677 17-03-2010 07:36:02 1.2 C 4.63 g/m*3 1.2 C 0 km/h
2678 17-03-2010 07:48:02 1.5 C 4.73 g/m*3 1.5 C 0 km/h
2679 17-03-2010 08:00:02 1.6 C 4.7 g/m*3 1.6 C 0 km/h
2680 17-03-2010 08:12:02 1.8 C 4.77 g/m*3 1.8 C 0 km/h
2681 17-03-2010 08:24:02 2 C 4.72 g/m*3 2 C 0 km/h
2682 17-03-2010 08:36:02 2.3 C 4.76 g/m*3 2.3 C 0 km/h
2683 17-03-2010 08:48:02 2.6 C 4.8 g/m*3 2.6 C 0 km/h
2684 17-03-2010 09:00:02 2.9 C 4.67 g/m*3 2.9 C 0 km/h
2685 17-03-2010 09:12:02 3.5 C 4.67 g/m*3 3.5 C 0 km/h
2686 17-03-2010 09:24:03 4.2 C 4.77 g/m*3 4.2 C 0 km/h
2687 17-03-2010 09:36:02 4.6 C 4.5 g/m*3 4.6 C 0 km/h
2688 17-03-2010 09:48:02 4.8 C 4.36 g/m*3 4.8 C 0 km/h
2689 17-03-2010 10:00:02 5.2 C 4.41 g/m*3 5.2 C 0 km/h
2690 17-03-2010 10:12:02 5.5 C 4.35 g/m*3 5.5 C 0 km/h
2691 17-03-2010 10:24:02 6.2 C 4.27 g/m*3 6.2 C 0 km/h
2692 17-03-2010 10:36:02 6.8 C 4.36 g/m*3 6.8 C 0 km/h
2693 17-03-2010 10:48:02 7.1 C 4.21 g/m*3 7.1 C 0 km/h
2694 17-03-2010 11:00:02 7.6 C 4.11 g/m*3 7.6 C 0 km/h
2695 17-03-2010 11:12:02 8.2 C 3.94 g/m*3 8.2 C 0 km/h
2696 17-03-2010 11:24:02 8.8 C 3.92 g/m*3 8.8 C 0 km/h
2697 17-03-2010 11:36:01 9 C 3.79 g/m*3 9 C 0 km/h
2698 17-03-2010 11:48:02 9.1 C 3.73 g/m*3 9.1 C 0 km/h
2699 17-03-2010 12:00:02 9.6 C 3.94 g/m*3 9.6 C 0 km/h
2700 17-03-2010 12:12:01 10.1 C 3.78 g/m*3 10.1 C 0 km/h
Sensor: Nr:Datum:Temp:Abs-Feuchte:Windchill:Wind:
Aussen-T/F 2701 17-03-2010 12:24:02 10.4 C 3.66 g/m*3 10.4 C 0 km/h
2702 17-03-2010 12:36:02 11.1 C 3.73 g/m*3 11.1 C 0 km/h
2703 17-03-2010 12:48:02 11.5 C 3.72 g/m*3 11.5 C 0 km/h
2704 17-03-2010 13:00:03 11.8 C 3.58 g/m*3 11.8 C 0 km/h
2705 17-03-2010 13:12:02 12.2 C 3.45 g/m*3 12.2 C 0 km/h
2706 17-03-2010 13:24:02 12.8 C 3.47 g/m*3 12.8 C 0 km/h
2707 17-03-2010 13:36:02 13.1 C 3.42 g/m*3 13.1 C 0 km/h
2708 17-03-2010 13:48:02 13.2 C 3.44 g/m*3 13.2 C 0 km/h
2709 17-03-2010 14:00:02 13.4 C 3.02 g/m*3 13.4 C 0 km/h
2710 17-03-2010 14:12:02 13.5 C 2.92 g/m*3 13.5 C 0 km/h
2711 17-03-2010 14:24:01 13.4 C 2.91 g/m*3 13.4 C 0 km/h
2712 17-03-2010 14:36:02 13.8 C 3.1 g/m*3 13.8 C 0 km/h
2713 17-03-2010 14:48:02 14.1 C 2.79 g/m*3 14.1 C 0 km/h
2714 17-03-2010 15:00:02 14.5 C 3.11 g/m*3 14.5 C 0 km/h
2715 17-03-2010 15:12:02 14.7 C 3.15 g/m*3 14.7 C 0 km/h
2716 17-03-2010 15:24:02 14.6 C 3.13 g/m*3 14.6 C 0 km/h
2717 17-03-2010 15:36:02 14.6 C 3.13 g/m*3 14.6 C 0 km/h
2718 17-03-2010 15:48:02 14.1 C 3.16 g/m*3 14.1 C 0 km/h
2719 17-03-2010 16:00:02 14.1 C 3.03 g/m*3 14.1 C 0 km/h
2720 17-03-2010 16:12:03 13.9 C 3 g/m*3 13.9 C 0 km/h
2721 17-03-2010 16:24:02 14 C 3.14 g/m*3 14 C 0 km/h
2722 17-03-2010 16:36:02 13.9 C 3.12 g/m*3 13.9 C 0 km/h
2723 17-03-2010 16:48:01 13.8 C 2.98 g/m*3 13.8 C 0 km/h
2724 17-03-2010 17:00:01 13.7 C 3.08 g/m*3 13.7 C 0 km/h
2725 17-03-2010 17:12:02 13.7 C 3.08 g/m*3 13.7 C 0 km/h
Sensor: Nr:Datum:Temp:Abs-Feuchte:Windchill:Wind:
Aussen-T/F 2726 17-03-2010 17:24:01 13.4 C 3.25 g/m*3 13.4 C 0 km/h
2727 17-03-2010 17:36:01 13.1 C 3.42 g/m*3 13.1 C 0 km/h
2728 17-03-2010 17:48:01 12.5 C 3.63 g/m*3 12.5 C 0 km/h
2729 17-03-2010 18:00:01 12 C 3.62 g/m*3 12 C 0 km/h
2730 17-03-2010 18:12:02 11.7 C 3.77 g/m*3 11.7 C 0 km/h
2731 17-03-2010 18:24:02 11.2 C 3.75 g/m*3 11.2 C 0 km/h
2732 17-03-2010 18:36:01 10.8 C 3.76 g/m*3 10.8 C 0 km/h
2733 17-03-2010 18:48:01 10.4 C 3.86 g/m*3 10.4 C 0 km/h
2734 17-03-2010 19:00:01 10 C 3.95 g/m*3 10 C 0 km/h
2735 17-03-2010 19:12:01 9.6 C 3.94 g/m*3 9.6 C 0 km/h
2736 17-03-2010 19:24:02 9.5 C 3.91 g/m*3 9.5 C 0 km/h
2737 17-03-2010 19:36:01 9.2 C 4.02 g/m*3 9.2 C 0 km/h
2738 17-03-2010 19:48:03 9 C 4.14 g/m*3 9 C 0 km/h
2739 17-03-2010 20:00:03 8.6 C 4.12 g/m*3 8.6 C 0 km/h
2740 17-03-2010 20:12:02 8.5 C 4.18 g/m*3 8.5 C 0 km/h
2741 17-03-2010 20:24:02 8.2 C 4.19 g/m*3 8.2 C 0 km/h
2742 17-03-2010 20:36:02 7.9 C 4.19 g/m*3 7.9 C 0 km/h
2743 17-03-2010 20:48:02 7.8 C 4.24 g/m*3 7.8 C 0 km/h
2744 17-03-2010 21:00:02 7.5 C 4.32 g/m*3 7.5 C 0 km/h
2745 17-03-2010 21:13:03 7.3 C 4.35 g/m*3 7.3 C 0 km/h
2746 17-03-2010 21:25:03 7.3 C 4.35 g/m*3 7.3 C 0 km/h
2747 17-03-2010 21:37:03 7 C 4.26 g/m*3 7 C 0 km/h
2748 17-03-2010 21:49:03 6.9 C 4.39 g/m*3 6.9 C 0 km/h
2749 17-03-2010 22:01:03 6.9 C 4.39 g/m*3 6.9 C 0 km/h
2750 17-03-2010 22:13:03 6.9 C 4.39 g/m*3 6.9 C 0 km/h
Sensor: Nr:Datum:Temp:Abs-Feuchte:Windchill:Wind:
Aussen-T/F 2751 17-03-2010 22:25:03 6.9 C 4.31 g/m*3 6.9 C 0 km/h
2752 17-03-2010 22:37:03 6.9 C 4.23 g/m*3 6.9 C 0 km/h
2753 17-03-2010 22:49:03 6.8 C 4.28 g/m*3 6.8 C 0 km/h
2754 17-03-2010 23:01:03 6.6 C 4.38 g/m*3 6.6 C 0 km/h
2755 17-03-2010 23:13:03 6.4 C 4.4 g/m*3 6.4 C 0 km/h
2756 17-03-2010 23:25:03 6.1 C 4.38 g/m*3 6.1 C 0 km/h
2757 17-03-2010 23:37:03 5.9 C 4.47 g/m*3 5.9 C 0 km/h
2758 17-03-2010 23:49:03 6.2 C 4.49 g/m*3 6.2 C 0 km/h
2759 18-03-2010 00:01:03 6.1 C 4.38 g/m*3 6.1 C 0 km/h
2760 18-03-2010 00:13:03 6.1 C 4.38 g/m*3 6.1 C 0 km/h
2761 18-03-2010 00:25:03 5.8 C 4.44 g/m*3 5.8 C 0 km/h
2762 18-03-2010 00:37:03 5.7 C 4.41 g/m*3 5.7 C 0 km/h
2763 18-03-2010 00:49:03 5.7 C 4.41 g/m*3 5.7 C 0 km/h
2764 18-03-2010 01:01:03 5.6 C 4.38 g/m*3 5.6 C 0 km/h
2765 18-03-2010 01:13:04 5.5 C 4.35 g/m*3 5.5 C 0 km/h
2766 18-03-2010 01:25:04 5.6 C 4.38 g/m*3 5.6 C 0 km/h
2767 18-03-2010 01:37:04 5.4 C 4.4 g/m*3 5.4 C 0 km/h
2768 18-03-2010 01:49:04 5.4 C 4.47 g/m*3 5.4 C 0 km/h
2769 18-03-2010 02:01:04 5.4 C 4.4 g/m*3 5.4 C 0 km/h
2770 18-03-2010 02:13:04 5.4 C 4.4 g/m*3 5.4 C 0 km/h
2771 18-03-2010 02:25:04 5.3 C 4.37 g/m*3 5.3 C 0 km/h
2772 18-03-2010 02:37:04 4.9 C 4.39 g/m*3 4.9 C 0 km/h
2773 18-03-2010 02:49:04 4.5 C 4.34 g/m*3 4.5 C 0 km/h
2774 18-03-2010 03:01:04 4.3 C 4.35 g/m*3 4.3 C 0 km/h
2775 18-03-2010 03:13:04 4 C 4.32 g/m*3 4 C 0 km/h
Sensor: Nr:Datum:Temp:Abs-Feuchte:Windchill:Wind:
Aussen-T/F 2776 18-03-2010 03:25:04 3.8 C 4.39 g/m*3 3.8 C 0 km/h
2777 18-03-2010 03:37:04 3.8 C 4.39 g/m*3 3.8 C 0 km/h
2778 18-03-2010 03:49:04 3.8 C 4.39 g/m*3 3.8 C 0 km/h
2779 18-03-2010 04:01:04 3.8 C 4.39 g/m*3 3.8 C 0 km/h
2780 18-03-2010 04:13:04 3.7 C 4.42 g/m*3 3.7 C 0 km/h
2781 18-03-2010 04:25:04 3.4 C 4.4 g/m*3 3.4 C 0 km/h
2782 18-03-2010 04:37:04 3.2 C 4.34 g/m*3 3.2 C 0 km/h
2783 18-03-2010 04:49:04 3 C 4.28 g/m*3 3 C 0 km/h
2784 18-03-2010 05:01:04 2.8 C 4.34 g/m*3 2.8 C 0 km/h
2785 18-03-2010 05:13:04 2.7 C 4.31 g/m*3 2.7 C 0 km/h
2786 18-03-2010 05:25:04 2.5 C 4.25 g/m*3 2.5 C 0 km/h
2787 18-03-2010 05:37:04 2.5 C 4.25 g/m*3 2.5 C 0 km/h
2788 18-03-2010 05:49:05 2.2 C 4.17 g/m*3 2.2 C 0 km/h
2789 18-03-2010 06:01:05 2.1 C 4.2 g/m*3 2.1 C 0 km/h
2790 18-03-2010 06:13:05 2.1 C 4.25 g/m*3 2.1 C 0 km/h
2791 18-03-2010 06:25:05 1.9 C 4.19 g/m*3 1.9 C 0 km/h
2792 18-03-2010 06:37:05 1.8 C 4.22 g/m*3 1.8 C 0 km/h
2793 18-03-2010 06:49:05 1.7 C 4.19 g/m*3 1.7 C 0 km/h
2794 18-03-2010 07:01:02 1.7 C 4.19 g/m*3 1.7 C 0 km/h
2795 18-03-2010 07:13:02 1.9 C 4.3 g/m*3 1.9 C 0 km/h
2796 18-03-2010 07:25:03 1.8 C 4.28 g/m*3 1.8 C 0 km/h
2797 18-03-2010 07:37:02 2 C 4.33 g/m*3 2 C 0 km/h
2798 18-03-2010 07:49:02 2.2 C 4.39 g/m*3 2.2 C 0 km/h
2799 18-03-2010 08:01:01 2.5 C 4.43 g/m*3 2.5 C 0 km/h
2800 18-03-2010 08:13:01 2.8 C 4.52 g/m*3 2.8 C 0 km/h
Sensor: Nr:Datum:Temp:Abs-Feuchte:Windchill:Wind:
Aussen-T/F 2801 18-03-2010 08:25:02 3.1 C 4.55 g/m*3 3.1 C 0 km/h
2802 18-03-2010 08:37:01 3.5 C 4.61 g/m*3 3.5 C 0 km/h
2803 18-03-2010 08:49:01 4 C 4.64 g/m*3 4 C 0 km/h
2804 18-03-2010 09:01:02 4.6 C 4.7 g/m*3 4.6 C 0 km/h
2805 18-03-2010 09:13:02 5.1 C 4.45 g/m*3 5.1 C 0 km/h
2806 18-03-2010 09:25:01 5.3 C 4.37 g/m*3 5.3 C 0 km/h
2807 18-03-2010 09:37:02 5.9 C 4.25 g/m*3 5.9 C 0 km/h
2808 18-03-2010 09:49:01 6.2 C 4.19 g/m*3 6.2 C 0 km/h
2809 18-03-2010 10:01:02 6.7 C 4.41 g/m*3 6.7 C 0 km/h
2810 18-03-2010 10:13:02 7.4 C 4.53 g/m*3 7.4 C 0 km/h
2811 18-03-2010 10:25:01 7.9 C 4.35 g/m*3 7.9 C 0 km/h
2812 18-03-2010 10:37:02 8.3 C 4.3 g/m*3 8.3 C 0 km/h
2813 18-03-2010 10:49:01 8.8 C 4.35 g/m*3 8.8 C 0 km/h
2814 18-03-2010 11:01:02 9.5 C 4.46 g/m*3 9.5 C 0 km/h
2815 18-03-2010 11:13:02 10.2 C 4.47 g/m*3 10.2 C 0 km/h
2816 18-03-2010 11:25:02 10.7 C 4.52 g/m*3 10.7 C 0 km/h
2817 18-03-2010 11:37:01 11.4 C 4.21 g/m*3 11.4 C 0 km/h
2818 18-03-2010 11:49:01 12 C 4.05 g/m*3 12 C 0 km/h
2819 18-03-2010 12:01:01 12.8 C 4.26 g/m*3 12.8 C 0 km/h
2820 18-03-2010 12:13:01 13.4 C 4.18 g/m*3 13.4 C 0 km/h
2821 18-03-2010 12:25:02 14.2 C 4.27 g/m*3 14.2 C 0 km/h
2822 18-03-2010 12:37:01 15 C 4.1 g/m*3 15 C 0 km/h
2823 18-03-2010 12:49:02 15.9 C 4.2 g/m*3 15.9 C 0 km/h
2824 18-03-2010 13:01:01 16.8 C 3.86 g/m*3 16.8 C 0 km/h
2825 18-03-2010 13:13:01 17.5 C 3.58 g/m*3 17.5 C 0 km/h
Sensor: Nr:Datum:Temp:Abs-Feuchte:Windchill:Wind:
Aussen-T/F 2826 18-03-2010 13:25:02 18.2 C 3.11 g/m*3 18.2 C 0 km/h
2827 18-03-2010 13:37:01 18.7 C 3.2 g/m*3 18.7 C 0 km/h
2828 18-03-2010 13:49:02 19 C 3.26 g/m*3 19 C 0 km/h
2829 18-03-2010 14:01:02 19.2 C 3.3 g/m*3 19.2 C 0 km/h
2830 18-03-2010 14:13:02 19.1 C 3.28 g/m*3 19.1 C 0 km/h
2831 18-03-2010 14:25:02 19 C 3.26 g/m*3 19 C 0 km/h
2832 18-03-2010 14:37:02 19.2 C 3.3 g/m*3 19.2 C 0 km/h
2833 18-03-2010 14:49:02 19.6 C 3.38 g/m*3 19.6 C 0 km/h
2834 18-03-2010 15:01:01 20.2 C 3.5 g/m*3 20.2 C 0 km/h
2835 18-03-2010 15:13:01 20 C 3.46 g/m*3 20 C 0 km/h
2836 18-03-2010 15:25:02 20.4 C 3.54 g/m*3 20.4 C 0 km/h
2837 18-03-2010 15:37:02 20.6 C 3.58 g/m*3 20.6 C 0 km/h
2838 18-03-2010 15:49:01 20.6 C 3.58 g/m*3 20.6 C 0 km/h
2839 18-03-2010 16:01:01 20 C 3.46 g/m*3 20 C 0 km/h
2840 18-03-2010 16:13:01 19.8 C 3.42 g/m*3 19.8 C 0 km/h
2841 18-03-2010 16:25:01 20 C 3.46 g/m*3 20 C 0 km/h
2842 18-03-2010 16:37:02 20 C 3.46 g/m*3 20 C 0 km/h
2843 18-03-2010 16:49:02 19.3 C 3.32 g/m*3 19.3 C 0 km/h
2844 18-03-2010 17:01:02 19.1 C 3.28 g/m*3 19.1 C 0 km/h
2845 18-03-2010 17:13:02 18.5 C 3.16 g/m*3 18.5 C 0 km/h
2846 18-03-2010 17:25:02 18 C 3.38 g/m*3 18 C 0 km/h
2847 18-03-2010 17:37:02 17.5 C 3.88 g/m*3 17.5 C 0 km/h
2848 18-03-2010 17:49:02 16.8 C 4.15 g/m*3 16.8 C 0 km/h
2849 18-03-2010 18:01:03 16.3 C 4.16 g/m*3 16.3 C 0 km/h
2850 18-03-2010 18:13:03 15.8 C 4.17 g/m*3 15.8 C 0 km/h
Sensor: Nr:Datum:Temp:Abs-Feuchte:Windchill:Wind:
Aussen-T/F 2851 18-03-2010 18:25:02 15.4 C 3.94 g/m*3 15.4 C 0 km/h
2852 18-03-2010 18:37:02 15 C 3.98 g/m*3 15 C 0 km/h
2853 18-03-2010 18:49:01 14.5 C 3.98 g/m*3 14.5 C 0 km/h
2854 18-03-2010 19:01:02 14.1 C 4 g/m*3 14.1 C 0 km/h
2855 18-03-2010 19:13:02 13.7 C 4.14 g/m*3 13.7 C 0 km/h
2856 18-03-2010 19:25:01 13.4 C 4.18 g/m*3 13.4 C 0 km/h
2857 18-03-2010 19:37:02 13.3 C 4.04 g/m*3 13.3 C 0 km/h
2858 18-03-2010 19:49:02 13.2 C 4.13 g/m*3 13.2 C 0 km/h
2859 18-03-2010 20:01:02 13.1 C 4.11 g/m*3 13.1 C 0 km/h
2860 18-03-2010 20:13:02 13.1 C 3.99 g/m*3 13.1 C 0 km/h
2861 18-03-2010 20:25:01 13 C 3.86 g/m*3 13 C 0 km/h
2862 18-03-2010 20:37:02 12.8 C 4.03 g/m*3 12.8 C 0 km/h
2863 18-03-2010 20:49:02 12.6 C 3.98 g/m*3 12.6 C 0 km/h
2864 18-03-2010 21:01:02 12.4 C 3.93 g/m*3 12.4 C 0 km/h
2865 18-03-2010 21:13:02 12.4 C 3.82 g/m*3 12.4 C 0 km/h
2866 18-03-2010 21:25:02 12.4 C 3.82 g/m*3 12.4 C 0 km/h
2867 18-03-2010 21:37:02 12.1 C 3.97 g/m*3 12.1 C 0 km/h
2868 18-03-2010 21:49:02 11.8 C 3.89 g/m*3 11.8 C 0 km/h
2869 18-03-2010 22:01:02 11.7 C 3.97 g/m*3 11.7 C 0 km/h
2870 18-03-2010 22:13:02 11.4 C 3.9 g/m*3 11.4 C 0 km/h
2871 18-03-2010 22:25:02 11.2 C 4.05 g/m*3 11.2 C 0 km/h
2872 18-03-2010 22:38:04 11.1 C 4.03 g/m*3 11.1 C 0 km/h
2873 18-03-2010 22:50:04 10.8 C 4.05 g/m*3 10.8 C 0 km/h
2874 18-03-2010 23:02:04 10.5 C 4.07 g/m*3 10.5 C 0 km/h
2875 18-03-2010 23:14:04 10.7 C 3.93 g/m*3 10.7 C 0 km/h
Sensor: Nr:Datum:Temp:Abs-Feuchte:Windchill:Wind:
Aussen-T/F 2876 18-03-2010 23:26:04 10.7 C 3.93 g/m*3 10.7 C 0 km/h
2877 18-03-2010 23:38:04 10.5 C 3.98 g/m*3 10.5 C 0 km/h
2878 18-03-2010 23:50:04 10.4 C 3.86 g/m*3 10.4 C 0 km/h
2879 19-03-2010 00:02:04 10 C 4.04 g/m*3 10 C 0 km/h
2880 19-03-2010 00:14:04 9.8 C 4.08 g/m*3 9.8 C 0 km/h
2881 19-03-2010 00:26:04 9.8 C 4.08 g/m*3 9.8 C 0 km/h
2882 19-03-2010 00:38:04 9.9 C 4.01 g/m*3 9.9 C 0 km/h
2883 19-03-2010 00:50:04 10.1 C 3.88 g/m*3 10.1 C 0 km/h
2884 19-03-2010 01:02:04 10.8 C 3.56 g/m*3 10.8 C 0 km/h
2885 19-03-2010 01:14:04 11.4 C 3.39 g/m*3 11.4 C 0 km/h
2886 19-03-2010 01:26:04 11.5 C 3.31 g/m*3 11.5 C 0 km/h
2887 19-03-2010 01:38:04 11.4 C 3.28 g/m*3 11.4 C 0 km/h
2888 19-03-2010 01:50:05 11.4 C 3.28 g/m*3 11.4 C 0 km/h
2889 19-03-2010 02:02:05 11.4 C 3.28 g/m*3 11.4 C 0 km/h
2890 19-03-2010 02:14:05 11.5 C 3.31 g/m*3 11.5 C 0 km/h
2891 19-03-2010 02:26:05 11.4 C 3.39 g/m*3 11.4 C 0 km/h
2892 19-03-2010 02:38:05 11.6 C 3.33 g/m*3 11.6 C 0 km/h
2893 19-03-2010 02:50:05 11.6 C 3.33 g/m*3 11.6 C 0 km/h
2894 19-03-2010 03:02:05 11.6 C 3.33 g/m*3 11.6 C 0 km/h
2895 19-03-2010 03:14:05 12 C 3.2 g/m*3 12 C 0 km/h
2896 19-03-2010 03:26:05 12 C 3.2 g/m*3 12 C 0 km/h
2897 19-03-2010 03:38:05 12.1 C 3.22 g/m*3 12.1 C 0 km/h
2898 19-03-2010 03:50:05 12.1 C 3.22 g/m*3 12.1 C 0 km/h
2899 19-03-2010 04:02:05 12.2 C 3.24 g/m*3 12.2 C 0 km/h
2900 19-03-2010 04:14:05 12.1 C 3.22 g/m*3 12.1 C 0 km/h
Sensor: Nr:Datum:Temp:Abs-Feuchte:Windchill:Wind:
Aussen-T/F 2901 19-03-2010 04:26:05 11.9 C 3.28 g/m*3 11.9 C 0 km/h
2902 19-03-2010 04:38:05 11.8 C 3.37 g/m*3 11.8 C 0 km/h
2903 19-03-2010 04:50:05 11.6 C 3.43 g/m*3 11.6 C 0 km/h
2904 19-03-2010 05:02:05 11.4 C 3.49 g/m*3 11.4 C 0 km/h
2905 19-03-2010 05:14:05 11.3 C 3.57 g/m*3 11.3 C 0 km/h
2906 19-03-2010 05:26:05 11.3 C 3.57 g/m*3 11.3 C 0 km/h
2907 19-03-2010 05:38:05 11.3 C 3.57 g/m*3 11.3 C 0 km/h
2908 19-03-2010 05:50:06 11.6 C 3.64 g/m*3 11.6 C 0 km/h
2909 19-03-2010 06:02:06 11.5 C 3.62 g/m*3 11.5 C 0 km/h
2910 19-03-2010 06:14:06 11.5 C 3.62 g/m*3 11.5 C 0 km/h
2911 19-03-2010 06:26:06 11.5 C 3.62 g/m*3 11.5 C 0 km/h
2912 19-03-2010 06:38:06 11.5 C 3.72 g/m*3 11.5 C 0 km/h
2913 19-03-2010 06:50:02 11.4 C 3.7 g/m*3 11.4 C 0 km/h
2914 19-03-2010 07:02:02 11.4 C 3.9 g/m*3 11.4 C 0 km/h
2915 19-03-2010 07:14:02 11.8 C 4 g/m*3 11.8 C 0 km/h
2916 19-03-2010 07:26:02 12.3 C 4.02 g/m*3 12.3 C 0 km/h
2917 19-03-2010 07:38:01 12.4 C 4.04 g/m*3 12.4 C 0 km/h
2918 19-03-2010 07:50:02 12.4 C 4.04 g/m*3 12.4 C 0 km/h
2919 19-03-2010 08:02:02 12.3 C 4.13 g/m*3 12.3 C 0 km/h
2920 19-03-2010 08:14:02 12.6 C 4.43 g/m*3 12.6 C 0 km/h
2921 19-03-2010 08:26:02 12.9 C 4.62 g/m*3 12.9 C 0 km/h
2922 19-03-2010 08:38:02 13.1 C 4.56 g/m*3 13.1 C 0 km/h
2923 19-03-2010 08:50:02 13.3 C 4.74 g/m*3 13.3 C 0 km/h
2924 19-03-2010 09:02:01 13.4 C 4.77 g/m*3 13.4 C 0 km/h
2925 19-03-2010 09:14:01 13.5 C 4.8 g/m*3 13.5 C 0 km/h
Sensor: Nr:Datum:Temp:Abs-Feuchte:Windchill:Wind:
Aussen-T/F 2926 19-03-2010 09:26:01 13.5 C 4.91 g/m*3 13.5 C 0 km/h
2927 19-03-2010 09:38:02 13.6 C 4.94 g/m*3 13.6 C 0 km/h
2928 19-03-2010 09:50:02 13.8 C 5 g/m*3 13.8 C 0 km/h
2929 19-03-2010 10:02:01 14.1 C 5.1 g/m*3 14.1 C 0 km/h
2930 19-03-2010 10:14:01 14.4 C 5.07 g/m*3 14.4 C 0 km/h
2931 19-03-2010 10:26:02 14.9 C 5.23 g/m*3 14.9 C 0 km/h
2932 19-03-2010 10:38:02 15.2 C 5.19 g/m*3 15.2 C 0 km/h
2933 19-03-2010 10:50:02 15.5 C 5.16 g/m*3 15.5 C 0 km/h
2934 19-03-2010 11:02:01 15.8 C 5.25 g/m*3 15.8 C 0 km/h
2935 19-03-2010 11:14:01 16.2 C 5.24 g/m*3 16.2 C 0 km/h
2936 19-03-2010 11:26:02 16.3 C 5.27 g/m*3 16.3 C 0 km/h
2937 19-03-2010 11:38:01 16 C 5.31 g/m*3 16 C 0 km/h
2938 19-03-2010 11:50:02 16.5 C 5.48 g/m*3 16.5 C 0 km/h
2939 19-03-2010 12:02:01 17 C 5.35 g/m*3 17 C 0 km/h
2940 19-03-2010 12:14:01 18.1 C 5.41 g/m*3 18.1 C 0 km/h
2941 19-03-2010 12:26:02 18.6 C 5.57 g/m*3 18.6 C 0 km/h
2942 19-03-2010 12:38:01 19 C 5.38 g/m*3 19 C 0 km/h
2943 19-03-2010 12:50:02 18.9 C 5.35 g/m*3 18.9 C 0 km/h
2944 19-03-2010 13:02:02 18.3 C 5.47 g/m*3 18.3 C 0 km/h
2945 19-03-2010 13:14:02 18.7 C 5.44 g/m*3 18.7 C 0 km/h
2946 19-03-2010 13:26:02 18.7 C 5.28 g/m*3 18.7 C 0 km/h
2947 19-03-2010 13:38:02 19.3 C 5.14 g/m*3 19.3 C 0 km/h
2948 19-03-2010 13:50:02 19.4 C 5.17 g/m*3 19.4 C 0 km/h
2949 19-03-2010 14:02:01 20 C 5.18 g/m*3 20 C 0 km/h
2950 19-03-2010 14:14:01 19.8 C 5.12 g/m*3 19.8 C 0 km/h
Sensor: Nr:Datum:Temp:Abs-Feuchte:Windchill:Wind:
Aussen-T/F 2951 19-03-2010 14:26:02 20.3 C 5.1 g/m*3 20.3 C 0 km/h
2952 19-03-2010 14:38:01 20.6 C 4.83 g/m*3 20.6 C 0 km/h
2953 19-03-2010 14:50:02 20.7 C 4.86 g/m*3 20.7 C 0 km/h
2954 19-03-2010 15:02:01 20.6 C 4.65 g/m*3 20.6 C 0 km/h
2955 19-03-2010 15:14:01 21 C 4.58 g/m*3 21 C 0 km/h
2956 19-03-2010 15:26:01 21.2 C 4.63 g/m*3 21.2 C 0 km/h
2957 19-03-2010 15:38:02 20.6 C 4.65 g/m*3 20.6 C 0 km/h
2958 19-03-2010 15:50:02 20.8 C 4.71 g/m*3 20.8 C 0 km/h
2959 19-03-2010 16:02:01 20.7 C 4.68 g/m*3 20.7 C 0 km/h
2960 19-03-2010 16:14:01 20.8 C 4.89 g/m*3 20.8 C 0 km/h
2961 19-03-2010 16:26:02 20 C 4.84 g/m*3 20 C 0 km/h
2962 19-03-2010 16:38:02 20 C 4.84 g/m*3 20 C 0 km/h
2963 19-03-2010 16:50:01 19.7 C 5.09 g/m*3 19.7 C 0 km/h
2964 19-03-2010 17:02:02 19.4 C 5.17 g/m*3 19.4 C 0 km/h
2965 19-03-2010 17:14:02 19.1 C 5.08 g/m*3 19.1 C 0 km/h
2966 19-03-2010 17:26:01 18.8 C 5.15 g/m*3 18.8 C 0 km/h
2967 19-03-2010 17:38:01 18.6 C 5.09 g/m*3 18.6 C 0 km/h
2968 19-03-2010 17:50:01 18.3 C 5.32 g/m*3 18.3 C 0 km/h
2969 19-03-2010 18:02:02 18.1 C 5.41 g/m*3 18.1 C 0 km/h
2970 19-03-2010 18:14:02 17.9 C 5.5 g/m*3 17.9 C 0 km/h
2971 19-03-2010 18:26:01 17.7 C 5.43 g/m*3 17.7 C 0 km/h
2972 19-03-2010 18:38:02 17.3 C 5.45 g/m*3 17.3 C 0 km/h
2973 19-03-2010 18:50:02 16.8 C 5.58 g/m*3 16.8 C 0 km/h
2974 19-03-2010 19:02:02 16.4 C 5.58 g/m*3 16.4 C 0 km/h
2975 19-03-2010 19:14:02 16.4 C 5.58 g/m*3 16.4 C 0 km/h
Sensor: Nr:Datum:Temp:Abs-Feuchte:Windchill:Wind:
Aussen-T/F 2976 19-03-2010 19:26:01 15.9 C 5.69 g/m*3 15.9 C 0 km/h
2977 19-03-2010 19:38:02 15.7 C 5.62 g/m*3 15.7 C 0 km/h
2978 19-03-2010 19:50:02 15.7 C 5.62 g/m*3 15.7 C 0 km/h
2979 19-03-2010 20:02:02 15.7 C 5.49 g/m*3 15.7 C 0 km/h
2980 19-03-2010 20:14:02 15.6 C 5.59 g/m*3 15.6 C 0 km/h
2981 19-03-2010 20:26:01 15.5 C 5.42 g/m*3 15.5 C 0 km/h
2982 19-03-2010 20:38:02 15.6 C 5.45 g/m*3 15.6 C 0 km/h
2983 19-03-2010 20:50:02 15.5 C 5.42 g/m*3 15.5 C 0 km/h
2984 19-03-2010 21:02:02 15.4 C 5.39 g/m*3 15.4 C 0 km/h
2985 19-03-2010 21:14:02 15.5 C 5.55 g/m*3 15.5 C 0 km/h
2986 19-03-2010 21:26:02 15.4 C 5.52 g/m*3 15.4 C 0 km/h
2987 19-03-2010 21:38:02 15.4 C 5.52 g/m*3 15.4 C 0 km/h
2988 19-03-2010 21:50:02 15.3 C 5.48 g/m*3 15.3 C 0 km/h
2989 19-03-2010 22:02:02 15.2 C 5.58 g/m*3 15.2 C 0 km/h
2990 19-03-2010 22:14:02 15.2 C 5.58 g/m*3 15.2 C 0 km/h
2991 19-03-2010 22:26:02 15.1 C 5.68 g/m*3 15.1 C 0 km/h
2992 19-03-2010 22:38:02 15 C 5.77 g/m*3 15 C 0 km/h
2993 19-03-2010 22:50:02 14.9 C 5.74 g/m*3 14.9 C 0 km/h
2994 19-03-2010 23:02:01 14.7 C 5.79 g/m*3 14.7 C 0 km/h
2995 19-03-2010 23:14:01 14.7 C 5.79 g/m*3 14.7 C 0 km/h
2996 19-03-2010 23:26:02 14.6 C 5.76 g/m*3 14.6 C 0 km/h
2997 19-03-2010 23:38:02 14.5 C 5.85 g/m*3 14.5 C 0 km/h
2998 19-03-2010 23:51:04 14.5 C 5.72 g/m*3 14.5 C 0 km/h
2999 20-03-2010 00:03:04 14.4 C 5.93 g/m*3 14.4 C 0 km/h
3000 20-03-2010 00:15:04 14.2 C 5.86 g/m*3 14.2 C 0 km/h
Sensor: Nr:Datum:Temp:Abs-Feuchte:Windchill:Wind:
Aussen-T/F 3001 20-03-2010 00:27:04 14.1 C 5.95 g/m*3 14.1 C 0 km/h
3002 20-03-2010 00:39:04 14.1 C 5.83 g/m*3 14.1 C 0 km/h
3003 20-03-2010 00:51:04 14.1 C 5.83 g/m*3 14.1 C 0 km/h
3004 20-03-2010 01:03:04 14.1 C 5.83 g/m*3 14.1 C 0 km/h
3005 20-03-2010 01:15:04 14.1 C 5.95 g/m*3 14.1 C 0 km/h
3006 20-03-2010 01:27:04 13.9 C 5.99 g/m*3 13.9 C 0 km/h
3007 20-03-2010 01:39:04 13.9 C 5.87 g/m*3 13.9 C 0 km/h
3008 20-03-2010 01:51:04 14.1 C 5.58 g/m*3 14.1 C 0 km/h
3009 20-03-2010 02:03:04 14.7 C 5.41 g/m*3 14.7 C 0 km/h
3010 20-03-2010 02:15:04 14.7 C 5.67 g/m*3 14.7 C 0 km/h
3011 20-03-2010 02:27:04 14.4 C 6.43 g/m*3 14.4 C 0 km/h
3012 20-03-2010 02:39:04 13.8 C 7.03 g/m*3 13.8 C 0 km/h
3013 20-03-2010 02:51:04 13.5 C 7.49 g/m*3 13.5 C 0 km/h
3014 20-03-2010 03:03:05 13 C 7.83 g/m*3 13 C 0 km/h
3015 20-03-2010 03:15:05 12.5 C 8.14 g/m*3 12.5 C 0 km/h
3016 20-03-2010 03:27:05 12.1 C 8.26 g/m*3 12.1 C 0 km/h
3017 20-03-2010 03:39:05 12.2 C 8.52 g/m*3 12.2 C 0 km/h
3018 20-03-2010 03:51:05 12.1 C 8.47 g/m*3 12.1 C 0 km/h
3019 20-03-2010 04:03:05 12 C 8.63 g/m*3 12 C 0 km/h
3020 20-03-2010 04:15:05 12.2 C 8.85 g/m*3 12.2 C 0 km/h
3021 20-03-2010 04:27:05 12 C 8.85 g/m*3 12 C 0 km/h
3022 20-03-2010 04:39:05 12.1 C 9.01 g/m*3 12.1 C 0 km/h
3023 20-03-2010 04:51:05 12.1 C 9.12 g/m*3 12.1 C 0 km/h
3024 20-03-2010 05:03:05 12.1 C 9.12 g/m*3 12.1 C 0 km/h
3025 20-03-2010 05:15:05 12.4 C 9.4 g/m*3 12.4 C 0 km/h
Sensor: Nr:Datum:Temp:Abs-Feuchte:Windchill:Wind:
Aussen-T/F 3026 20-03-2010 05:27:05 12.7 C 9.46 g/m*3 12.7 C 0 km/h
3027 20-03-2010 05:39:05 12.6 C 9.29 g/m*3 12.6 C 0 km/h
3028 20-03-2010 05:51:05 12.7 C 9.35 g/m*3 12.7 C 0 km/h
3029 20-03-2010 06:03:06 12.7 C 9.24 g/m*3 12.7 C 0 km/h
3030 20-03-2010 06:15:06 13.1 C 9.24 g/m*3 13.1 C 0 km/h
3031 20-03-2010 06:27:06 13.2 C 9.19 g/m*3 13.2 C 0 km/h
3032 20-03-2010 06:39:06 13.2 C 9.07 g/m*3 13.2 C 0 km/h
3033 20-03-2010 06:51:06 13.2 C 9.19 g/m*3 13.2 C 0 km/h
3034 20-03-2010 07:03:06 13.3 C 9.13 g/m*3 13.3 C 0 km/h
3035 20-03-2010 07:15:06 13.4 C 9.18 g/m*3 13.4 C 0 km/h
3036 20-03-2010 07:27:06 13.4 C 9.18 g/m*3 13.4 C 0 km/h
3037 20-03-2010 07:39:06 13.6 C 9.18 g/m*3 13.6 C 0 km/h
3038 20-03-2010 07:51:06 13.9 C 9.23 g/m*3 13.9 C 0 km/h
3039 20-03-2010 08:03:06 14 C 9.05 g/m*3 14 C 0 km/h
3040 20-03-2010 08:15:06 14.2 C 9.04 g/m*3 14.2 C 0 km/h
3041 20-03-2010 08:27:06 14.2 C 9.16 g/m*3 14.2 C 0 km/h
3042 20-03-2010 08:39:03 14.3 C 9.09 g/m*3 14.3 C 0 km/h
3043 20-03-2010 08:51:02 14.4 C 9.15 g/m*3 14.4 C 0 km/h
3044 20-03-2010 09:03:03 14.6 C 9.13 g/m*3 14.6 C 0 km/h
3045 20-03-2010 09:15:02 14.8 C 9.12 g/m*3 14.8 C 0 km/h
3046 20-03-2010 09:27:02 14.6 C 9.39 g/m*3 14.6 C 0 km/h
3047 20-03-2010 09:39:02 14.2 C 9.52 g/m*3 14.2 C 0 km/h
3048 20-03-2010 09:51:01 15 C 9.36 g/m*3 15 C 0 km/h
3049 20-03-2010 10:03:02 15.4 C 9.2 g/m*3 15.4 C 0 km/h
3050 20-03-2010 10:15:01 15.8 C 9.29 g/m*3 15.8 C 0 km/h
Sensor: Nr:Datum:Temp:Abs-Feuchte:Windchill:Wind:
Aussen-T/F 3051 20-03-2010 10:27:01 16.1 C 9.05 g/m*3 16.1 C 0 km/h
3052 20-03-2010 10:39:02 16.1 C 8.91 g/m*3 16.1 C 0 km/h
3053 20-03-2010 10:51:01 15.8 C 9.02 g/m*3 15.8 C 0 km/h
3054 20-03-2010 11:03:02 15.1 C 9.29 g/m*3 15.1 C 0 km/h
3055 20-03-2010 11:15:01 15.2 C 9.35 g/m*3 15.2 C 0 km/h
3056 20-03-2010 11:27:01 15.6 C 9.31 g/m*3 15.6 C 0 km/h
3057 20-03-2010 11:39:02 15.5 C 9.25 g/m*3 15.5 C 0 km/h
3058 20-03-2010 11:51:02 15.1 C 9.16 g/m*3 15.1 C 0 km/h
3059 20-03-2010 12:03:02 15.1 C 9.29 g/m*3 15.1 C 0 km/h
3060 20-03-2010 12:15:01 15.4 C 9.33 g/m*3 15.4 C 0 km/h
3061 20-03-2010 12:27:01 15.7 C 9.1 g/m*3 15.7 C 0 km/h
3062 20-03-2010 12:39:02 15.4 C 8.93 g/m*3 15.4 C 0 km/h
3063 20-03-2010 12:51:01 15.4 C 8.93 g/m*3 15.4 C 0 km/h
3064 20-03-2010 13:03:02 16.2 C 8.83 g/m*3 16.2 C 0 km/h
3065 20-03-2010 13:15:02 15.9 C 8.67 g/m*3 15.9 C 0 km/h
3066 20-03-2010 13:27:02 15.9 C 8.94 g/m*3 15.9 C 0 km/h
3067 20-03-2010 13:39:02 16 C 8.86 g/m*3 16 C 0 km/h
3068 20-03-2010 13:51:01 15.6 C 9.04 g/m*3 15.6 C 0 km/h
3069 20-03-2010 14:03:02 15.1 C 9.03 g/m*3 15.1 C 0 km/h
3070 20-03-2010 14:15:02 15 C 8.98 g/m*3 15 C 0 km/h
3071 20-03-2010 14:27:02 15.5 C 8.99 g/m*3 15.5 C 0 km/h
3072 20-03-2010 14:39:02 15.6 C 8.78 g/m*3 15.6 C 0 km/h
3073 20-03-2010 14:51:01 15.8 C 8.48 g/m*3 15.8 C 0 km/h
3074 20-03-2010 15:03:02 16.7 C 8.38 g/m*3 16.7 C 0 km/h
3075 20-03-2010 15:15:02 17 C 8.1 g/m*3 17 C 0 km/h
Sensor: Nr:Datum:Temp:Abs-Feuchte:Windchill:Wind:
Aussen-T/F 3076 20-03-2010 15:27:02 16.8 C 8.15 g/m*3 16.8 C 0 km/h
3077 20-03-2010 15:39:01 17 C 8.25 g/m*3 17 C 0 km/h
3078 20-03-2010 15:51:02 16.8 C 8.15 g/m*3 16.8 C 0 km/h
3079 20-03-2010 16:03:01 16.5 C 8 g/m*3 16.5 C 0 km/h
3080 20-03-2010 16:15:02 16.4 C 8.1 g/m*3 16.4 C 0 km/h
3081 20-03-2010 16:27:02 16.1 C 8.09 g/m*3 16.1 C 0 km/h
3082 20-03-2010 16:39:01 16 C 8.17 g/m*3 16 C 0 km/h
3083 20-03-2010 16:51:03 15.9 C 8.26 g/m*3 15.9 C 0 km/h
3084 20-03-2010 17:03:02 15.7 C 8.16 g/m*3 15.7 C 0 km/h
3085 20-03-2010 17:15:02 15.1 C 8.39 g/m*3 15.1 C 0 km/h
3086 20-03-2010 17:27:02 14.4 C 8.78 g/m*3 14.4 C 0 km/h
3087 20-03-2010 17:39:02 14.6 C 8.63 g/m*3 14.6 C 0 km/h
3088 20-03-2010 17:51:02 14.7 C 8.56 g/m*3 14.7 C 0 km/h
3089 20-03-2010 18:03:01 14.6 C 8.38 g/m*3 14.6 C 0 km/h
3090 20-03-2010 18:15:02 14.6 C 8.38 g/m*3 14.6 C 0 km/h
3091 20-03-2010 18:27:02 14.5 C 8.33 g/m*3 14.5 C 0 km/h
3092 20-03-2010 18:39:02 14.5 C 8.33 g/m*3 14.5 C 0 km/h
3093 20-03-2010 18:51:02 14.4 C 8.41 g/m*3 14.4 C 0 km/h
3094 20-03-2010 19:03:01 14.3 C 8.48 g/m*3 14.3 C 0 km/h
3095 20-03-2010 19:15:01 14.2 C 8.43 g/m*3 14.2 C 0 km/h
3096 20-03-2010 19:27:01 14.3 C 8.48 g/m*3 14.3 C 0 km/h
3097 20-03-2010 19:39:02 14.4 C 8.53 g/m*3 14.4 C 0 km/h
3098 20-03-2010 19:51:02 14.5 C 8.46 g/m*3 14.5 C 0 km/h
3099 20-03-2010 20:03:02 14.6 C 8.38 g/m*3 14.6 C 0 km/h
3100 20-03-2010 20:15:02 14.5 C 8.46 g/m*3 14.5 C 0 km/h
Sensor: Nr:Datum:Temp:Abs-Feuchte:Windchill:Wind:
Aussen-T/F 3101 20-03-2010 20:27:02 14.6 C 8.38 g/m*3 14.6 C 0 km/h
3102 20-03-2010 20:39:02 14.6 C 8.38 g/m*3 14.6 C 0 km/h
3103 20-03-2010 20:51:02 14.5 C 8.21 g/m*3 14.5 C 0 km/h
3104 20-03-2010 21:03:02 14.6 C 8.26 g/m*3 14.6 C 0 km/h
3105 20-03-2010 21:15:02 14.5 C 8.21 g/m*3 14.5 C 0 km/h
3106 20-03-2010 21:27:02 14.4 C 8.16 g/m*3 14.4 C 0 km/h
3107 20-03-2010 21:39:02 14.2 C 8.18 g/m*3 14.2 C 0 km/h
3108 20-03-2010 21:51:01 14.2 C 8.18 g/m*3 14.2 C 0 km/h
3109 20-03-2010 22:03:02 14.2 C 8.18 g/m*3 14.2 C 0 km/h
3110 20-03-2010 22:16:01 14.3 C 8.11 g/m*3 14.3 C 0 km/h
3111 20-03-2010 22:28:01 13.9 C 8.39 g/m*3 13.9 C 0 km/h
3112 20-03-2010 22:40:01 14.1 C 8.25 g/m*3 14.1 C 0 km/h
3113 20-03-2010 22:52:01 13.7 C 8.53 g/m*3 13.7 C 0 km/h
3114 20-03-2010 23:04:02 13 C 8.85 g/m*3 13 C 0 km/h
3115 20-03-2010 23:16:02 12.6 C 9.07 g/m*3 12.6 C 0 km/h
3116 20-03-2010 23:28:02 12.5 C 9.24 g/m*3 12.5 C 0 km/h
3117 20-03-2010 23:40:02 12.4 C 9.29 g/m*3 12.4 C 0 km/h
3118 20-03-2010 23:52:02 12.3 C 9.34 g/m*3 12.3 C 0 km/h
3119 21-03-2010 00:04:02 12.1 C 9.44 g/m*3 12.1 C 0 km/h
3120 21-03-2010 00:16:02 12 C 9.38 g/m*3 12 C 0 km/h
3121 21-03-2010 00:28:02 12.1 C 9.54 g/m*3 12.1 C 0 km/h
3122 21-03-2010 00:40:02 12.1 C 9.54 g/m*3 12.1 C 0 km/h
3123 21-03-2010 00:52:02 12.1 C 9.54 g/m*3 12.1 C 0 km/h
3124 21-03-2010 01:04:02 12 C 9.59 g/m*3 12 C 0 km/h
3125 21-03-2010 01:16:02 12 C 9.59 g/m*3 12 C 0 km/h
Sensor: Nr:Datum:Temp:Abs-Feuchte:Windchill:Wind:
Aussen-T/F 3126 21-03-2010 01:28:02 11.9 C 9.64 g/m*3 11.9 C 0 km/h
3127 21-03-2010 01:40:02 11.9 C 9.64 g/m*3 11.9 C 0 km/h
3128 21-03-2010 01:52:02 11.8 C 9.68 g/m*3 11.8 C 0 km/h
3129 21-03-2010 02:04:02 11.8 C 9.68 g/m*3 11.8 C 0 km/h
3130 21-03-2010 02:16:02 11.8 C 9.79 g/m*3 11.8 C 0 km/h
3131 21-03-2010 02:28:02 11.7 C 9.73 g/m*3 11.7 C 0 km/h
3132 21-03-2010 02:40:02 11.7 C 9.73 g/m*3 11.7 C 0 km/h
3133 21-03-2010 02:52:02 11.5 C 9.61 g/m*3 11.5 C 0 km/h
3134 21-03-2010 03:04:02 11.5 C 9.61 g/m*3 11.5 C 0 km/h
3135 21-03-2010 03:16:02 11.4 C 9.55 g/m*3 11.4 C 0 km/h
3136 21-03-2010 03:28:02 11.4 C 9.55 g/m*3 11.4 C 0 km/h
3137 21-03-2010 03:40:03 11.5 C 9.71 g/m*3 11.5 C 0 km/h
3138 21-03-2010 03:52:03 11.6 C 9.77 g/m*3 11.6 C 0 km/h
3139 21-03-2010 04:04:03 11.6 C 9.77 g/m*3 11.6 C 0 km/h
3140 21-03-2010 04:16:03 11.5 C 9.71 g/m*3 11.5 C 0 km/h
3141 21-03-2010 04:28:03 11.6 C 9.77 g/m*3 11.6 C 0 km/h
3142 21-03-2010 04:40:03 11.6 C 9.87 g/m*3 11.6 C 0 km/h
3143 21-03-2010 04:52:03 11.6 C 9.87 g/m*3 11.6 C 0 km/h
3144 21-03-2010 05:04:03 11.5 C 9.81 g/m*3 11.5 C 0 km/h
3145 21-03-2010 05:16:03 11.4 C 9.75 g/m*3 11.4 C 0 km/h
3146 21-03-2010 05:28:03 11.3 C 9.69 g/m*3 11.3 C 0 km/h
3147 21-03-2010 05:40:03 11.3 C 9.69 g/m*3 11.3 C 0 km/h
3148 21-03-2010 05:52:03 11.4 C 9.75 g/m*3 11.4 C 0 km/h
3149 21-03-2010 06:04:03 11.4 C 9.65 g/m*3 11.4 C 0 km/h
3150 21-03-2010 06:16:03 11.4 C 9.65 g/m*3 11.4 C 0 km/h
Sensor: Nr:Datum:Temp:Abs-Feuchte:Windchill:Wind:
Aussen-T/F 3151 21-03-2010 06:28:03 11.4 C 9.55 g/m*3 11.4 C 0 km/h
3152 21-03-2010 06:40:03 11.3 C 9.38 g/m*3 11.3 C 0 km/h
3153 21-03-2010 06:52:03 11.3 C 9.38 g/m*3 11.3 C 0 km/h
3154 21-03-2010 07:04:03 11.3 C 9.38 g/m*3 11.3 C 0 km/h
3155 21-03-2010 07:16:03 11.3 C 9.38 g/m*3 11.3 C 0 km/h
3156 21-03-2010 07:28:03 11.2 C 9.33 g/m*3 11.2 C 0 km/h
3157 21-03-2010 07:40:03 11.3 C 9.49 g/m*3 11.3 C 0 km/h
3158 21-03-2010 07:52:03 11.2 C 9.43 g/m*3 11.2 C 0 km/h
3159 21-03-2010 08:04:04 11.5 C 9.61 g/m*3 11.5 C 0 km/h
3160 21-03-2010 08:16:04 11.9 C 9.96 g/m*3 11.9 C 0 km/h
3161 21-03-2010 08:28:04 12.2 C 9.93 g/m*3 12.2 C 0 km/h
3162 21-03-2010 08:40:01 12.5 C 9.78 g/m*3 12.5 C 0 km/h
3163 21-03-2010 08:52:02 12.4 C 9.4 g/m*3 12.4 C 0 km/h
3164 21-03-2010 09:04:02 12.9 C 9.35 g/m*3 12.9 C 0 km/h
3165 21-03-2010 09:16:02 13.5 C 8.89 g/m*3 13.5 C 0 km/h
3166 21-03-2010 09:28:02 13.5 C 8.66 g/m*3 13.5 C 0 km/h
3167 21-03-2010 09:40:01 12.7 C 8.68 g/m*3 12.7 C 0 km/h
3168 21-03-2010 09:52:02 12.1 C 8.58 g/m*3 12.1 C 0 km/h
3169 21-03-2010 10:04:01 12.4 C 8.85 g/m*3 12.4 C 0 km/h
3170 21-03-2010 10:16:02 13 C 8.85 g/m*3 13 C 0 km/h
3171 21-03-2010 10:28:03 13.2 C 8.15 g/m*3 13.2 C 0 km/h
3172 21-03-2010 10:40:01 12.8 C 7.84 g/m*3 12.8 C 0 km/h
3173 21-03-2010 10:52:02 13.2 C 7.81 g/m*3 13.2 C 0 km/h
3174 21-03-2010 11:04:02 13.5 C 7.95 g/m*3 13.5 C 0 km/h
3175 21-03-2010 11:16:02 13.5 C 7.84 g/m*3 13.5 C 0 km/h
Sensor: Nr:Datum:Temp:Abs-Feuchte:Windchill:Wind:
Aussen-T/F 3176 21-03-2010 11:28:02 13.6 C 7.89 g/m*3 13.6 C 0 km/h
3177 21-03-2010 11:40:03 12.5 C 8.14 g/m*3 12.5 C 0 km/h
3178 21-03-2010 11:52:02 12.1 C 8.69 g/m*3 12.1 C 0 km/h
3179 21-03-2010 12:04:02 11.9 C 8.9 g/m*3 11.9 C 0 km/h
3180 21-03-2010 12:16:02 11.9 C 8.9 g/m*3 11.9 C 0 km/h
3181 21-03-2010 12:28:02 12.4 C 9.18 g/m*3 12.4 C 0 km/h
3182 21-03-2010 12:40:03 13.6 C 8.94 g/m*3 13.6 C 0 km/h
3183 21-03-2010 12:52:02 13.7 C 8.29 g/m*3 13.7 C 0 km/h
3184 21-03-2010 13:04:02 13.2 C 8.04 g/m*3 13.2 C 0 km/h
3185 21-03-2010 13:16:02 13 C 8.05 g/m*3 13 C 0 km/h
3186 21-03-2010 13:28:02 12.6 C 7.97 g/m*3 12.6 C 0 km/h
3187 21-03-2010 13:40:02 12.6 C 7.97 g/m*3 12.6 C 0 km/h
3188 21-03-2010 13:52:01 12.4 C 7.87 g/m*3 12.4 C 0 km/h
3189 21-03-2010 14:04:02 12.4 C 7.98 g/m*3 12.4 C 0 km/h
3190 21-03-2010 14:16:01 12.2 C 7.99 g/m*3 12.2 C 0 km/h
3191 21-03-2010 14:28:01 11.8 C 8.42 g/m*3 11.8 C 0 km/h
3192 21-03-2010 14:40:02 11.4 C 8.42 g/m*3 11.4 C 0 km/h
3193 21-03-2010 14:52:02 11.5 C 8.57 g/m*3 11.5 C 0 km/h
3194 21-03-2010 15:04:02 11.5 C 8.57 g/m*3 11.5 C 0 km/h
3195 21-03-2010 15:16:01 11.5 C 8.57 g/m*3 11.5 C 0 km/h
3196 21-03-2010 15:28:01 11.5 C 8.57 g/m*3 11.5 C 0 km/h
3197 21-03-2010 15:40:02 11.3 C 8.57 g/m*3 11.3 C 0 km/h
3198 21-03-2010 15:52:03 11.1 C 8.46 g/m*3 11.1 C 0 km/h
3199 21-03-2010 16:04:03 11.1 C 8.56 g/m*3 11.1 C 0 km/h
3200 21-03-2010 16:16:02 10.8 C 8.6 g/m*3 10.8 C 0 km/h
Sensor: Nr:Datum:Temp:Abs-Feuchte:Windchill:Wind:
Aussen-T/F 3201 21-03-2010 16:28:02 10.7 C 8.74 g/m*3 10.7 C 0 km/h
3202 21-03-2010 16:40:02 10.5 C 8.63 g/m*3 10.5 C 0 km/h
3203 21-03-2010 16:52:02 10.5 C 8.53 g/m*3 10.5 C 0 km/h
3204 21-03-2010 17:04:01 10.5 C 8.53 g/m*3 10.5 C 0 km/h
3205 21-03-2010 17:16:02 10.7 C 8.45 g/m*3 10.7 C 0 km/h
3206 21-03-2010 17:28:02 10.7 C 8.45 g/m*3 10.7 C 0 km/h
3207 21-03-2010 17:40:02 10.7 C 8.35 g/m*3 10.7 C 0 km/h
3208 21-03-2010 17:52:02 10.7 C 7.96 g/m*3 10.7 C 0 km/h
3209 21-03-2010 18:04:02 10.1 C 7.66 g/m*3 10.1 C 0 km/h
3210 21-03-2010 18:16:02 9.8 C 7.79 g/m*3 9.8 C 0 km/h
3211 21-03-2010 18:28:02 9.5 C 7.74 g/m*3 9.5 C 0 km/h
3212 21-03-2010 18:40:03 9.4 C 7.69 g/m*3 9.4 C 0 km/h
3213 21-03-2010 18:52:02 9.5 C 7.74 g/m*3 9.5 C 0 km/h
3214 21-03-2010 19:04:02 9.6 C 7.79 g/m*3 9.6 C 0 km/h
3215 21-03-2010 19:16:01 9.6 C 7.79 g/m*3 9.6 C 0 km/h
3216 21-03-2010 19:28:01 9.5 C 7.74 g/m*3 9.5 C 0 km/h
3217 21-03-2010 19:40:02 9.3 C 7.64 g/m*3 9.3 C 0 km/h
3218 21-03-2010 19:52:02 9.3 C 7.73 g/m*3 9.3 C 0 km/h
3219 21-03-2010 20:04:02 9.3 C 7.73 g/m*3 9.3 C 0 km/h
3220 21-03-2010 20:16:02 9.4 C 7.78 g/m*3 9.4 C 0 km/h
3221 21-03-2010 20:28:02 9.5 C 7.92 g/m*3 9.5 C 0 km/h
3222 21-03-2010 20:40:02 9.5 C 7.92 g/m*3 9.5 C 0 km/h
3223 21-03-2010 20:52:02 9.5 C 7.83 g/m*3 9.5 C 0 km/h
3224 21-03-2010 21:04:02 9.5 C 7.83 g/m*3 9.5 C 0 km/h
3225 21-03-2010 21:16:02 9.4 C 7.78 g/m*3 9.4 C 0 km/h
Sensor: Nr:Datum:Temp:Abs-Feuchte:Windchill:Wind:
Aussen-T/F 3226 21-03-2010 21:28:02 9.3 C 7.46 g/m*3 9.3 C 0 km/h
3227 21-03-2010 21:40:02 9.4 C 7.15 g/m*3 9.4 C 0 km/h
3228 21-03-2010 21:52:01 9.4 C 7.05 g/m*3 9.4 C 0 km/h
3229 21-03-2010 22:05:03 9.4 C 7.05 g/m*3 9.4 C 0 km/h
3230 21-03-2010 22:17:03 9.3 C 7.1 g/m*3 9.3 C 0 km/h
3231 21-03-2010 22:29:03 9.2 C 7.14 g/m*3 9.2 C 0 km/h
3232 21-03-2010 22:41:03 9.1 C 7.19 g/m*3 9.1 C 0 km/h
3233 21-03-2010 22:53:03 9.1 C 7.19 g/m*3 9.1 C 0 km/h
3234 21-03-2010 23:05:03 8.9 C 7.27 g/m*3 8.9 C 0 km/h
3235 21-03-2010 23:17:03 8.8 C 7.49 g/m*3 8.8 C 0 km/h
3236 21-03-2010 23:29:03 8.6 C 7.48 g/m*3 8.6 C 0 km/h
3237 21-03-2010 23:41:03 8.5 C 7.51 g/m*3 8.5 C 0 km/h
3238 21-03-2010 23:53:04 8.5 C 7.6 g/m*3 8.5 C 0 km/h
3239 22-03-2010 00:05:04 8.5 C 7.68 g/m*3 8.5 C 0 km/h
3240 22-03-2010 00:17:04 8.5 C 7.68 g/m*3 8.5 C 0 km/h
3241 22-03-2010 00:29:04 8.4 C 7.63 g/m*3 8.4 C 0 km/h
3242 22-03-2010 00:41:04 8.3 C 7.67 g/m*3 8.3 C 0 km/h
3243 22-03-2010 00:53:04 8.3 C 7.67 g/m*3 8.3 C 0 km/h
3244 22-03-2010 01:05:04 8.3 C